AA6033 / N672AE 7700 Squawk Report (19th of July, 2021)

Aircraft E145 Reg No. N672AE Age N/A
Model ERJ-145 Jet engines 2 First flight 04-04
Registered 19-09-17 Rollout 03-04 Delivered 14-04-04
Construction No. 145794 Line No. N/A Series LR
ADSHEX A8E32B Airline name Envoy Air Owner Piedmont Airlines
Airfield based Philadelphia International~PA~N First tracked N/A

Flight history for N672AE

Route Flight No Date Playback
Chicago Ohare Intl (ORD) - Evansville Regional (EVV) AA6242 2021-08-01 01:10:00
Syracuse Hancock Intl (SYR) - Chicago Ohare Intl (ORD) AA6157 2021-08-01 00:24:00
Chicago Ohare Intl (ORD) - Syracuse Hancock Intl (SYR) AA6109 2021-07-31 20:36:00
Chicago Ohare Intl (ORD) - Cleveland Hopkins Intl (CLE) - Chicago Ohare Intl (ORD) AA6117 2021-07-31 18:50:00
Harrisburg Intl (MDT) - Chicago Ohare Intl (ORD) AA6241 2021-07-31 11:52:00
Logan International Airport (BOS) - Harrisburg Intl (MDT) AA6044 2021-07-31 10:05:00
Harrisburg Intl (MDT) - Logan International Airport (BOS) AA6060 2021-07-30 23:09:00
Charlotte Douglas (CLT) - Harrisburg Intl (MDT) AA6017 2021-07-30 20:36:00
Roanoke–Blacksburg Regional (ROA) - Charlotte Douglas (CLT) AA6006 2021-07-30 17:40:00
Charlotte Douglas (CLT) - Roanoke–Blacksburg Regional (ROA) AA6191 2021-07-30 15:51:00
Augusta Rgnl At Bush Fld (AGS) - Charlotte Douglas (CLT) PT8820 2021-07-30 14:09:00
Charlotte Douglas (CLT) - Augusta Rgnl At Bush Fld (AGS) - Charlotte Douglas (CLT) AA6101 2021-07-30 13:43:00
Roanoke–Blacksburg Regional (ROA) - Charlotte Douglas (CLT) AA6143 2021-07-30 10:18:00
Philadelphia Intl (PHL) - Roanoke–Blacksburg Regional (ROA) AA6155 2021-07-30 00:32:00
Philadelphia Intl (PHL) - Greater Rochester Intl (ROC) - Philadelphia Intl (PHL) AA6297 2021-07-29 22:39:00
Charlotte Douglas (CLT) - Greater Rochester Intl (ROC) AA6207 2021-07-29 19:03:00
Charlotte Douglas (CLT) - Tri-State Airport (HTS) N/A 2021-07-28 21:29:00
Charlotte Douglas (CLT) - Toledo Express Airport (TOL) - Charlotte Douglas (CLT) AA6116 2021-07-28 19:33:00
Salisbury Ocean City Wicomico Rgnl (SBY) - Charlotte Douglas (CLT) AA6027 2021-07-28 14:00:00
Charlotte Douglas (CLT) - Salisbury Ocean City Wicomico Rgnl (SBY) AA6002 2021-07-28 00:12:00
Time Lat Lon Altitude Heading Speed Vertical Rate
2021-07-20 00:53:40 GMT 39.881672 -75.235588 0 165 6 0
2021-07-20 00:53:39 GMT 39.881599 -75.235550 0 165 6 0
2021-07-20 00:53:38 GMT 39.881618 -75.235558 0 165 6 0
2021-07-20 00:53:36 GMT 39.881649 -75.235573 0 166 7 0
2021-07-20 00:53:35 GMT 39.881680 -75.235588 0 166 7 0
2021-07-20 00:53:34 GMT 39.881729 -75.235619 0 168 6 0
2021-07-20 00:53:33 GMT 39.881748 -75.235619 0 170 6 0
2021-07-20 00:53:31 GMT 39.881809 -75.235672 0 180 6 0
2021-07-20 00:53:30 GMT 39.881828 -75.235672 0 172 6 0
2021-07-20 00:53:29 GMT 39.881851 -75.235657 0 168 7 0
2021-07-20 00:53:27 GMT 39.881908 -75.235672 0 173 8 0
2021-07-20 00:53:26 GMT 39.881931 -75.235680 0 173 10 0
2021-07-20 00:53:25 GMT 39.882030 -75.235703 0 170 10 0
2021-07-20 00:53:23 GMT 39.882069 -75.235703 0 164 10 0
2021-07-20 00:53:22 GMT 39.882118 -75.235703 0 157 9 0
2021-07-20 00:53:21 GMT 39.882179 -75.235710 0 156 8 0
2021-07-20 00:53:19 GMT 39.882240 -75.235771 0 162 7 0
2021-07-20 00:53:18 GMT 39.882259 -75.235779 0 166 9 0
2021-07-20 00:53:17 GMT 39.882290 -75.235802 0 167 10 0
2021-07-20 00:53:16 GMT 39.882339 -75.235809 0 164 10 0
2021-07-20 00:53:14 GMT 39.882439 -75.235840 0 163 8 0
2021-07-20 00:53:13 GMT 39.882488 -75.235870 0 163 5 0
2021-07-20 00:53:12 GMT 39.882511 -75.235893 0 167 6 0
2021-07-20 00:53:11 GMT 39.882549 -75.235901 0 157 8 0
2021-07-20 00:53:09 GMT 39.882580 -75.235893 0 149 8 0
2021-07-20 00:53:08 GMT 39.882610 -75.235893 0 147 10 0
2021-07-20 00:53:06 GMT 39.882702 -75.235970 0 149 8 0
2021-07-20 00:53:05 GMT 39.882740 -75.236000 0 156 6 0
2021-07-20 00:53:04 GMT 39.882759 -75.236053 0 169 5 0
2021-07-20 00:53:03 GMT 39.882801 -75.236076 0 172 4 0
2021-07-20 00:53:01 GMT 39.882870 -75.236061 0 172 3 0
2021-07-20 00:53:00 GMT 39.882889 -75.236061 0 173 3 0
2021-07-20 00:52:59 GMT 39.882912 -75.236061 0 174 3 0
2021-07-20 00:52:58 GMT 39.882938 -75.236076 0 176 2 0
2021-07-20 00:52:56 GMT 39.882980 -75.236069 0 176 1 0
2021-07-20 00:52:55 GMT 39.883030 -75.236069 0 177 2 0
2021-07-20 00:52:54 GMT 39.883018 -75.236069 0 178 2 0
2021-07-20 00:52:52 GMT 39.882999 -75.236076 0 181 1 0
2021-07-20 00:52:51 GMT 39.882992 -75.236107 0 181 1 0
2021-07-20 00:52:50 GMT 39.882969 -75.236076 0 181 1 0
2021-07-20 00:52:47 GMT 39.883011 -75.236130 0 181 0 0
2021-07-20 00:52:46 GMT 39.883041 -75.236130 0 181 1 0
2021-07-20 00:52:44 GMT 39.883018 -75.236130 0 181 0 0
2021-07-20 00:52:42 GMT 39.883011 -75.236137 0 181 1 0
2021-07-20 00:52:40 GMT 39.883011 -75.236122 0 180 0 0
2021-07-20 00:52:39 GMT 39.882999 -75.236107 0 178 0 0
2021-07-20 00:52:37 GMT 39.882999 -75.236099 0 178 0 0
2021-07-20 00:52:36 GMT 39.883011 -75.236076 0 180 1 0
2021-07-20 00:52:32 GMT 39.882999 -75.236122 0 183 0 0
2021-07-20 00:52:30 GMT 39.883011 -75.236130 0 183 0 0
2021-07-20 00:52:25 GMT 39.883018 -75.236130 0 183 0 0
2021-07-20 00:52:22 GMT 39.883011 -75.236107 0 183 0 0
2021-07-20 00:52:21 GMT 39.883011 -75.236122 0 183 0 0
2021-07-20 00:52:17 GMT 39.882999 -75.236130 0 183 0 0
2021-07-20 00:52:14 GMT 39.883011 -75.236099 0 183 0 0
2021-07-20 00:52:12 GMT 39.883011 -75.236122 0 183 0 0
2021-07-20 00:52:10 GMT 39.883018 -75.236160 0 181 1 0
2021-07-20 00:52:08 GMT 39.883011 -75.236130 0 181 0 0
2021-07-20 00:52:07 GMT 39.882999 -75.236122 0 181 0 0
2021-07-20 00:52:04 GMT 39.882999 -75.236107 0 181 0 0
2021-07-20 00:52:02 GMT 39.882999 -75.236099 0 181 0 0
2021-07-20 00:52:01 GMT 39.883011 -75.236107 0 181 0 0
2021-07-20 00:52:00 GMT 39.883011 -75.236137 0 181 1 0
2021-07-20 00:51:58 GMT 39.883011 -75.236107 0 181 0 0
2021-07-20 00:51:56 GMT 39.883011 -75.236099 0 181 0 0
2021-07-20 00:51:53 GMT 39.883011 -75.236107 0 178 0 0
2021-07-20 00:51:52 GMT 39.882999 -75.236099 0 178 0 0
2021-07-20 00:51:48 GMT 39.883011 -75.236137 0 178 0 0
2021-07-20 00:51:47 GMT 39.882999 -75.236130 0 178 0 0
2021-07-20 00:51:45 GMT 39.883018 -75.236130 0 178 0 0
2021-07-20 00:51:42 GMT 39.883011 -75.236137 0 178 0 0
2021-07-20 00:51:41 GMT 39.883018 -75.236168 0 176 1 0
2021-07-20 00:51:40 GMT 39.883018 -75.236160 0 175 1 0
2021-07-20 00:51:39 GMT 39.883011 -75.236137 0 172 1 0
2021-07-20 00:51:37 GMT 39.883011 -75.236107 0 172 0 0
2021-07-20 00:51:36 GMT 39.883011 -75.236099 0 172 1 0
2021-07-20 00:51:35 GMT 39.882999 -75.236076 0 173 1 0
2021-07-20 00:51:34 GMT 39.883011 -75.236107 0 173 0 0
2021-07-20 00:51:32 GMT 39.882999 -75.236122 0 173 0 0
2021-07-20 00:51:29 GMT 39.883011 -75.236122 0 173 0 0
2021-07-20 00:51:27 GMT 39.883018 -75.236130 0 172 0 0
2021-07-20 00:51:26 GMT 39.883030 -75.236130 0 172 0 0
2021-07-20 00:51:24 GMT 39.883030 -75.236130 0 172 0 0
2021-07-20 00:51:23 GMT 39.883041 -75.236130 0 172 1 0
2021-07-20 00:51:22 GMT 39.883030 -75.236153 0 172 0 0
2021-07-20 00:51:21 GMT 39.883041 -75.236160 0 168 1 0
2021-07-20 00:51:19 GMT 39.883018 -75.236153 0 163 1 0
2021-07-20 00:51:16 GMT 39.883011 -75.236130 0 163 0 0
2021-07-20 00:51:15 GMT 39.882999 -75.236122 0 163 0 0
2021-07-20 00:51:14 GMT 39.882992 -75.236107 0 163 1 0
2021-07-20 00:51:13 GMT 39.882999 -75.236122 0 163 1 0
2021-07-20 00:51:12 GMT 39.882999 -75.236130 0 163 1 0
2021-07-20 00:51:10 GMT 39.883018 -75.236160 0 162 1 0
2021-07-20 00:51:09 GMT 39.883030 -75.236168 0 162 0 0
2021-07-20 00:51:05 GMT 39.883011 -75.236122 0 162 0 0
2021-07-20 00:51:03 GMT 39.883018 -75.236107 0 162 0 0
2021-07-20 00:51:01 GMT 39.882999 -75.236099 0 162 1 0
2021-07-20 00:51:00 GMT 39.883018 -75.236122 0 162 0 0
2021-07-20 00:50:58 GMT 39.883011 -75.236122 0 162 0 0
2021-07-20 00:50:57 GMT 39.883011 -75.236137 0 162 1 0
2021-07-20 00:50:56 GMT 39.882992 -75.236122 0 162 0 0
2021-07-20 00:50:53 GMT 39.882999 -75.236122 0 162 0 0
2021-07-20 00:50:52 GMT 39.882999 -75.236107 0 162 1 0
2021-07-20 00:50:51 GMT 39.883011 -75.236107 0 162 1 0
2021-07-20 00:50:50 GMT 39.883018 -75.236137 0 162 1 0
2021-07-20 00:50:48 GMT 39.882992 -75.236160 0 160 2 0
2021-07-20 00:50:47 GMT 39.882999 -75.236153 0 160 2 0
2021-07-20 00:50:46 GMT 39.883011 -75.236137 0 160 1 0
2021-07-20 00:50:44 GMT 39.883018 -75.236122 0 160 0 0
2021-07-20 00:50:43 GMT 39.883018 -75.236107 0 160 0 0
2021-07-20 00:50:41 GMT 39.883011 -75.236107 0 159 0 0
2021-07-20 00:50:40 GMT 39.883018 -75.236107 0 159 0 0
2021-07-20 00:50:38 GMT 39.883011 -75.236099 0 159 0 0
2021-07-20 00:50:36 GMT 39.882992 -75.236107 0 159 1 0
2021-07-20 00:50:34 GMT 39.882999 -75.236122 0 159 0 0
2021-07-20 00:50:32 GMT 39.883011 -75.236107 0 159 0 0
2021-07-20 00:50:31 GMT 39.882999 -75.236107 0 159 0 0
2021-07-20 00:50:25 GMT 39.882999 -75.236122 0 158 0 0
2021-07-20 00:50:24 GMT 39.883011 -75.236130 0 158 0 0
2021-07-20 00:50:17 GMT 39.882999 -75.236122 0 157 0 0
2021-07-20 00:50:14 GMT 39.882999 -75.236107 0 157 0 0
2021-07-20 00:50:13 GMT 39.882999 -75.236099 0 157 0 0
2021-07-20 00:50:12 GMT 39.882999 -75.236107 0 157 0 0
2021-07-20 00:50:11 GMT 39.882999 -75.236122 0 157 0 0
2021-07-20 00:50:09 GMT 39.882999 -75.236130 0 154 1 0
2021-07-20 00:50:08 GMT 39.882999 -75.236122 0 154 1 0
2021-07-20 00:50:07 GMT 39.882980 -75.236099 0 152 2 0
2021-07-20 00:50:05 GMT 39.882980 -75.236076 0 152 3 0
2021-07-20 00:50:04 GMT 39.882999 -75.236092 0 153 2 0
2021-07-20 00:50:03 GMT 39.883011 -75.236107 0 154 1 0
2021-07-20 00:50:02 GMT 39.882999 -75.236099 0 157 3 0
2021-07-20 00:50:01 GMT 39.883030 -75.236153 0 159 0 0
2021-07-20 00:49:59 GMT 39.883018 -75.236160 0 159 0 0
2021-07-20 00:49:58 GMT 39.883018 -75.236153 0 159 1 0
2021-07-20 00:49:57 GMT 39.883030 -75.236137 0 159 0 0
2021-07-20 00:49:55 GMT 39.883041 -75.236137 0 159 0 0
2021-07-20 00:49:54 GMT 39.883030 -75.236130 0 159 1 0
2021-07-20 00:49:52 GMT 39.883030 -75.236153 0 160 2 0
2021-07-20 00:49:50 GMT 39.883030 -75.236137 0 161 4 0
2021-07-20 00:49:49 GMT 39.883060 -75.236160 0 165 0 0
2021-07-20 00:49:48 GMT 39.883072 -75.236168 0 165 0 0
2021-07-20 00:49:47 GMT 39.883091 -75.236183 0 159 2 0
2021-07-20 00:49:45 GMT 39.883091 -75.236160 0 158 3 0
2021-07-20 00:49:44 GMT 39.883110 -75.236153 0 161 3 0
2021-07-20 00:49:43 GMT 39.883129 -75.236183 0 161 4 0
2021-07-20 00:49:41 GMT 39.883141 -75.236183 0 155 5 0
2021-07-20 00:49:40 GMT 39.883171 -75.236183 0 154 4 0
2021-07-20 00:49:39 GMT 39.883148 -75.236191 0 158 7 0
2021-07-20 00:49:38 GMT 39.883190 -75.236183 0 155 8 0
2021-07-20 00:49:36 GMT 39.883240 -75.236229 0 157 10 0
2021-07-20 00:49:35 GMT 39.883289 -75.236252 0 156 8 0
2021-07-20 00:49:34 GMT 39.883331 -75.236282 0 161 8 0
2021-07-20 00:49:33 GMT 39.883381 -75.236320 0 160 10 0
2021-07-20 00:49:32 GMT 39.883438 -75.236320 0 152 8 0
2021-07-20 00:49:30 GMT 39.883469 -75.236343 0 149 8 0
2021-07-20 00:49:29 GMT 39.883530 -75.236351 0 149 6 0
2021-07-20 00:49:28 GMT 39.883560 -75.236397 0 158 7 0
2021-07-20 00:49:26 GMT 39.883598 -75.236427 0 167 6 0
2021-07-20 00:49:25 GMT 39.883621 -75.236458 0 167 6 0
2021-07-20 00:49:24 GMT 39.883629 -75.236443 0 166 8 0
2021-07-20 00:49:23 GMT 39.883709 -75.236481 0 165 6 0
2021-07-20 00:49:21 GMT 39.883739 -75.236488 0 163 5 0
2021-07-20 00:49:20 GMT 39.883759 -75.236504 0 163 5 0
2021-07-20 00:49:19 GMT 39.883789 -75.236511 0 159 5 0
2021-07-20 00:49:18 GMT 39.883850 -75.236511 0 165 3 0
2021-07-20 00:49:16 GMT 39.883839 -75.236557 0 167 3 0
2021-07-20 00:49:15 GMT 39.883862 -75.236572 0 163 3 0
2021-07-20 00:49:14 GMT 39.883888 -75.236549 0 162 0 0
2021-07-20 00:49:13 GMT 39.883888 -75.236572 0 162 1 0
2021-07-20 00:49:11 GMT 39.883900 -75.236542 0 163 2 0
2021-07-20 00:49:10 GMT 39.883919 -75.236557 0 165 0 0
2021-07-20 00:49:08 GMT 39.883911 -75.236572 0 165 0 0
2021-07-20 00:49:07 GMT 39.883919 -75.236603 0 165 0 0
2021-07-20 00:49:06 GMT 39.883919 -75.236588 0 165 1 0
2021-07-20 00:49:05 GMT 39.883911 -75.236572 0 164 3 0
2021-07-20 00:49:02 GMT 39.883942 -75.236610 0 166 3 0
2021-07-20 00:49:01 GMT 39.883949 -75.236588 0 163 2 0
2021-07-20 00:49:00 GMT 39.883968 -75.236580 0 162 1 0
2021-07-20 00:48:59 GMT 39.883961 -75.236542 0 162 3 0
2021-07-20 00:48:57 GMT 39.883980 -75.236572 0 169 3 0
2021-07-20 00:48:56 GMT 39.883980 -75.236588 0 173 3 0
2021-07-20 00:48:55 GMT 39.883999 -75.236633 0 177 2 0
2021-07-20 00:48:53 GMT 39.884029 -75.236610 0 173 0 0
2021-07-20 00:48:52 GMT 39.884029 -75.236603 0 173 1 0
2021-07-20 00:48:51 GMT 39.884041 -75.236572 0 174 2 0
2021-07-20 00:48:50 GMT 39.884029 -75.236603 0 174 0 0
2021-07-20 00:48:49 GMT 39.884022 -75.236610 0 174 1 0
2021-07-20 00:48:47 GMT 39.884022 -75.236610 0 174 2 0
2021-07-20 00:48:46 GMT 39.884041 -75.236610 0 173 1 0
2021-07-20 00:48:45 GMT 39.884029 -75.236618 0 174 4 0
2021-07-20 00:48:44 GMT 39.884041 -75.236618 0 174 4 0
2021-07-20 00:48:42 GMT 39.884102 -75.236603 0 171 2 0
2021-07-20 00:48:41 GMT 39.884109 -75.236610 0 176 1 0
2021-07-20 00:48:40 GMT 39.884102 -75.236603 0 176 2 0
2021-07-20 00:48:38 GMT 39.884090 -75.236610 0 180 5 0
2021-07-20 00:48:37 GMT 39.884121 -75.236656 0 190 6 0
2021-07-20 00:48:36 GMT 39.884151 -75.236641 0 191 8 0
2021-07-20 00:48:34 GMT 39.884178 -75.236641 0 196 10 0
2021-07-20 00:48:33 GMT 39.884232 -75.236641 0 201 10 0
2021-07-20 00:48:31 GMT 39.884319 -75.236572 0 189 9 0
2021-07-20 00:48:30 GMT 39.884369 -75.236557 0 189 9 0
2021-07-20 00:48:29 GMT 39.884392 -75.236557 0 192 12 0
2021-07-20 00:48:28 GMT 39.884441 -75.236549 0 194 13 0
2021-07-20 00:48:26 GMT 39.884541 -75.236542 0 202 16 0
2021-07-20 00:48:25 GMT 39.884628 -75.236481 0 195 13 0
2021-07-20 00:48:24 GMT 39.884701 -75.236420 0 196 11 0
2021-07-20 00:48:22 GMT 39.884800 -75.236420 0 200 12 0
2021-07-20 00:48:21 GMT 39.884850 -75.236382 0 199 13 0
2021-07-20 00:48:20 GMT 39.884899 -75.236359 0 194 13 0
2021-07-20 00:48:19 GMT 39.884972 -75.236298 0 184 10 0
2021-07-20 00:48:17 GMT 39.885059 -75.236282 0 190 11 0
2021-07-20 00:48:16 GMT 39.885109 -75.236259 0 186 12 0
2021-07-20 00:48:14 GMT 39.885220 -75.236252 0 192 9 0
2021-07-20 00:48:13 GMT 39.885269 -75.236259 0 194 9 0
2021-07-20 00:48:12 GMT 39.885300 -75.236229 0 196 11 0
2021-07-20 00:48:10 GMT 39.885399 -75.236214 0 209 10 0
2021-07-20 00:48:09 GMT 39.885460 -75.236229 0 226 11 0
2021-07-20 00:48:08 GMT 39.885521 -75.236214 0 231 10 0
2021-07-20 00:48:07 GMT 39.885551 -75.236130 0 224 8 0
2021-07-20 00:48:05 GMT 39.885601 -75.236092 0 228 11 0
2021-07-20 00:48:04 GMT 39.885609 -75.236031 0 227 13 0
2021-07-20 00:48:03 GMT 39.885651 -75.236023 0 234 14 0
2021-07-20 00:48:02 GMT 39.885712 -75.235939 0 246 12 0
2021-07-20 00:48:01 GMT 39.885731 -75.235893 0 250 13 0
2021-07-20 00:47:59 GMT 39.885792 -75.235733 0 270 9 0
2021-07-20 00:47:58 GMT 39.885811 -75.235680 0 273 10 0
2021-07-20 00:47:57 GMT 39.885799 -75.235672 0 276 15 0
2021-07-20 00:47:56 GMT 39.885830 -75.235519 0 301 10 0
2021-07-20 00:47:54 GMT 39.885769 -75.235443 0 296 11 0
2021-07-20 00:47:53 GMT 39.885761 -75.235352 0 310 9 0
2021-07-20 00:47:52 GMT 39.885738 -75.235291 0 320 9 0
2021-07-20 00:47:51 GMT 39.885731 -75.235268 0 322 12 0
2021-07-20 00:47:49 GMT 39.885658 -75.235161 0 329 13 0
2021-07-20 00:47:48 GMT 39.885590 -75.235123 0 333 12 0
2021-07-20 00:47:47 GMT 39.885551 -75.235062 0 341 11 0
2021-07-20 00:47:46 GMT 39.885490 -75.235031 0 334 11 0
2021-07-20 00:47:45 GMT 39.885441 -75.235062 0 330 14 0
2021-07-20 00:47:43 GMT 39.885342 -75.234940 0 340 16 0
2021-07-20 00:47:42 GMT 39.885269 -75.234909 0 337 15 0
2021-07-20 00:47:41 GMT 39.885220 -75.234894 0 337 19 0
2021-07-20 00:47:40 GMT 39.885071 -75.234833 0 332 22 0
2021-07-20 00:47:38 GMT 39.884979 -75.234741 0 339 21 0
2021-07-20 00:47:36 GMT 39.884781 -75.234619 0 340 18 0
2021-07-20 00:47:35 GMT 39.884701 -75.234612 0 336 21 0
2021-07-20 00:47:34 GMT 39.884621 -75.234573 0 337 23 0
2021-07-20 00:47:33 GMT 39.884521 -75.234497 0 339 23 0
2021-07-20 00:47:31 GMT 39.884319 -75.234390 0 341 26 0
2021-07-20 00:47:30 GMT 39.884232 -75.234367 0 338 30 0
2021-07-20 00:47:29 GMT 39.884102 -75.234306 0 337 30 0
2021-07-20 00:47:28 GMT 39.883980 -75.234230 0 339 32 0
2021-07-20 00:47:26 GMT 39.883709 -75.234123 0 337 36 0
2021-07-20 00:47:25 GMT 39.883549 -75.234032 0 337 34 0
2021-07-20 00:47:24 GMT 39.883400 -75.233948 0 337 35 0
2021-07-20 00:47:22 GMT 39.883091 -75.233780 0 340 38 0
2021-07-20 00:47:21 GMT 39.882919 -75.233711 0 341 37 0
2021-07-20 00:47:20 GMT 39.882759 -75.233597 0 343 39 0
2021-07-20 00:47:19 GMT 39.882580 -75.233528 0 343 40 0
2021-07-20 00:47:17 GMT 39.882191 -75.233391 0 339 42 32
2021-07-20 00:47:16 GMT 39.882000 -75.233269 0 340 43 32
2021-07-20 00:47:15 GMT 39.881779 -75.233170 0 340 45 32
2021-07-20 00:47:14 GMT 39.881592 -75.233093 0 339 50 32
2021-07-20 00:47:13 GMT 39.881390 -75.232986 -25 339 56 32
2021-07-20 00:47:11 GMT 39.880890 -75.232773 -25 337 65 -32
2021-07-20 00:47:10 GMT 39.880630 -75.232628 -25 338 71 -32
2021-07-20 00:47:09 GMT 39.880348 -75.232452 -25 339 78 -32
2021-07-20 00:47:07 GMT 39.879700 -75.232140 -25 339 92 -32
2021-07-20 00:47:06 GMT 39.879318 -75.231972 -25 338 98 -32
2021-07-20 00:47:05 GMT 39.878910 -75.231781 -25 338 103 -32
2021-07-20 00:47:03 GMT 39.878040 -75.231331 -25 338 111 160
2021-07-20 00:47:02 GMT 39.877579 -75.231079 -25 338 114 160
2021-07-20 00:47:01 GMT 39.877102 -75.230843 -25 338 117 160
2021-07-20 00:47:00 GMT 39.876110 -75.230347 -25 338 124 160
2021-07-20 00:46:58 GMT 39.875568 -75.230080 -25 338 123 -448
2021-07-20 00:46:57 GMT 39.875038 -75.229782 -25 339 124 -448
2021-07-20 00:46:56 GMT 39.874531 -75.229561 -25 338 128 -448
2021-07-20 00:46:55 GMT 39.874001 -75.229286 -25 339 130 -448
2021-07-20 00:46:53 GMT 39.872879 -75.228752 0 338 131 -448
2021-07-20 00:46:52 GMT 39.872318 -75.228462 0 339 132 -448
2021-07-20 00:46:51 GMT 39.871769 -75.228188 25 339 136 -448
2021-07-20 00:46:50 GMT 39.871140 -75.227867 50 338 127 -448
2021-07-20 00:46:48 GMT 39.870049 -75.227348 50 338 130 -448
2021-07-20 00:46:47 GMT 39.869499 -75.227028 75 339 133 -448
2021-07-20 00:46:46 GMT 39.868912 -75.226753 75 339 133 -448
2021-07-20 00:46:45 GMT 39.868328 -75.226479 100 337 131 -448
2021-07-20 00:46:44 GMT 39.867180 -75.225868 125 338 130 -448
2021-07-20 00:46:42 GMT 39.866661 -75.225594 125 340 136 -448
2021-07-20 00:46:41 GMT 39.866032 -75.225342 150 336 128 -448
2021-07-20 00:46:39 GMT 39.864971 -75.224747 150 339 138 -448
2021-07-20 00:46:38 GMT 39.864368 -75.224472 175 337 136 -448
2021-07-20 00:46:37 GMT 39.863770 -75.224152 200 337 132 -448
2021-07-20 00:46:35 GMT 39.862652 -75.223541 225 339 133 -448
2021-07-20 00:46:34 GMT 39.862049 -75.223244 225 339 128 -448
2021-07-20 00:46:33 GMT 39.861530 -75.222969 250 340 134 -448
2021-07-20 00:46:32 GMT 39.860920 -75.222710 250 338 131 -448
2021-07-20 00:46:30 GMT 39.859810 -75.222160 275 337 134 -448
2021-07-20 00:46:29 GMT 39.859241 -75.221848 275 338 133 -448
2021-07-20 00:46:28 GMT 39.858662 -75.221573 300 338 133 -448
2021-07-20 00:46:27 GMT 39.857510 -75.220978 325 338 134 -448
2021-07-20 00:46:25 GMT 39.856918 -75.220657 350 339 131 -448
2021-07-20 00:46:24 GMT 39.856350 -75.220390 350 340 129 -448
2021-07-20 00:46:23 GMT 39.855782 -75.220062 375 342 128 -448
2021-07-20 00:46:21 GMT 39.854698 -75.219627 400 338 134 -448
2021-07-20 00:46:20 GMT 39.854118 -75.219307 400 338 132 -448
2021-07-20 00:46:19 GMT 39.853600 -75.219078 425 338 141 -448
2021-07-20 00:46:18 GMT 39.852951 -75.218750 500 337 133 -448
2021-07-20 00:46:16 GMT 39.851780 -75.218086 500 339 127 -448
2021-07-20 00:46:15 GMT 39.851280 -75.217850 500 339 133 -448
2021-07-20 00:46:14 GMT 39.850658 -75.217537 500 339 129 -448
2021-07-20 00:46:12 GMT 39.849579 -75.217033 500 338 130 -448
2021-07-20 00:46:11 GMT 39.849010 -75.216728 600 340 130 -448
2021-07-20 00:46:10 GMT 39.848480 -75.216461 600 341 134 -448
2021-07-20 00:46:09 GMT 39.847301 -75.215919 600 342 129 -448
2021-07-20 00:46:07 GMT 39.846748 -75.215668 600 342 130 -448
2021-07-20 00:46:06 GMT 39.846199 -75.215446 600 342 132 -448
2021-07-20 00:46:05 GMT 39.845009 -75.214989 600 339 128 -448
2021-07-20 00:46:03 GMT 39.844501 -75.214767 625 338 134 -448
2021-07-20 00:46:02 GMT 39.843922 -75.214493 675 338 134 -448
2021-07-20 00:46:01 GMT 39.843311 -75.214142 675 339 131 -448
2021-07-20 00:46:00 GMT 39.842682 -75.213890 675 337 125 -448
2021-07-20 00:45:58 GMT 39.841629 -75.213287 700 339 130 -448
2021-07-20 00:45:57 GMT 39.841091 -75.213051 700 338 133 -672
2021-07-20 00:45:56 GMT 39.840450 -75.212708 700 337 125 -672
2021-07-20 00:45:55 GMT 39.839901 -75.212418 700 337 123 -672
2021-07-20 00:45:53 GMT 39.838959 -75.211906 800 338 136 -672
2021-07-20 00:45:52 GMT 39.838360 -75.211609 800 339 134 -672
2021-07-20 00:45:51 GMT 39.837769 -75.211342 800 337 132 -672
2021-07-20 00:45:50 GMT 39.836620 -75.210732 800 338 126 -672
2021-07-20 00:45:48 GMT 39.836090 -75.210472 800 338 128 -672
2021-07-20 00:45:47 GMT 39.835522 -75.210213 800 337 126 -672
2021-07-20 00:45:46 GMT 39.835030 -75.209961 825 337 132 -672
2021-07-20 00:45:44 GMT 39.833858 -75.209320 825 338 128 -672
2021-07-20 00:45:43 GMT 39.833321 -75.209038 825 337 129 -672
2021-07-20 00:45:42 GMT 39.832748 -75.208733 900 338 127 -672
2021-07-20 00:45:41 GMT 39.832191 -75.208427 900 338 125 -672
2021-07-20 00:45:40 GMT 39.831120 -75.207909 925 337 128 -672
2021-07-20 00:45:38 GMT 39.830570 -75.207649 925 337 129 -672
2021-07-20 00:45:37 GMT 39.830009 -75.207336 925 337 128 -672
2021-07-20 00:45:36 GMT 39.829472 -75.207031 925 338 128 -672
2021-07-20 00:45:34 GMT 39.828369 -75.206444 925 339 128 -672
2021-07-20 00:45:33 GMT 39.827789 -75.206192 1,000 337 125 -672
2021-07-20 00:45:32 GMT 39.827271 -75.205963 1,000 335 128 -672
2021-07-20 00:45:31 GMT 39.826729 -75.205643 1,000 336 128 -672
2021-07-20 00:45:29 GMT 39.825642 -75.204979 1,000 338 129 -672
2021-07-20 00:45:28 GMT 39.825039 -75.204674 1,000 338 123 -672
2021-07-20 00:45:27 GMT 39.824009 -75.204109 1,050 338 127 -672
2021-07-20 00:45:25 GMT 39.823471 -75.203857 1,050 337 129 -672
2021-07-20 00:45:24 GMT 39.822910 -75.203598 1,050 337 129 -672
2021-07-20 00:45:23 GMT 39.822330 -75.203262 1,075 337 125 -672
2021-07-20 00:45:21 GMT 39.821281 -75.202667 1,075 338 127 -672
2021-07-20 00:45:20 GMT 39.820721 -75.202370 1,100 338 125 -672
2021-07-20 00:45:19 GMT 39.820171 -75.202118 1,100 338 125 -672
2021-07-20 00:45:18 GMT 39.819111 -75.201561 1,175 338 127 -672
2021-07-20 00:45:16 GMT 39.818550 -75.201286 1,175 337 127 -672
2021-07-20 00:45:15 GMT 39.818031 -75.200989 1,175 338 129 -672
2021-07-20 00:45:14 GMT 39.817459 -75.200668 1,175 338 127 -672
2021-07-20 00:45:13 GMT 39.816380 -75.200127 1,200 338 128 -672
2021-07-20 00:45:11 GMT 39.815880 -75.199867 1,200 338 135 -672
2021-07-20 00:45:10 GMT 39.815281 -75.199562 1,300 338 132 -672
2021-07-20 00:45:09 GMT 39.814659 -75.199249 1,300 338 126 -672
2021-07-20 00:45:08 GMT 39.813568 -75.198723 1,300 338 128 -672
2021-07-20 00:45:06 GMT 39.813061 -75.198479 1,300 337 133 -672
2021-07-20 00:45:05 GMT 39.812431 -75.198120 1,300 338 126 -672
2021-07-20 00:45:04 GMT 39.811909 -75.197868 1,400 338 128 -672
2021-07-20 00:45:03 GMT 39.810860 -75.197304 1,400 339 132 -672
2021-07-20 00:45:01 GMT 39.810268 -75.196938 1,400 341 129 -672
2021-07-20 00:44:58 GMT 39.808590 -75.196198 1,375 339 132 -672
2021-07-20 00:44:57 GMT 39.807961 -75.195839 1,400 341 126 -672
2021-07-20 00:44:55 GMT 39.806900 -75.195412 1,400 341 133 96
2021-07-20 00:44:54 GMT 39.806320 -75.195183 1,475 339 134 96
2021-07-20 00:44:53 GMT 39.805721 -75.194901 1,475 339 132 96
2021-07-20 00:44:52 GMT 39.804611 -75.194389 1,475 340 135 96
2021-07-20 00:44:50 GMT 39.804008 -75.194054 1,475 341 134 96
2021-07-20 00:44:48 GMT 39.802849 -75.193573 1,500 341 134 96
2021-07-20 00:44:47 GMT 39.802261 -75.193321 1,500 341 134 96
2021-07-20 00:44:46 GMT 39.801682 -75.193077 1,500 340 133 96
2021-07-20 00:44:45 GMT 39.801102 -75.192848 1,550 340 134 96
2021-07-20 00:44:44 GMT 39.799919 -75.192261 1,550 341 130 96
2021-07-20 00:44:42 GMT 39.799351 -75.192032 1,550 340 131 96
2021-07-20 00:44:41 GMT 39.798779 -75.191833 1,600 339 133 96
2021-07-20 00:44:40 GMT 39.797661 -75.191261 1,700 340 137 96
2021-07-20 00:44:38 GMT 39.797058 -75.190979 1,700 340 137 96
2021-07-20 00:44:37 GMT 39.796478 -75.190750 1,700 339 139 96
2021-07-20 00:44:36 GMT 39.795891 -75.190460 1,700 339 139 96
2021-07-20 00:44:34 GMT 39.794659 -75.189903 1,700 339 137 96
2021-07-20 00:44:33 GMT 39.794102 -75.189621 1,700 339 140 96
2021-07-20 00:44:32 GMT 39.793468 -75.189331 1,700 338 138 96
2021-07-20 00:44:30 GMT 39.792332 -75.188782 1,800 338 145 96
2021-07-20 00:44:29 GMT 39.791679 -75.188469 1,800 337 143 96
2021-07-20 00:44:28 GMT 39.791069 -75.188179 1,800 337 144 96
2021-07-20 00:44:26 GMT 39.789879 -75.187500 1,800 338 147 96
2021-07-20 00:44:25 GMT 39.789219 -75.187172 1,800 338 145 96
2021-07-20 00:44:24 GMT 39.788570 -75.186829 1,800 338 144 96
2021-07-20 00:44:23 GMT 39.787949 -75.186501 1,800 338 144 96
2021-07-20 00:44:22 GMT 39.786701 -75.185837 1,900 338 146 96
2021-07-20 00:44:20 GMT 39.786091 -75.185547 1,900 338 148 96
2021-07-20 00:44:19 GMT 39.785450 -75.185219 1,900 338 149 96
2021-07-20 00:44:18 GMT 39.784828 -75.184898 1,900 338 151 96
2021-07-20 00:44:17 GMT 39.784210 -75.184578 2,000 338 155 96
2021-07-20 00:44:15 GMT 39.782879 -75.183884 2,000 339 157 96
2021-07-20 00:44:14 GMT 39.782261 -75.183601 2,000 338 163 96
2021-07-20 00:44:13 GMT 39.781559 -75.183228 2,000 339 163 96
2021-07-20 00:44:12 GMT 39.780182 -75.182518 2,000 339 165 96
2021-07-20 00:44:10 GMT 39.779480 -75.182198 2,000 339 166 96
2021-07-20 00:44:09 GMT 39.778728 -75.181862 2,000 339 165 96
2021-07-20 00:44:08 GMT 39.778000 -75.181511 2,000 339 164 0
2021-07-20 00:44:06 GMT 39.776569 -75.180801 2,000 339 164 0
2021-07-20 00:44:05 GMT 39.775902 -75.180458 2,000 339 167 0
2021-07-20 00:44:04 GMT 39.775200 -75.180183 2,000 338 170 0
2021-07-20 00:44:03 GMT 39.774429 -75.179771 2,000 339 167 0
2021-07-20 00:44:01 GMT 39.773079 -75.179070 2,000 340 175 0
2021-07-20 00:44:00 GMT 39.772282 -75.178726 1,950 340 168 -128
2021-07-20 00:43:57 GMT 39.770134 -75.177673 1,950 340 169 -64
2021-07-20 00:43:56 GMT 39.768646 -75.177002 1,950 340 169 -64
2021-07-20 00:43:53 GMT 39.766876 -75.176147 1,975 340 169 0
2021-07-20 00:43:52 GMT 39.766434 -75.175980 1,975 340 169 -64
2021-07-20 00:43:49 GMT 39.764099 -75.174843 1,975 339 166 192
2021-07-20 00:43:47 GMT 39.763386 -75.174500 1,975 339 166 192
2021-07-20 00:43:44 GMT 39.761169 -75.173416 1,975 340 169 -64
2021-07-20 00:43:43 GMT 39.760254 -75.172997 1,975 340 169 -128
2021-07-20 00:43:42 GMT 39.759384 -75.172577 1,975 340 169 0
2021-07-20 00:43:41 GMT 39.758636 -75.172241 1,975 340 169 0
2021-07-20 00:43:39 GMT 39.757324 -75.171562 1,975 340 169 -64
2021-07-20 00:43:37 GMT 39.755424 -75.170654 1,975 340 169 -64
2021-07-20 00:43:35 GMT 39.753983 -75.169922 1,975 340 169 -64
2021-07-20 00:43:34 GMT 39.753250 -75.169594 1,975 340 169 -64
2021-07-20 00:43:32 GMT 39.751785 -75.168877 1,975 340 168 -64
2021-07-20 00:43:30 GMT 39.750488 -75.168213 1,975 340 168 -64
2021-07-20 00:43:28 GMT 39.748856 -75.167442 2,000 339 167 -128
2021-07-20 00:43:26 GMT 39.747711 -75.166847 2,000 339 167 -64
2021-07-20 00:43:25 GMT 39.746246 -75.166130 2,000 339 167 64
2021-07-20 00:43:23 GMT 39.745102 -75.165527 2,000 339 166 64
2021-07-20 00:43:22 GMT 39.743683 -75.164818 2,000 339 166 192
2021-07-20 00:43:19 GMT 39.741943 -75.163979 1,975 339 166 320
2021-07-20 00:43:17 GMT 39.740799 -75.163383 1,975 339 167 320
2021-07-20 00:43:13 GMT 39.738945 -75.162476 1,975 339 167 192
2021-07-20 00:43:11 GMT 39.736897 -75.161438 1,950 340 167 64
2021-07-20 00:43:08 GMT 39.734390 -75.160278 1,950 340 170 192
2021-07-20 00:43:05 GMT 39.732925 -75.159561 1,950 340 172 -320
2021-07-20 00:43:03 GMT 39.731262 -75.158752 1,950 340 172 -320
2021-07-20 00:43:02 GMT 39.728394 -75.157410 1,950 341 174 0
2021-07-20 00:43:00 GMT 39.728394 -75.157410 1,950 341 174 0
2021-07-20 00:42:58 GMT 39.727352 -75.156921 1,950 341 174 -64
2021-07-20 00:42:57 GMT 39.725819 -75.156189 1,950 341 174 -64
2021-07-20 00:42:53 GMT 39.722946 -75.154846 1,950 341 173 -192
2021-07-20 00:42:48 GMT 39.715347 -75.151382 2,000 341 174 -256
2021-07-20 00:42:44 GMT 39.715347 -75.151382 2,000 341 174 -256
2021-07-20 00:42:41 GMT 39.714272 -75.150940 2,000 341 174 -256
2021-07-20 00:42:38 GMT 39.711639 -75.149765 2,025 342 176 -448
2021-07-20 00:42:32 GMT 39.707432 -75.148010 2,150 344 177 -1216
2021-07-20 00:42:29 GMT 39.704311 -75.146729 2,350 346 177 -1280
2021-07-20 00:42:25 GMT 39.701614 -75.145706 2,225 345 177 -1280
2021-07-20 00:42:22 GMT 39.698910 -75.144714 2,325 345 177 -1280
2021-07-20 00:42:18 GMT 39.695892 -75.143738 2,375 348 176 -1280
2021-07-20 00:42:14 GMT 39.693184 -75.142944 2,450 350 176 -1216
2021-07-20 00:42:10 GMT 39.690445 -75.142426 2,500 354 178 -1088
2021-07-20 00:42:05 GMT 39.684620 -75.142578 2,625 11 181 -1088
2021-07-20 00:42:01 GMT 39.681244 -75.143974 2,750 26 185 -1088
2021-07-20 00:41:57 GMT 39.679264 -75.145325 2,900 43 190 -1280
2021-07-20 00:41:53 GMT 39.676346 -75.148216 2,950 57 193 -1280
2021-07-20 00:41:50 GMT 39.674652 -75.150543 2,900 50 191 -1216
2021-07-20 00:41:48 GMT 39.673096 -75.153114 2,950 55 193 -1152
2021-07-20 00:41:40 GMT 39.669342 -75.160393 3,100 56 192 -1280
2021-07-20 00:41:37 GMT 39.668015 -75.163139 3,175 57 191 -1280
2021-07-20 00:41:33 GMT 39.666275 -75.166603 3,250 57 191 -1216
2021-07-20 00:41:30 GMT 39.664719 -75.169708 3,300 57 191 -1216
2021-07-20 00:41:26 GMT 39.662880 -75.173340 3,400 57 190 -1216
2021-07-20 00:41:21 GMT 39.660225 -75.178711 3,575 57 189 -1216
2021-07-20 00:41:17 GMT 39.658318 -75.182556 3,675 57 189 -1152
2021-07-20 00:41:13 GMT 39.656036 -75.187134 3,675 57 189 -1152
2021-07-20 00:41:10 GMT 39.654648 -75.190010 3,850 57 188 -1024
2021-07-20 00:41:05 GMT 39.652771 -75.193832 3,800 57 188 -1024
2021-07-20 00:41:00 GMT 39.650169 -75.198975 3,925 57 190 -448
2021-07-20 00:40:57 GMT 39.648376 -75.202606 3,925 57 190 -448
2021-07-20 00:40:54 GMT 39.647518 -75.204346 3,950 57 191 -256
2021-07-20 00:40:49 GMT 39.644485 -75.210373 3,950 57 197 -64
2021-07-20 00:40:44 GMT 39.642582 -75.214233 3,950 57 201 -128
2021-07-20 00:40:39 GMT 39.640228 -75.218910 3,975 57 208 -256
2021-07-20 00:40:35 GMT 39.637527 -75.224403 4,000 57 213 -192
2021-07-20 00:40:29 GMT 39.634621 -75.230286 4,000 57 217 128
2021-07-20 00:40:26 GMT 39.633224 -75.233185 4,000 57 221 192
2021-07-20 00:40:23 GMT 39.631485 -75.236824 3,975 57 224 256
2021-07-20 00:40:18 GMT 39.628601 -75.242737 3,975 58 225 64
2021-07-20 00:40:16 GMT 39.627174 -75.245728 3,950 57 224 64
2021-07-20 00:40:12 GMT 39.624939 -75.250244 3,950 58 222 0
2021-07-20 00:40:08 GMT 39.620728 -75.259094 3,950 58 222 0
2021-07-20 00:40:03 GMT 39.620728 -75.259094 3,950 58 222 0
2021-07-20 00:39:57 GMT 39.617306 -75.266174 3,950 57 224 64
2021-07-20 00:39:54 GMT 39.615349 -75.270264 3,950 57 225 0
2021-07-20 00:39:48 GMT 39.612122 -75.276886 3,950 57 226 0
2021-07-20 00:39:46 GMT 39.611206 -75.278740 3,950 57 226 0
2021-07-20 00:39:43 GMT 39.609531 -75.282166 3,950 57 228 64
2021-07-20 00:39:36 GMT 39.605667 -75.290039 3,950 57 229 0
2021-07-20 00:39:33 GMT 39.603619 -75.294250 3,950 57 231 0
2021-07-20 00:39:23 GMT 39.594494 -75.312561 3,950 56 235 0
2021-07-20 00:39:16 GMT 39.594028 -75.313538 3,950 56 235 0
2021-07-20 00:39:13 GMT 39.592072 -75.317322 3,950 56 236 -128
2021-07-20 00:39:10 GMT 39.589420 -75.322510 3,950 55 237 -64
2021-07-20 00:39:06 GMT 39.587769 -75.325546 3,950 55 239 -64
2021-07-20 00:39:04 GMT 39.586113 -75.328613 3,950 54 240 -192
2021-07-20 00:38:59 GMT 39.583275 -75.333801 3,975 45 250 -1216
2021-07-20 00:38:55 GMT 39.580574 -75.338379 4,000 51 244 -320
2021-07-20 00:38:52 GMT 39.578201 -75.342331 4,000 50 244 -384
2021-07-20 00:38:46 GMT 39.573212 -75.349968 4,050 48 248 -768
2021-07-20 00:38:41 GMT 39.570374 -75.353912 4,125 45 250 -1152
2021-07-20 00:38:34 GMT 39.564285 -75.361313 4,275 37 250 -1536
2021-07-20 00:38:32 GMT 39.561581 -75.364136 4,375 37 250 -1536
2021-07-20 00:38:23 GMT 39.554443 -75.371346 4,550 41 255 -1472
2021-07-20 00:38:21 GMT 39.552132 -75.373901 4,625 41 252 -1472
2021-07-20 00:38:15 GMT 39.546452 -75.380310 4,775 41 254 -1536
2021-07-20 00:38:11 GMT 39.543285 -75.383972 4,875 41 255 -1472
2021-07-20 00:38:08 GMT 39.540619 -75.386986 4,950 41 254 -1344
2021-07-20 00:38:05 GMT 39.537979 -75.390015 5,075 41 254 -1344
2021-07-20 00:38:02 GMT 39.535675 -75.392662 5,075 41 254 -1472
2021-07-20 00:37:59 GMT 39.531830 -75.397079 5,175 41 253 -1472
2021-07-20 00:37:54 GMT 39.528305 -75.401138 5,300 40 252 -1408
2021-07-20 00:37:51 GMT 39.525101 -75.404724 5,375 40 252 -1536
2021-07-20 00:37:47 GMT 39.522106 -75.408081 5,450 40 251 -1536
2021-07-20 00:37:43 GMT 39.518940 -75.411621 5,575 40 251 -1472
2021-07-20 00:37:40 GMT 39.515900 -75.414932 5,625 40 251 -1472
2021-07-20 00:37:35 GMT 39.511490 -75.419861 5,750 40 251 -1408
2021-07-20 00:37:29 GMT 39.506557 -75.425354 5,875 40 252 -1472
2021-07-20 00:37:25 GMT 39.502808 -75.429504 5,975 40 252 -1408
2021-07-20 00:37:21 GMT 39.499603 -75.433022 6,075 40 252 -1472
2021-07-20 00:37:19 GMT 39.497818 -75.434998 6,125 40 252 -1472
2021-07-20 00:37:16 GMT 39.494614 -75.438515 6,200 40 252 -1472
2021-07-20 00:37:13 GMT 39.492313 -75.441101 6,375 40 252 -1408
2021-07-20 00:37:10 GMT 39.488773 -75.445007 6,375 40 251 -1472
2021-07-20 00:37:06 GMT 39.486465 -75.447533 6,525 40 251 -1408
2021-07-20 00:37:02 GMT 39.482529 -75.451836 6,625 40 251 -1408
2021-07-20 00:36:59 GMT 39.479511 -75.455078 6,600 40 251 -1408
2021-07-20 00:36:52 GMT 39.473457 -75.461792 6,900 41 255 -1344
2021-07-20 00:36:49 GMT 39.470764 -75.464790 6,825 41 256 -1344
2021-07-20 00:36:45 GMT 39.467731 -75.468262 7,300 41 257 -1408
2021-07-20 00:36:40 GMT 39.462379 -75.474365 7,050 41 259 -1472
2021-07-20 00:36:36 GMT 39.459274 -75.477928 7,125 41 261 -1472
2021-07-20 00:36:31 GMT 39.454559 -75.483299 7,300 41 263 -1536
2021-07-20 00:36:28 GMT 39.451630 -75.486641 7,750 41 264 -1600
2021-07-20 00:36:23 GMT 39.447063 -75.491882 7,575 41 265 -1856
2021-07-20 00:36:19 GMT 39.443939 -75.495422 7,625 41 265 -1984
2021-07-20 00:36:17 GMT 39.441525 -75.498169 7,650 41 265 -1984
2021-07-20 00:36:11 GMT 39.435658 -75.504944 7,900 41 266 -1984
2021-07-20 00:36:07 GMT 39.432541 -75.508553 7,975 42 266 -1920
2021-07-20 00:36:04 GMT 39.428722 -75.513062 8,100 42 263 -1984
2021-07-20 00:36:00 GMT 39.425465 -75.516907 8,225 42 264 -1920
2021-07-20 00:35:56 GMT 39.422623 -75.520386 8,325 42 263 -1984
2021-07-20 00:35:49 GMT 39.416336 -75.527779 8,525 41 262 -1920
2021-07-20 00:35:41 GMT 39.408371 -75.537033 8,825 41 262 -1856
2021-07-20 00:35:37 GMT 39.405121 -75.540794 8,925 41 262 -1728
2021-07-20 00:35:31 GMT 39.398941 -75.547905 9,125 41 262 -1664
2021-07-20 00:35:27 GMT 39.396229 -75.551025 9,225 41 263 -1600
2021-07-20 00:35:21 GMT 39.391106 -75.556885 9,425 41 264 -1600
2021-07-20 00:35:18 GMT 39.388367 -75.560081 9,425 41 264 -1600
2021-07-20 00:35:15 GMT 39.385071 -75.563904 9,550 41 266 -1472
2021-07-20 00:35:08 GMT 39.375561 -75.574524 9,750 39 268 -1280
2021-07-20 00:35:04 GMT 39.375561 -75.574524 9,800 36 270 -1152
2021-07-20 00:34:58 GMT 39.369133 -75.580688 9,900 35 272 -704
2021-07-20 00:34:52 GMT 39.358521 -75.590477 9,950 35 275 0
2021-07-20 00:34:48 GMT 39.358521 -75.590477 9,950 35 276 -64
2021-07-20 00:34:46 GMT 39.356049 -75.592804 9,950 35 277 -128
2021-07-20 00:34:42 GMT 39.351013 -75.597458 9,975 35 276 -192
2021-07-20 00:34:39 GMT 39.348743 -75.599548 9,975 35 276 64
2021-07-20 00:34:36 GMT 39.340832 -75.606873 9,950 35 276 64
2021-07-20 00:34:31 GMT 39.340832 -75.606873 9,950 35 276 128
2021-07-20 00:34:28 GMT 39.338318 -75.609192 9,950 35 276 -64
2021-07-20 00:34:24 GMT 39.334396 -75.612869 9,950 35 276 -64
2021-07-20 00:34:16 GMT 39.325241 -75.621346 9,975 35 275 0
2021-07-20 00:34:14 GMT 39.323593 -75.622833 9,975 15 281 -192
2021-07-20 00:34:10 GMT 39.318970 -75.627014 9,950 15 281 -192
2021-07-20 00:34:06 GMT 39.315628 -75.630005 9,975 34 275 64
2021-07-20 00:34:04 GMT 39.312901 -75.632385 9,950 33 277 0
2021-07-20 00:33:59 GMT 39.307068 -75.637230 9,950 32 277 0
2021-07-20 00:33:55 GMT 39.302261 -75.641045 9,950 29 276 -64
2021-07-20 00:33:46 GMT 39.292282 -75.647858 9,975 24 278 -64
2021-07-20 00:33:44 GMT 39.291115 -75.648560 9,975 23 278 -128
2021-07-20 00:33:40 GMT 39.283897 -75.652222 9,975 16 281 -192
2021-07-20 00:33:35 GMT 39.280407 -75.653503 10,000 12 282 -384
2021-07-20 00:33:33 GMT 39.277588 -75.654366 10,000 8 283 -640
2021-07-20 00:33:25 GMT 39.267197 -75.656151 10,225 5 284 -1024
2021-07-20 00:33:23 GMT 39.264587 -75.656456 10,125 5 285 -1152
2021-07-20 00:33:14 GMT 39.250660 -75.658142 10,525 4 283 -1216
2021-07-20 00:33:07 GMT 39.242790 -75.658997 10,425 3 284 -1216
2021-07-20 00:33:03 GMT 39.234650 -75.659798 10,625 4 284 -1088
2021-07-20 00:33:00 GMT 39.234650 -75.659798 11,400 4 287 -1216
2021-07-20 00:32:56 GMT 39.227009 -75.660461 10,675 3 284 -1216
2021-07-20 00:32:53 GMT 39.224403 -75.660645 10,725 3 284 -1280
2021-07-20 00:32:43 GMT 39.210159 -75.661926 11,000 4 287 -1280
2021-07-20 00:32:35 GMT 39.200569 -75.662842 11,100 4 287 -1344
2021-07-20 00:32:32 GMT 39.196609 -75.663261 11,150 4 287 -1280
2021-07-20 00:32:23 GMT 39.185162 -75.664307 11,350 4 287 -1280
2021-07-20 00:32:21 GMT 39.183018 -75.664551 11,375 4 287 -1216
2021-07-20 00:32:12 GMT 39.169147 -75.665771 11,600 3 292 -1344
2021-07-20 00:32:04 GMT 39.159073 -75.666603 11,850 3 297 -1280
2021-07-20 00:32:01 GMT 39.155228 -75.666840 11,825 3 299 -1280
2021-07-20 00:31:55 GMT 39.147732 -75.667419 11,925 3 301 -1280
2021-07-20 00:31:51 GMT 39.141029 -75.667969 12,025 3 305 -1344
2021-07-20 00:31:47 GMT 39.136513 -75.668335 12,250 3 308 -1408
2021-07-20 00:31:44 GMT 39.131104 -75.668816 12,250 3 308 -1408
2021-07-20 00:31:41 GMT 39.125336 -75.669411 12,275 4 313 -1472
2021-07-20 00:31:36 GMT 39.118683 -75.670105 12,325 4 314 -1472
2021-07-20 00:31:32 GMT 39.114120 -75.670654 12,475 5 317 -1408
2021-07-20 00:31:30 GMT 39.111374 -75.671021 13,175 6 323 -1600
2021-07-20 00:31:27 GMT 39.106953 -75.671631 12,575 6 322 -1600
2021-07-20 00:31:22 GMT 39.098969 -75.672813 12,725 7 324 -1664
2021-07-20 00:31:19 GMT 39.094475 -75.673584 12,825 8 327 -1728
2021-07-20 00:31:11 GMT 39.083313 -75.675797 13,025 10 331 -1664
2021-07-20 00:31:09 GMT 39.078506 -75.676933 13,100 11 333 -1664
2021-07-20 00:31:01 GMT 39.065521 -75.681213 13,325 28 349 -1664
2021-07-20 00:30:58 GMT 39.063995 -75.681892 13,350 20 343 -1344
2021-07-20 00:30:54 GMT 39.058685 -75.684456 13,425 31 352 -1728
2021-07-20 00:30:50 GMT 39.050858 -75.689514 13,575 31 352 -1728
2021-07-20 00:30:47 GMT 39.048111 -75.691711 13,625 35 355 -1920
2021-07-20 00:30:43 GMT 39.040283 -75.698784 13,800 36 358 -1792
2021-07-20 00:30:40 GMT 39.037033 -75.701828 13,900 36 362 -1792
2021-07-20 00:30:37 GMT 39.033539 -75.705139 13,950 35 363 -1792
2021-07-20 00:30:34 GMT 39.029163 -75.709167 14,050 35 363 -1792
2021-07-20 00:30:29 GMT 39.023159 -75.714661 14,175 35 364 -1536
2021-07-20 00:30:27 GMT 39.020969 -75.716675 14,200 35 366 -1472
2021-07-20 00:30:23 GMT 39.014267 -75.722778 14,325 35 372 -1536
2021-07-20 00:30:20 GMT 39.010071 -75.726608 14,400 35 374 -1408
2021-07-20 00:30:18 GMT 39.006683 -75.729713 14,450 35 376 -1536
2021-07-20 00:30:14 GMT 39.001324 -75.734680 14,550 35 380 -1472
2021-07-20 00:30:09 GMT 38.995552 -75.739990 14,675 35 387 -1344
2021-07-20 00:30:07 GMT 38.992664 -75.742615 14,750 35 388 -1472
2021-07-20 00:30:03 GMT 38.986240 -75.748596 14,800 35 391 -1344
2021-07-20 00:29:59 GMT 38.979771 -75.754578 14,875 35 392 -896
2021-07-20 00:29:55 GMT 38.974182 -75.759811 14,925 35 393 -448
2021-07-20 00:29:52 GMT 38.969765 -75.763916 14,950 36 392 -192
2021-07-20 00:29:47 GMT 38.963608 -75.769661 14,950 36 392 -64
2021-07-20 00:29:43 GMT 38.956264 -75.776489 14,950 36 392 -64
2021-07-20 00:29:37 GMT 38.947906 -75.784409 14,950 36 392 0
2021-07-20 00:29:34 GMT 38.941956 -75.789963 14,975 36 392 0
2021-07-20 00:29:31 GMT 38.939831 -75.791931 14,975 36 392 -64
2021-07-20 00:29:28 GMT 38.933964 -75.797424 14,975 36 392 64
2021-07-20 00:29:25 GMT 38.930473 -75.800720 14,950 36 392 -64
2021-07-20 00:29:22 GMT 38.925476 -75.805428 14,975 36 392 -64
2021-07-20 00:29:16 GMT 38.916687 -75.813667 14,975 36 392 -64
2021-07-20 00:29:11 GMT 38.910549 -75.819458 14,975 36 392 -64
2021-07-20 00:29:07 GMT 38.903275 -75.826447 14,975 37 392 0
2021-07-20 00:29:04 GMT 38.894714 -75.835098 14,975 39 393 128
2021-07-20 00:29:00 GMT 38.894714 -75.835098 14,975 39 393 128
2021-07-20 00:28:58 GMT 38.890484 -75.839478 14,975 39 393 64
2021-07-20 00:28:55 GMT 38.886528 -75.843628 14,950 39 393 0
2021-07-20 00:28:50 GMT 38.880337 -75.850159 14,950 39 393 0
2021-07-20 00:28:48 GMT 38.872742 -75.858147 14,950 39 392 -64
2021-07-20 00:28:45 GMT 38.868000 -75.863220 14,950 39 392 -64
2021-07-20 00:28:41 GMT 38.868000 -75.863220 14,975 39 392 -128
2021-07-20 00:28:37 GMT 38.861809 -75.869690 14,975 39 392 -128
2021-07-20 00:28:35 GMT 38.858139 -75.873611 14,975 39 392 0
2021-07-20 00:28:31 GMT 38.851959 -75.880119 14,950 39 393 128
2021-07-20 00:28:26 GMT 38.845779 -75.886627 14,950 39 393 0
2021-07-20 00:28:22 GMT 38.840195 -75.892601 14,950 39 393 0
2021-07-20 00:28:19 GMT 38.834854 -75.898254 14,950 39 393 -128
2021-07-20 00:28:15 GMT 38.830898 -75.902405 14,975 39 392 -64
2021-07-20 00:28:13 GMT 38.828102 -75.905334 14,975 39 392 -64
2021-07-20 00:28:10 GMT 38.823029 -75.910706 14,975 39 392 -64
2021-07-20 00:28:04 GMT 38.813488 -75.920776 14,975 39 392 64
2021-07-20 00:28:01 GMT 38.810135 -75.924316 14,975 39 392 64
2021-07-20 00:27:56 GMT 38.804035 -75.930725 14,950 39 392 64
2021-07-20 00:27:54 GMT 38.801289 -75.933655 14,950 39 392 64
2021-07-20 00:27:51 GMT 38.796936 -75.938217 14,950 39 392 -64
2021-07-20 00:27:48 GMT 38.792213 -75.943298 14,975 39 392 -64
2021-07-20 00:27:45 GMT 38.785767 -75.950096 14,975 39 392 -64
2021-07-20 00:27:40 GMT 38.782379 -75.953621 14,975 39 392 0
2021-07-20 00:27:37 GMT 38.777344 -75.958939 14,975 39 392 0
2021-07-20 00:27:33 GMT 38.770332 -75.966309 14,975 39 392 128
2021-07-20 00:27:30 GMT 38.766678 -75.970161 14,950 39 392 0
2021-07-20 00:27:24 GMT 38.759113 -75.978149 14,950 39 392 0
2021-07-20 00:27:22 GMT 38.755203 -75.982239 14,950 39 392 -64
2021-07-20 00:27:17 GMT 38.750175 -75.987549 14,950 39 392 -64
2021-07-20 00:27:13 GMT 38.743149 -75.994942 14,975 39 392 0
2021-07-20 00:27:10 GMT 38.739258 -75.999062 14,975 39 391 64
2021-07-20 00:27:07 GMT 38.735870 -76.002640 14,975 39 391 -64
2021-07-20 00:27:03 GMT 38.728901 -76.010010 14,975 39 391 -64
2021-07-20 00:27:00 GMT 38.724701 -76.014404 14,975 39 391 0
2021-07-20 00:26:57 GMT 38.721313 -76.017929 14,975 39 391 64
2021-07-20 00:26:52 GMT 38.715446 -76.024109 14,950 39 391 128
2021-07-20 00:26:50 GMT 38.712654 -76.027039 14,950 39 391 64
2021-07-20 00:26:47 GMT 38.707069 -76.032959 14,950 39 391 0
2021-07-20 00:26:43 GMT 38.701481 -76.038818 14,950 39 391 -64
2021-07-20 00:26:40 GMT 38.692543 -76.048218 14,950 39 391 -64
2021-07-20 00:26:37 GMT 38.692543 -76.048218 14,950 39 391 -64
2021-07-20 00:26:32 GMT 38.686493 -76.054626 14,975 39 391 -64
2021-07-20 00:26:29 GMT 38.681374 -76.059998 14,975 39 390 0
2021-07-20 00:26:26 GMT 38.677734 -76.063843 14,975 39 390 0
2021-07-20 00:26:21 GMT 38.671314 -76.070557 14,975 39 390 0
2021-07-20 00:26:19 GMT 38.668522 -76.073486 14,975 39 390 64
2021-07-20 00:26:16 GMT 38.663773 -76.078468 14,975 39 390 64
2021-07-20 00:26:12 GMT 38.659027 -76.083435 14,950 39 390 64
2021-07-20 00:26:09 GMT 38.653999 -76.088745 14,950 39 390 192
2021-07-20 00:26:06 GMT 38.648972 -76.093994 14,950 39 390 192
2021-07-20 00:26:02 GMT 38.643677 -76.099609 14,925 39 390 192
2021-07-20 00:25:59 GMT 38.639477 -76.103943 14,925 39 390 192
2021-07-20 00:25:55 GMT 38.635006 -76.108643 14,925 39 390 128
2021-07-20 00:25:51 GMT 38.629669 -76.114235 14,900 39 390 0
2021-07-20 00:25:48 GMT 38.626022 -76.118042 14,900 39 390 64
2021-07-20 00:25:45 GMT 38.620834 -76.123489 14,900 39 390 0
2021-07-20 00:25:40 GMT 38.613174 -76.131470 14,900 39 390 64
2021-07-20 00:25:37 GMT 38.609528 -76.135315 14,900 39 390 0
2021-07-20 00:25:34 GMT 38.606186 -76.138840 14,900 39 390 -64
2021-07-20 00:25:30 GMT 38.600323 -76.144958 14,900 39 390 64
2021-07-20 00:25:28 GMT 38.596973 -76.148438 14,900 39 390 64
2021-07-20 00:25:25 GMT 38.586357 -76.159607 14,900 39 390 0
2021-07-20 00:25:20 GMT 38.586357 -76.159607 14,900 39 390 -64
2021-07-20 00:25:17 GMT 38.580307 -76.165894 14,900 39 387 64
2021-07-20 00:25:14 GMT 38.577419 -76.168945 14,900 39 390 0
2021-07-20 00:25:10 GMT 38.571533 -76.175079 14,900 39 390 64
2021-07-20 00:25:07 GMT 38.567924 -76.178894 14,900 39 389 0
2021-07-20 00:25:04 GMT 38.563156 -76.183853 14,900 39 389 64
2021-07-20 00:24:58 GMT 38.554516 -76.192932 14,900 39 389 0
2021-07-20 00:24:54 GMT 38.548370 -76.199341 14,900 39 389 -128
2021-07-20 00:24:49 GMT 38.542229 -76.205750 14,900 39 389 -192
2021-07-20 00:24:46 GMT 38.536686 -76.211548 14,925 39 388 -128
2021-07-20 00:24:43 GMT 38.533894 -76.214478 14,925 39 388 -128
2021-07-20 00:24:38 GMT 38.528046 -76.220573 14,925 39 387 64
2021-07-20 00:24:35 GMT 38.523327 -76.225525 14,925 39 386 128
2021-07-20 00:24:32 GMT 38.518616 -76.230431 14,925 39 386 64
2021-07-20 00:24:29 GMT 38.510880 -76.238487 14,900 39 385 64
2021-07-20 00:24:26 GMT 38.510880 -76.238487 14,900 39 385 0
2021-07-20 00:24:23 GMT 38.504791 -76.244881 14,900 39 385 64
2021-07-20 00:24:18 GMT 38.499538 -76.250305 14,900 39 384 64
2021-07-20 00:24:15 GMT 38.495956 -76.254074 14,900 39 384 64
2021-07-20 00:24:13 GMT 38.492661 -76.257538 14,900 39 383 64
2021-07-20 00:24:08 GMT 38.485806 -76.264709 14,900 39 382 -128
2021-07-20 00:24:05 GMT 38.478127 -76.272766 14,900 39 382 -64
2021-07-20 00:24:03 GMT 38.478127 -76.272766 14,900 39 382 -64
2021-07-20 00:23:58 GMT 38.471329 -76.279869 14,900 39 381 64
2021-07-20 00:23:54 GMT 38.466675 -76.284729 14,900 39 382 -64
2021-07-20 00:23:50 GMT 38.461990 -76.289597 14,900 39 382 -64
2021-07-20 00:23:47 GMT 38.458145 -76.293602 14,900 39 382 -64
2021-07-20 00:23:44 GMT 38.452427 -76.299561 14,900 39 381 -64
2021-07-20 00:23:41 GMT 38.448303 -76.303810 14,900 39 381 -64
2021-07-20 00:23:37 GMT 38.443405 -76.308945 14,900 39 380 -64
2021-07-20 00:23:35 GMT 38.440796 -76.311630 14,925 39 380 0
2021-07-20 00:23:33 GMT 38.438183 -76.314331 14,925 39 380 0
2021-07-20 00:23:30 GMT 38.434662 -76.318024 14,925 39 380 0
2021-07-20 00:23:25 GMT 38.427292 -76.325745 14,900 39 380 0
2021-07-20 00:23:21 GMT 38.421284 -76.331970 14,900 39 380 0
2021-07-20 00:23:15 GMT 38.412872 -76.340767 14,900 39 380 0
2021-07-20 00:23:11 GMT 38.407379 -76.346451 14,900 39 380 0
2021-07-20 00:23:07 GMT 38.402573 -76.351418 14,900 39 379 0
2021-07-20 00:23:04 GMT 38.398682 -76.355507 14,900 39 379 0
2021-07-20 00:22:59 GMT 38.392422 -76.362022 14,900 39 379 0
2021-07-20 00:22:54 GMT 38.379089 -76.375900 14,900 39 378 -64
2021-07-20 00:22:50 GMT 38.379089 -76.375900 14,900 39 378 -128
2021-07-20 00:22:44 GMT 38.370941 -76.384315 14,925 39 378 0
2021-07-20 00:22:42 GMT 38.367645 -76.387703 14,925 39 379 -64
2021-07-20 00:22:39 GMT 38.365494 -76.389923 14,925 39 378 128
2021-07-20 00:22:35 GMT 38.358719 -76.396957 14,900 39 378 128
2021-07-20 00:22:32 GMT 38.356247 -76.399513 14,900 39 378 128
2021-07-20 00:22:29 GMT 38.351349 -76.404594 14,900 39 378 64
2021-07-20 00:22:26 GMT 38.346706 -76.409378 14,900 39 378 -64
2021-07-20 00:22:23 GMT 38.342102 -76.414177 14,900 39 379 -64
2021-07-20 00:22:20 GMT 38.339401 -76.416985 14,900 39 379 -64
2021-07-20 00:22:16 GMT 38.333115 -76.423470 14,900 39 378 -64
2021-07-20 00:22:13 GMT 38.328506 -76.428261 14,900 39 378 -64
2021-07-20 00:22:08 GMT 38.321709 -76.435287 14,900 39 378 0
2021-07-20 00:22:03 GMT 38.313812 -76.443398 14,900 39 378 64
2021-07-20 00:21:56 GMT 38.305416 -76.452126 14,900 39 378 64
2021-07-20 00:21:52 GMT 38.300621 -76.457024 14,900 39 378 0
2021-07-20 00:21:48 GMT 38.295174 -76.462692 14,900 39 378 0
2021-07-20 00:21:45 GMT 38.291264 -76.466751 14,900 39 378 -64
2021-07-20 00:21:42 GMT 38.287216 -76.470978 14,900 39 378 0
2021-07-20 00:21:38 GMT 38.280670 -76.477699 14,900 39 378 0
2021-07-20 00:21:32 GMT 38.273342 -76.485321 14,900 39 378 0
2021-07-20 00:21:28 GMT 38.268452 -76.490402 14,900 39 377 0
2021-07-20 00:21:25 GMT 38.263870 -76.495171 14,900 39 377 0
2021-07-20 00:21:21 GMT 38.259018 -76.500259 14,900 39 377 0
2021-07-20 00:21:17 GMT 38.252766 -76.506699 14,900 39 377 64
2021-07-20 00:21:14 GMT 38.249554 -76.510101 14,900 39 377 64
2021-07-20 00:21:11 GMT 38.245468 -76.514343 14,900 39 377 0
2021-07-20 00:21:07 GMT 38.239014 -76.521065 14,900 39 377 0
2021-07-20 00:21:04 GMT 38.233864 -76.526466 14,900 39 377 0
2021-07-20 00:21:01 GMT 38.232010 -76.528427 14,900 39 377 0
2021-07-20 00:20:56 GMT 38.224457 -76.536316 14,900 39 377 0
2021-07-20 00:20:52 GMT 38.219296 -76.541687 14,900 39 377 0
2021-07-20 00:20:48 GMT 38.214203 -76.547066 14,900 39 377 0
2021-07-20 00:20:46 GMT 38.209854 -76.551620 14,900 39 377 -64
2021-07-20 00:20:40 GMT 38.203697 -76.558105 14,900 39 377 -64
2021-07-20 00:20:35 GMT 38.196159 -76.566048 14,925 39 377 0
2021-07-20 00:20:32 GMT 38.192387 -76.570053 14,900 39 378 0
2021-07-20 00:20:29 GMT 38.188103 -76.574585 14,900 39 378 -64
2021-07-20 00:20:25 GMT 38.182751 -76.580322 14,900 39 378 -64
2021-07-20 00:20:21 GMT 38.177910 -76.585457 14,900 40 378 0
2021-07-20 00:20:18 GMT 38.173370 -76.590309 14,900 40 378 0
2021-07-20 00:20:14 GMT 38.167713 -76.596321 14,900 40 378 64
2021-07-20 00:20:09 GMT 38.161289 -76.603188 14,900 40 379 0
2021-07-20 00:20:03 GMT 38.153793 -76.611252 14,900 40 379 -64
2021-07-20 00:19:59 GMT 38.148952 -76.616440 14,900 39 379 0
2021-07-20 00:19:55 GMT 38.140594 -76.625313 14,900 39 379 0
2021-07-20 00:19:53 GMT 38.140594 -76.625313 14,900 39 379 0
2021-07-20 00:19:50 GMT 38.136841 -76.629349 14,900 39 379 0
2021-07-20 00:19:47 GMT 38.132801 -76.633575 14,900 39 380 128
2021-07-20 00:19:44 GMT 38.126797 -76.639786 14,900 39 379 64
2021-07-20 00:19:40 GMT 38.122147 -76.644600 14,900 38 379 0
2021-07-20 00:19:37 GMT 38.117996 -76.648743 14,900 37 380 -128
2021-07-20 00:19:32 GMT 38.111340 -76.655251 14,900 36 380 -128
2021-07-20 00:19:27 GMT 38.104496 -76.661583 14,925 35 380 -128
2021-07-20 00:19:22 GMT 38.097511 -76.667610 14,925 33 379 64
2021-07-20 00:19:19 GMT 38.093079 -76.671188 14,900 30 379 192
2021-07-20 00:19:15 GMT 38.086395 -76.676094 14,900 25 380 128
2021-07-20 00:19:12 GMT 38.081360 -76.679314 14,900 24 380 -64
2021-07-20 00:19:09 GMT 38.076828 -76.681885 14,900 21 380 -192
2021-07-20 00:19:06 GMT 38.072559 -76.683975 14,900 19 380 -64
2021-07-20 00:19:02 GMT 38.064880 -76.687256 14,900 17 380 64
2021-07-20 00:18:56 GMT 38.055801 -76.690903 14,900 17 380 -64
2021-07-20 00:18:51 GMT 38.046066 -76.694794 14,900 17 381 64
2021-07-20 00:18:48 GMT 38.042038 -76.696434 14,900 17 381 64
2021-07-20 00:18:44 GMT 38.035950 -76.698830 14,900 17 381 64
2021-07-20 00:18:41 GMT 38.030197 -76.701172 14,900 17 381 0
2021-07-20 00:18:38 GMT 38.024799 -76.703316 14,900 17 382 0
2021-07-20 00:18:35 GMT 38.020432 -76.705086 14,900 17 382 -64
2021-07-20 00:18:33 GMT 38.017044 -76.706429 14,925 17 382 -128
2021-07-20 00:18:30 GMT 38.012329 -76.708359 14,900 17 382 -128
2021-07-20 00:18:26 GMT 38.003849 -76.711739 14,925 17 382 -64
2021-07-20 00:18:21 GMT 37.994751 -76.715424 14,925 17 382 64
2021-07-20 00:18:18 GMT 37.991364 -76.716766 14,900 17 382 64
2021-07-20 00:18:15 GMT 37.986301 -76.718842 14,900 17 383 0
2021-07-20 00:18:12 GMT 37.980854 -76.720993 14,900 17 383 -64
2021-07-20 00:18:09 GMT 37.974056 -76.723740 14,900 17 384 0
2021-07-20 00:18:06 GMT 37.972008 -76.724518 14,900 17 384 64
2021-07-20 00:18:03 GMT 37.965912 -76.726959 14,900 17 384 64
2021-07-20 00:18:00 GMT 37.960831 -76.728981 14,900 17 385 128
2021-07-20 00:17:56 GMT 37.954697 -76.731438 14,900 17 386 -64
2021-07-20 00:17:52 GMT 37.948174 -76.734009 14,900 17 385 -64
2021-07-20 00:17:50 GMT 37.944443 -76.735527 14,900 17 386 -64
2021-07-20 00:17:47 GMT 37.939327 -76.737534 14,900 17 386 -64
2021-07-20 00:17:43 GMT 37.931087 -76.740814 14,900 17 387 0
2021-07-20 00:17:38 GMT 37.921875 -76.744530 14,900 17 387 64
2021-07-20 00:17:33 GMT 37.913307 -76.747925 14,900 17 387 0
2021-07-20 00:17:28 GMT 37.905441 -76.751076 14,900 17 387 64
2021-07-20 00:17:25 GMT 37.901669 -76.752579 14,900 17 387 -64
2021-07-20 00:17:19 GMT 37.890774 -76.756935 14,900 17 387 -64
2021-07-20 00:17:15 GMT 37.884247 -76.759544 14,900 17 385 0
2021-07-20 00:17:12 GMT 37.879833 -76.761292 14,900 17 384 0
2021-07-20 00:17:07 GMT 37.868637 -76.765739 14,925 17 382 0
2021-07-20 00:17:04 GMT 37.866241 -76.766731 14,925 17 382 -64
2021-07-20 00:16:58 GMT 37.852787 -76.772041 14,925 17 377 0
2021-07-20 00:16:53 GMT 37.839752 -76.777191 14,925 17 377 0
2021-07-20 00:16:50 GMT 37.839752 -76.777191 14,925 17 375 0
2021-07-20 00:16:43 GMT 37.830814 -76.780762 14,925 17 372 192
2021-07-20 00:16:39 GMT 37.824554 -76.783211 14,900 17 370 256
2021-07-20 00:16:33 GMT 37.814758 -76.787010 14,875 17 367 256
2021-07-20 00:16:28 GMT 37.806335 -76.790283 14,875 16 364 256
2021-07-20 00:16:23 GMT 37.798275 -76.793358 14,825 16 359 704
2021-07-20 00:16:16 GMT 37.785873 -76.798058 14,725 16 356 1088
2021-07-20 00:16:12 GMT 37.779842 -76.800285 14,650 16 355 1152
2021-07-20 00:16:07 GMT 37.771648 -76.803329 14,550 15 350 1280
2021-07-20 00:16:02 GMT 37.765362 -76.805656 14,475 16 353 1152
2021-07-20 00:15:51 GMT 37.748108 -76.811905 14,250 15 349 1344
2021-07-20 00:15:44 GMT 37.736298 -76.816116 14,075 15 346 1472
2021-07-20 00:15:41 GMT 37.732590 -76.817398 14,025 15 346 1408
2021-07-20 00:15:34 GMT 37.719929 -76.821899 13,825 15 345 1536
2021-07-20 00:15:31 GMT 37.716854 -76.823036 13,775 15 345 1600
2021-07-20 00:15:22 GMT 37.703064 -76.828033 13,475 16 343 1472
2021-07-20 00:15:18 GMT 37.694229 -76.831390 13,400 20 339 1472
2021-07-20 00:15:13 GMT 37.686676 -76.834404 13,275 18 340 1472
2021-07-20 00:15:10 GMT 37.685200 -76.835037 13,250 18 341 1472
2021-07-20 00:15:06 GMT 37.678894 -76.837738 13,050 21 339 1472
2021-07-20 00:15:03 GMT 37.673889 -76.840050 13,050 20 339 1472
2021-07-20 00:14:59 GMT 37.668629 -76.842560 12,975 21 338 1472
2021-07-20 00:14:51 GMT 37.656921 -76.849190 12,750 28 336 1728
2021-07-20 00:14:47 GMT 37.651520 -76.853050 12,650 49 335 1280
2021-07-20 00:14:38 GMT 37.639252 -76.865608 12,375 49 335 1280
2021-07-20 00:14:31 GMT 37.633434 -76.874741 12,150 54 333 1536
2021-07-20 00:14:27 GMT 37.630177 -76.880470 12,150 54 333 1536
2021-07-20 00:14:22 GMT 37.625195 -76.889313 12,025 54 330 1152
2021-07-20 00:14:18 GMT 37.622177 -76.894653 11,950 54 329 1024
2021-07-20 00:14:11 GMT 37.615173 -76.907043 11,850 54 322 576
2021-07-20 00:14:03 GMT 37.609314 -76.917389 11,775 54 316 1280
2021-07-20 00:14:00 GMT 37.605782 -76.923698 11,700 54 314 1344
2021-07-20 00:13:57 GMT 37.604279 -76.926384 11,650 54 313 1344
2021-07-20 00:13:54 GMT 37.601082 -76.932060 11,550 54 310 1472
2021-07-20 00:13:50 GMT 37.597641 -76.938248 11,375 54 306 1408
2021-07-20 00:13:38 GMT 37.588486 -76.954613 11,200 54 302 1344
2021-07-20 00:13:29 GMT 37.579193 -76.971092 10,925 54 295 1472
2021-07-20 00:13:19 GMT 37.572327 -76.983360 10,600 54 284 1408
2021-07-20 00:13:12 GMT 37.567703 -76.991547 10,600 54 284 1408
2021-07-20 00:13:08 GMT 37.564682 -76.996918 10,500 54 280 1536
2021-07-20 00:12:57 GMT 37.556763 -77.010933 10,200 54 274 2112
2021-07-20 00:12:48 GMT 37.546646 -77.028946 9,675 54 272 2624
2021-07-20 00:12:36 GMT 37.540981 -77.039062 9,325 54 272 2496
2021-07-20 00:12:26 GMT 37.533783 -77.051674 8,925 54 271 2240
2021-07-20 00:12:22 GMT 37.529808 -77.058586 8,725 53 270 2048
2021-07-20 00:12:16 GMT 37.526093 -77.064880 8,575 53 268 1728
2021-07-20 00:12:06 GMT 37.518822 -77.076851 8,350 52 256 704
2021-07-20 00:11:55 GMT 37.510910 -77.089867 8,250 52 242 704
2021-07-20 00:11:49 GMT 37.507324 -77.095795 8,150 54 224 2496
2021-07-20 00:11:43 GMT 37.503040 -77.102890 7,950 52 228 2304
2021-07-20 00:11:40 GMT 37.501785 -77.104973 7,875 53 227 2432
2021-07-20 00:11:33 GMT 37.497223 -77.112617 7,600 54 224 2496
2021-07-20 00:11:22 GMT 37.490387 -77.124786 7,100 56 224 2624
2021-07-20 00:11:18 GMT 37.488239 -77.128922 6,950 58 223 2624
2021-07-20 00:11:12 GMT 37.484558 -77.137039 6,550 60 223 2688
2021-07-20 00:11:09 GMT 37.483017 -77.141029 6,475 76 222 2624
2021-07-20 00:11:03 GMT 37.481461 -77.145821 6,175 91 223 2816
2021-07-20 00:10:57 GMT 37.479671 -77.154060 6,000 80 223 2496
2021-07-20 00:10:50 GMT 37.479080 -77.163643 5,675 91 223 2880
2021-07-20 00:10:43 GMT 37.479218 -77.171944 5,400 91 223 2880
2021-07-20 00:10:36 GMT 37.479301 -77.180984 5,050 90 222 2816
We lost coverage of the aircraft here for a total of 69 minutes
2021-07-19 23:01:29 GMT 37.542286 -77.344170 725 147 138 -704
2021-07-19 23:01:14 GMT 37.550766 -77.350998 950 147 142 -960
2021-07-19 23:01:01 GMT 37.557724 -77.356544 1,150 147 142 -896
2021-07-19 23:00:55 GMT 37.561249 -77.359413 1,225 147 141 -704
2021-07-19 23:00:50 GMT 37.563793 -77.361481 1,300 147 142 -704
2021-07-19 23:00:43 GMT 37.568214 -77.365067 1,425 146 141 -1152
2021-07-19 23:00:36 GMT 37.571182 -77.367531 1,600 147 149 -960
2021-07-19 23:00:31 GMT 37.574112 -77.369926 1,625 147 147 -896
2021-07-19 23:00:26 GMT 37.577362 -77.372559 1,725 148 151 -960
2021-07-19 23:00:20 GMT 37.580704 -77.375130 1,800 147 155 -1280
2021-07-19 23:00:16 GMT 37.583450 -77.377296 2,000 148 161 -1152
2021-07-19 23:00:11 GMT 37.586472 -77.379631 2,000 148 161 -1152
2021-07-19 23:00:05 GMT 37.589859 -77.382141 2,100 149 166 -832
2021-07-19 23:00:00 GMT 37.593212 -77.384651 2,175 149 172 -1024
2021-07-19 22:59:53 GMT 37.598648 -77.388687 2,325 148 177 -1152
2021-07-19 22:59:50 GMT 37.601032 -77.390564 2,375 147 180 -768
2021-07-19 22:59:44 GMT 37.605789 -77.394470 2,375 146 191 -512
2021-07-19 22:59:40 GMT 37.607784 -77.396111 2,400 146 197 0
2021-07-19 22:59:33 GMT 37.613369 -77.400711 2,400 147 206 -128
2021-07-19 22:59:29 GMT 37.616302 -77.402985 2,400 148 209 64
2021-07-19 22:59:23 GMT 37.622177 -77.407562 2,400 148 212 64
2021-07-19 22:59:20 GMT 37.624878 -77.409607 2,400 150 214 64
2021-07-19 22:59:12 GMT 37.631062 -77.413666 2,400 156 216 -128
2021-07-19 22:59:09 GMT 37.633850 -77.415161 2,400 158 216 -320
2021-07-19 22:59:01 GMT 37.641312 -77.418846 2,425 157 215 0
2021-07-19 22:58:56 GMT 37.645294 -77.421181 2,425 153 215 128
2021-07-19 22:58:52 GMT 37.649231 -77.424629 2,400 130 221 256
2021-07-19 22:58:48 GMT 37.652847 -77.429596 2,400 120 223 192
2021-07-19 22:58:43 GMT 37.655128 -77.434868 2,400 105 225 -128
2021-07-19 22:58:38 GMT 37.656464 -77.440117 2,400 102 226 -64
2021-07-19 22:58:31 GMT 37.657875 -77.449196 2,400 100 226 0
2021-07-19 22:58:28 GMT 37.658478 -77.453316 2,400 100 226 -64
2021-07-19 22:58:21 GMT 37.659691 -77.461678 2,425 100 226 -320
2021-07-19 22:58:17 GMT 37.660667 -77.468422 2,425 100 225 -256
2021-07-19 22:58:11 GMT 37.661831 -77.476181 2,450 100 226 -320
2021-07-19 22:58:07 GMT 37.662460 -77.480553 2,475 99 227 -512
2021-07-19 22:58:00 GMT 37.663788 -77.489960 2,550 100 228 -1152
2021-07-19 22:57:56 GMT 37.664383 -77.494171 2,625 100 228 -1856
2021-07-19 22:57:50 GMT 37.665604 -77.502274 2,850 100 227 -1536
2021-07-19 22:57:47 GMT 37.666351 -77.507256 2,925 100 227 -1664
2021-07-19 22:57:40 GMT 37.667744 -77.516426 3,150 100 229 -2048
2021-07-19 22:57:35 GMT 37.668549 -77.521927 3,300 100 229 -2048
2021-07-19 22:57:29 GMT 37.669930 -77.530579 3,500 101 230 -2048
2021-07-19 22:57:25 GMT 37.670609 -77.535072 3,725 101 231 -2112
2021-07-19 22:57:19 GMT 37.671936 -77.543610 3,850 100 233 -1984
2021-07-19 22:57:14 GMT 37.672989 -77.550560 4,025 101 236 -2112
2021-07-19 22:57:08 GMT 37.674088 -77.557518 4,200 101 235 -2048
2021-07-19 22:57:05 GMT 37.674866 -77.562363 4,350 101 236 -2112
2021-07-19 22:56:58 GMT 37.676449 -77.571838 4,550 102 238 -2048
2021-07-19 22:56:54 GMT 37.677380 -77.577271 4,800 102 240 -2048
2021-07-19 22:56:50 GMT 37.678162 -77.581940 4,800 102 241 -1984
2021-07-19 22:56:45 GMT 37.679718 -77.590767 5,150 102 246 -2048
2021-07-19 22:56:38 GMT 37.681477 -77.600555 5,250 103 248 -1920
2021-07-19 22:56:32 GMT 37.682919 -77.607903 5,425 103 251 -1664
2021-07-19 22:56:27 GMT 37.684204 -77.614548 5,600 103 257 -1600
2021-07-19 22:56:24 GMT 37.685154 -77.619484 5,675 102 259 -1856
2021-07-19 22:56:14 GMT 37.687016 -77.635010 6,025 90 258 -2048
2021-07-19 22:56:06 GMT 37.686584 -77.646751 6,250 83 257 -1792
2021-07-19 22:56:03 GMT 37.686226 -77.650589 6,525 83 258 -1728
2021-07-19 22:55:56 GMT 37.685028 -77.662880 6,575 83 258 -1600
2021-07-19 22:55:51 GMT 37.684361 -77.670357 6,700 83 259 -1664
2021-07-19 22:55:45 GMT 37.683746 -77.677895 6,825 84 261 -1728
2021-07-19 22:55:42 GMT 37.683384 -77.682472 6,925 84 262 -1728
2021-07-19 22:55:32 GMT 37.682190 -77.697998 7,200 83 263 -1024
2021-07-19 22:55:22 GMT 37.680500 -77.713699 7,400 81 270 -1472
2021-07-19 22:55:11 GMT 37.678574 -77.730553 7,675 82 280 -1728
2021-07-19 22:55:03 GMT 37.677292 -77.742943 8,825 83 286 -1984
2021-07-19 22:55:00 GMT 37.676868 -77.747200 7,975 82 285 -2176
2021-07-19 22:54:51 GMT 37.675186 -77.764038 8,350 83 285 -2112
2021-07-19 22:54:40 GMT 37.673561 -77.781593 8,700 83 286 -1920
2021-07-19 22:54:29 GMT 37.672028 -77.798904 9,050 83 288 -1920
2021-07-19 22:54:19 GMT 37.670334 -77.818031 9,400 83 290 -1792
2021-07-19 22:54:08 GMT 37.668869 -77.834274 9,675 83 294 -1536
2021-07-19 22:53:58 GMT 37.667175 -77.852158 9,925 82 300 -1536
2021-07-19 22:53:52 GMT 37.665974 -77.864403 10,100 82 308 -1536
2021-07-19 22:53:49 GMT 37.665462 -77.869362 10,175 82 307 -1472
2021-07-19 22:53:37 GMT 37.663422 -77.888977 10,450 82 312 -1408
2021-07-19 22:53:27 GMT 37.661461 -77.906860 10,675 81 318 -1536
2021-07-19 22:53:18 GMT 37.659164 -77.925735 10,900 86 331 128
2021-07-19 22:53:06 GMT 37.658852 -77.946266 10,900 98 339 -128
2021-07-19 22:52:56 GMT 37.662598 -77.965881 10,900 106 339 0
2021-07-19 22:52:47 GMT 37.666904 -77.983643 10,900 106 337 0
2021-07-19 22:52:36 GMT 37.672028 -78.005035 10,900 106 334 0
2021-07-19 22:52:26 GMT 37.676147 -78.022156 10,925 106 332 0
2021-07-19 22:52:16 GMT 37.680870 -78.041740 10,925 107 329 -128
2021-07-19 22:52:06 GMT 37.685806 -78.061836 10,925 107 324 -64
2021-07-19 22:51:55 GMT 37.690384 -78.080475 10,925 107 317 192
2021-07-19 22:51:44 GMT 37.694778 -78.098770 10,900 106 311 0
2021-07-19 22:51:31 GMT 37.700684 -78.123253 10,900 107 316 64
2021-07-19 22:51:20 GMT 37.704941 -78.140724 10,900 106 316 -320
2021-07-19 22:51:11 GMT 37.715553 -78.186058 11,575 106 356 -1856
2021-07-19 22:50:56 GMT 37.715553 -78.186058 11,325 106 336 -1984
2021-07-19 22:50:53 GMT 37.716671 -78.190590 11,400 107 340 -1920
2021-07-19 22:50:42 GMT 37.721512 -78.210419 11,725 107 343 -1920
2021-07-19 22:50:33 GMT 37.726585 -78.231255 12,075 106 347 -1920
2021-07-19 22:50:19 GMT 37.732498 -78.256271 12,475 106 353 -1984
2021-07-19 22:50:06 GMT 37.738411 -78.282127 12,900 106 359 -1984
2021-07-19 22:50:00 GMT 37.741810 -78.296753 13,125 106 364 -1920
2021-07-19 22:49:51 GMT 37.745590 -78.312881 13,375 106 374 -1984
2021-07-19 22:49:39 GMT 37.751446 -78.337654 13,750 106 378 -1920
2021-07-19 22:49:31 GMT 37.756027 -78.356712 14,050 106 382 -1984
2021-07-19 22:49:19 GMT 37.761593 -78.380463 14,400 106 391 -1856
2021-07-19 22:49:09 GMT 37.766712 -78.402618 14,725 106 401 -1984
2021-07-19 22:49:00 GMT 37.772232 -78.425613 15,075 107 403 -2048
2021-07-19 22:48:49 GMT 37.777771 -78.448051 15,425 106 401 -1984
2021-07-19 22:48:39 GMT 37.783287 -78.470802 15,750 106 397 -2048
2021-07-19 22:48:21 GMT 37.792969 -78.511459 16,350 106 383 -1856
2021-07-19 22:48:18 GMT 37.794159 -78.516655 16,425 106 381 -1856
2021-07-19 22:48:07 GMT 37.799240 -78.538803 16,750 106 382 -1856
2021-07-19 22:47:58 GMT 37.804466 -78.561684 17,075 106 388 -1792
2021-07-19 22:47:43 GMT 37.811497 -78.591591 17,475 106 397 -1792
2021-07-19 22:47:24 GMT 37.822159 -78.637093 18,125 106 416 -1984
2021-07-19 22:47:16 GMT 37.826019 -78.653992 18,350 105 422 -2176
2021-07-19 22:47:01 GMT 37.834076 -78.688873 18,925 106 428 -2496
2021-07-19 22:46:54 GMT 37.838150 -78.706291 19,250 106 431 -2752
2021-07-19 22:46:44 GMT 37.843945 -78.730896 19,725 106 429 -2752
2021-07-19 22:46:35 GMT 37.849503 -78.754440 20,150 106 430 -2688
2021-07-19 22:46:16 GMT 37.860424 -78.800514 21,000 106 433 -2688
2021-07-19 22:46:13 GMT 37.861679 -78.805809 21,075 106 433 -2560
2021-07-19 22:46:08 GMT 37.865570 -78.822403 21,375 106 437 -2560
2021-07-19 22:46:04 GMT 37.867401 -78.830238 21,500 106 437 -2560
2021-07-19 22:45:52 GMT 37.873352 -78.855888 21,950 106 443 -2496
2021-07-19 22:45:43 GMT 37.879883 -78.884460 22,400 106 450 -2496
2021-07-19 22:45:39 GMT 37.881134 -78.890015 22,500 106 449 -2496
2021-07-19 22:45:36 GMT 37.883972 -78.902229 22,700 106 454 -2688
2021-07-19 22:45:33 GMT 37.885048 -78.906792 22,775 106 455 -2624
2021-07-19 22:45:26 GMT 37.890701 -78.930923 23,200 106 464 -2560
2021-07-19 22:45:13 GMT 37.897480 -78.959457 23,650 106 470 -2496
2021-07-19 22:45:05 GMT 37.903019 -78.982620 24,025 106 473 -2496
2021-07-19 22:44:41 GMT 37.916843 -79.040962 24,950 106 473 -2560
2021-07-19 22:44:40 GMT 37.917587 -79.044121 25,000 106 473 -2496
2021-07-19 22:44:30 GMT 37.924118 -79.073456 25,450 105 474 -2432
2021-07-19 22:44:23 GMT 37.927460 -79.089027 25,675 104 475 -2496
2021-07-19 22:44:19 GMT 37.929413 -79.098694 25,850 104 475 -2496
2021-07-19 22:44:12 GMT 37.933273 -79.118744 26,150 102 476 -2560
2021-07-19 22:44:08 GMT 37.935333 -79.130669 26,325 101 476 -2560
2021-07-19 22:44:03 GMT 37.937698 -79.146584 26,575 99 476 -2560
2021-07-19 22:43:57 GMT 37.939407 -79.160294 26,700 95 475 -2560
2021-07-19 22:43:54 GMT 37.940353 -79.170822 26,950 93 474 -2496
2021-07-19 22:43:51 GMT 37.940678 -79.175240 27,025 94 475 -2496
2021-07-19 22:43:42 GMT 37.941097 -79.202950 27,425 85 472 -2368
2021-07-19 22:43:35 GMT 37.939610 -79.221573 27,700 83 471 -2496
2021-07-19 22:43:29 GMT 37.936844 -79.239357 27,975 76 468 -2496
2021-07-19 22:43:21 GMT 37.932625 -79.258896 28,275 71 466 -2496
2021-07-19 22:43:13 GMT 37.926590 -79.279800 28,600 66 462 -2432
2021-07-19 22:43:06 GMT 37.920338 -79.296928 28,900 65 461 -2496
2021-07-19 22:42:59 GMT 37.914238 -79.311020 29,150 59 453 -2496
2021-07-19 22:42:55 GMT 37.908005 -79.324150 29,400 59 443 -2368
2021-07-19 22:42:50 GMT 37.903336 -79.334084 29,550 59 447 -2368
2021-07-19 22:42:45 GMT 37.899124 -79.343086 29,725 59 445 -2304
2021-07-19 22:42:39 GMT 37.892220 -79.357773 29,975 59 442 -2176
2021-07-19 22:42:36 GMT 37.878624 -79.387032 30,475 59 441 -1856
2021-07-19 22:42:26 GMT 37.878624 -79.387032 30,475 59 434 -1472
2021-07-19 22:42:19 GMT 37.871063 -79.403221 30,525 59 434 -1536
2021-07-19 22:42:13 GMT 37.864471 -79.417130 30,675 59 432 -1472
2021-07-19 22:42:06 GMT 37.857304 -79.432167 30,825 58 425 -1536
2021-07-19 22:41:57 GMT 37.847900 -79.451752 31,050 58 425 -1600
2021-07-19 22:41:46 GMT 37.838608 -79.470947 31,300 58 429 -1536
2021-07-19 22:41:37 GMT 37.827557 -79.493729 31,575 58 433 -1600
2021-07-19 22:41:28 GMT 37.819550 -79.510147 31,775 58 434 -1600
2021-07-19 22:41:25 GMT 37.815948 -79.517525 31,850 58 437 -1472
2021-07-19 22:41:22 GMT 37.811142 -79.526993 31,950 56 438 -1280
2021-07-19 22:41:16 GMT 37.805603 -79.537163 32,475 50 446 -1472
2021-07-19 22:41:12 GMT 37.801666 -79.543701 32,150 51 440 -1472
2021-07-19 22:41:06 GMT 37.791870 -79.558899 32,325 50 443 -1472
2021-07-19 22:41:02 GMT 37.787109 -79.566086 32,425 50 445 -1664
2021-07-19 22:40:53 GMT 37.775745 -79.583290 32,700 50 451 -1088
2021-07-19 22:40:49 GMT 37.770390 -79.591408 32,700 50 451 -1088
2021-07-19 22:40:45 GMT 37.764526 -79.600365 32,775 50 453 -960
2021-07-19 22:40:41 GMT 37.760754 -79.606041 32,825 50 454 -1152
2021-07-19 22:40:33 GMT 37.749489 -79.623238 32,975 50 455 -832
2021-07-19 22:40:20 GMT 37.732590 -79.649300 33,025 50 461 -192
2021-07-19 22:40:11 GMT 37.717693 -79.672318 33,100 50 464 -896
2021-07-19 22:40:00 GMT 37.704346 -79.692894 33,250 50 465 -1088
2021-07-19 22:39:48 GMT 37.688004 -79.718140 33,475 50 466 -1024
2021-07-19 22:39:38 GMT 37.673004 -79.741280 33,675 50 466 -1088
2021-07-19 22:39:29 GMT 37.662064 -79.758118 33,775 50 466 -1024
2021-07-19 22:39:19 GMT 37.647034 -79.781372 33,975 51 468 -896
2021-07-19 22:39:11 GMT 37.638336 -79.794930 34,100 51 468 -1088
2021-07-19 22:39:08 GMT 37.633438 -79.802582 34,150 51 469 -1088
2021-07-19 22:38:56 GMT 37.616257 -79.829407 34,475 51 470 -1024
2021-07-19 22:38:51 GMT 37.608669 -79.841347 34,475 51 470 -1024
2021-07-19 22:38:45 GMT 37.603222 -79.849945 34,525 51 471 -960
2021-07-19 22:38:36 GMT 37.588760 -79.872589 34,725 51 471 -1152
2021-07-19 22:38:29 GMT 37.579468 -79.887146 34,850 51 472 -1088
2021-07-19 22:37:46 GMT 37.521149 -79.977959 35,550 51 474 -1088
2021-07-19 22:37:43 GMT 37.515656 -79.986603 35,625 51 475 -960
2021-07-19 22:37:34 GMT 37.504669 -80.003899 35,750 51 476 -1088
2021-07-19 22:37:24 GMT 37.491440 -80.024651 35,925 51 477 -1024
2021-07-19 22:37:09 GMT 37.470222 -80.058029 36,200 51 478 -1088
2021-07-19 22:36:44 GMT 37.434330 -80.114456 36,275 51 478 -1024
2021-07-19 22:36:41 GMT 37.430191 -80.120956 36,625 51 477 -1024
2021-07-19 22:36:34 GMT 37.420597 -80.136131 36,775 51 476 -1024
2021-07-19 22:36:32 GMT 37.419205 -80.138252 36,800 51 475 -1024
2021-07-19 22:36:23 GMT 37.406960 -80.157684 36,925 51 473 -832
2021-07-19 22:36:19 GMT 37.401512 -80.166283 37,000 51 471 0
2021-07-19 22:36:11 GMT 37.389908 -80.184708 37,000 51 468 -64
2021-07-19 22:36:00 GMT 37.377045 -80.205101 37,000 51 465 -64
2021-07-19 22:35:51 GMT 37.363678 -80.226143 37,000 51 461 0
2021-07-19 22:35:40 GMT 37.348534 -80.249992 37,000 51 458 0
2021-07-19 22:35:30 GMT 37.336212 -80.269562 37,000 51 455 -64
2021-07-19 22:35:18 GMT 37.314087 -80.304565 37,000 51 448 0
2021-07-19 22:35:10 GMT 37.309429 -80.311913 37,000 51 448 0
2021-07-19 22:34:59 GMT 37.296387 -80.332619 37,000 51 444 0
2021-07-19 22:34:56 GMT 37.291553 -80.340332 37,000 52 424 -128
2021-07-19 22:34:49 GMT 37.283203 -80.353592 37,000 51 440 64
2021-07-19 22:34:44 GMT 37.276424 -80.364395 35,025 57 418 1024
2021-07-19 22:34:38 GMT 37.269955 -80.374725 37,025 51 434 0
2021-07-19 22:34:33 GMT 37.263996 -80.384216 37,000 51 433 -128
2021-07-19 22:34:27 GMT 37.256596 -80.396095 37,000 52 431 128
2021-07-19 22:34:24 GMT 37.251480 -80.404320 37,000 52 429 0
2021-07-19 22:34:16 GMT 37.243195 -80.417641 37,025 52 425 -192
2021-07-19 22:34:13 GMT 37.239349 -80.423897 37,025 52 424 -128
2021-07-19 22:34:06 GMT 37.230476 -80.438194 36,975 52 421 448
2021-07-19 22:34:03 GMT 37.226440 -80.444817 36,975 53 420 64
2021-07-19 22:33:55 GMT 37.218559 -80.458672 36,975 56 420 0
2021-07-19 22:33:52 GMT 37.214905 -80.465561 36,975 57 418 320
2021-07-19 22:33:47 GMT 37.209457 -80.476196 36,925 57 417 896
2021-07-19 22:33:41 GMT 37.203186 -80.488350 36,825 57 417 1024
2021-07-19 22:33:30 GMT 37.186672 -80.520531 36,550 57 418 960
2021-07-19 22:33:20 GMT 37.177036 -80.539276 35,025 57 418 1024
2021-07-19 22:33:15 GMT 37.170380 -80.552353 36,300 57 419 960
2021-07-19 22:33:08 GMT 37.168331 -80.556473 36,275 57 419 1024
2021-07-19 22:33:00 GMT 37.160202 -80.572449 36,000 57 419 1152
2021-07-19 22:32:54 GMT 37.155258 -80.582260 36,050 57 419 1152
2021-07-19 22:32:49 GMT 37.149445 -80.593773 35,950 57 419 1088
2021-07-19 22:32:38 GMT 37.138229 -80.615982 35,750 57 419 1088
2021-07-19 22:32:29 GMT 37.127472 -80.637314 35,550 57 420 1152
2021-07-19 22:32:23 GMT 37.122849 -80.646309 35,475 57 419 1280
2021-07-19 22:32:20 GMT 37.119919 -80.652039 35,400 57 421 1216
2021-07-19 22:32:17 GMT 37.116165 -80.659401 35,025 56 421 1216
2021-07-19 22:32:12 GMT 37.111496 -80.668404 34,575 52 419 1024
2021-07-19 22:32:07 GMT 37.105766 -80.679413 35,125 56 421 1216
2021-07-19 22:32:02 GMT 37.100552 -80.689087 35,025 56 421 1216
2021-07-19 22:31:56 GMT 37.093735 -80.701530 34,925 54 420 1280
2021-07-19 22:31:48 GMT 37.085129 -80.716553 34,750 53 420 1280
2021-07-19 22:31:40 GMT 37.067360 -80.745453 34,475 52 420 1216
2021-07-19 22:31:34 GMT 37.067360 -80.745453 34,450 52 420 1216
2021-07-19 22:31:29 GMT 37.061371 -80.755066 34,350 52 420 1216
2021-07-19 22:31:23 GMT 37.054688 -80.765755 34,225 52 421 1216
2021-07-19 22:31:20 GMT 37.051113 -80.771545 34,175 52 421 1280
2021-07-19 22:31:17 GMT 37.047760 -80.776917 34,125 52 421 1216
2021-07-19 22:31:12 GMT 37.040546 -80.788383 34,000 52 421 1216
2021-07-19 22:31:08 GMT 37.036011 -80.795677 33,900 51 421 1216
2021-07-19 22:31:01 GMT 37.028320 -80.807953 33,775 52 421 1216
2021-07-19 22:30:52 GMT 37.017967 -80.824448 33,600 52 421 1088
2021-07-19 22:30:47 GMT 37.012241 -80.833641 33,550 52 421 1216
2021-07-19 22:30:41 GMT 37.003117 -80.848152 33,350 52 421 1344
2021-07-19 22:30:35 GMT 36.997856 -80.856628 33,250 52 421 1152
2021-07-19 22:30:29 GMT 36.990643 -80.868095 33,125 52 421 1280
2021-07-19 22:30:25 GMT 36.983891 -80.878838 33,000 51 421 1344
2021-07-19 22:30:21 GMT 36.979607 -80.885704 32,925 51 421 1216
2021-07-19 22:30:15 GMT 36.973789 -80.894897 32,825 51 421 1344
2021-07-19 22:30:05 GMT 36.960571 -80.915939 32,600 51 421 1280
2021-07-19 22:30:00 GMT 36.954300 -80.925880 32,500 52 422 1280
2021-07-19 22:29:51 GMT 36.943222 -80.943527 32,325 52 421 1152
2021-07-19 22:29:48 GMT 36.941345 -80.946625 32,300 52 421 1152
2021-07-19 22:29:37 GMT 36.928120 -80.967743 32,100 52 421 1408
2021-07-19 22:29:27 GMT 36.915691 -80.987625 31,900 52 421 1152
2021-07-19 22:29:22 GMT 36.909920 -80.996826 31,800 52 421 1216
2021-07-19 22:29:17 GMT 36.904194 -81.006020 31,700 51 420 1216
2021-07-19 22:29:14 GMT 36.898682 -81.014763 31,625 51 419 1088
2021-07-19 22:29:07 GMT 36.891251 -81.026558 31,525 51 419 1024
2021-07-19 22:29:03 GMT 36.886688 -81.033752 31,450 51 418 1088
2021-07-19 22:28:58 GMT 36.880005 -81.044388 31,300 51 418 1344
2021-07-19 22:28:53 GMT 36.874283 -81.053505 31,225 51 418 1344
2021-07-19 22:28:46 GMT 36.865463 -81.067520 31,075 51 418 1344
2021-07-19 22:28:41 GMT 36.861134 -81.074326 30,975 51 418 1344
2021-07-19 22:28:34 GMT 36.852768 -81.087578 30,875 51 418 1344
2021-07-19 22:28:31 GMT 36.849216 -81.093246 30,775 51 417 1344
2021-07-19 22:28:26 GMT 36.841534 -81.105339 30,625 51 418 1344
2021-07-19 22:28:22 GMT 36.836517 -81.113319 30,525 51 418 1344
2021-07-19 22:28:14 GMT 36.828415 -81.126190 30,375 51 418 1408
2021-07-19 22:28:10 GMT 36.824112 -81.133003 30,300 51 418 1408
2021-07-19 22:28:03 GMT 36.815048 -81.147369 30,125 51 418 1280
2021-07-19 22:27:59 GMT 36.809784 -81.155777 30,025 51 418 1344
2021-07-19 22:27:53 GMT 36.802383 -81.167519 29,875 51 418 1344
2021-07-19 22:27:49 GMT 36.799030 -81.172836 29,825 51 418 1344
2021-07-19 22:27:45 GMT 36.793991 -81.180840 29,725 51 419 1344
2021-07-19 22:27:41 GMT 36.789185 -81.188454 29,625 51 419 1152
2021-07-19 22:27:38 GMT 36.785843 -81.193771 29,575 51 419 1280
2021-07-19 22:27:35 GMT 36.781540 -81.200584 29,500 51 419 1280
2021-07-19 22:27:32 GMT 36.776966 -81.207840 29,425 51 420 1280
2021-07-19 22:27:26 GMT 36.770264 -81.218475 29,300 51 420 1024
2021-07-19 22:27:18 GMT 36.761604 -81.232208 29,150 51 420 1280
2021-07-19 22:27:14 GMT 36.756344 -81.240562 29,075 51 420 1152
2021-07-19 22:27:04 GMT 36.743401 -81.261078 28,875 51 419 1344
2021-07-19 22:26:58 GMT 36.736450 -81.272102 28,750 51 419 1152
2021-07-19 22:26:52 GMT 36.730682 -81.281204 28,650 51 419 1152
2021-07-19 22:26:47 GMT 36.724457 -81.291046 28,550 51 418 1152
2021-07-19 22:26:43 GMT 36.717728 -81.301636 28,450 51 419 1024
2021-07-19 22:26:38 GMT 36.712212 -81.310341 28,350 51 417 1024
2021-07-19 22:26:32 GMT 36.705734 -81.320518 28,250 51 417 1088
2021-07-19 22:26:26 GMT 36.699005 -81.331039 28,150 51 417 1152
2021-07-19 22:26:22 GMT 36.693237 -81.340080 28,050 51 417 1280
2021-07-19 22:26:14 GMT 36.685135 -81.352898 27,950 51 416 1088
2021-07-19 22:26:10 GMT 36.679871 -81.361198 27,850 51 416 1088
2021-07-19 22:26:06 GMT 36.675110 -81.368690 27,750 51 413 960
2021-07-19 22:25:58 GMT 36.665588 -81.383682 27,600 51 415 1024
2021-07-19 22:25:55 GMT 36.662495 -81.388588 27,225 51 413 960
2021-07-19 22:25:51 GMT 36.655838 -81.399048 27,450 51 414 1024
2021-07-19 22:25:45 GMT 36.648666 -81.410271 27,350 51 414 1216
2021-07-19 22:25:40 GMT 36.644165 -81.417389 27,275 51 413 1216
2021-07-19 22:25:35 GMT 36.637730 -81.427452 27,175 51 413 1152
2021-07-19 22:25:29 GMT 36.631584 -81.437210 27,050 51 413 1088
2021-07-19 22:25:25 GMT 36.624710 -81.448006 26,950 51 413 1280
2021-07-19 22:25:19 GMT 36.617851 -81.458832 26,825 51 413 1152
2021-07-19 22:25:12 GMT 36.610729 -81.470055 26,725 51 412 1216
2021-07-19 22:25:09 GMT 36.606956 -81.476013 26,650 51 412 1152
2021-07-19 22:25:03 GMT 36.600586 -81.486053 26,550 51 412 1344
2021-07-19 22:24:58 GMT 36.594669 -81.495354 26,450 51 412 1280
2021-07-19 22:24:49 GMT 36.582642 -81.514259 26,250 51 411 1088
2021-07-19 22:24:41 GMT 36.574837 -81.526505 26,125 51 411 1088
2021-07-19 22:24:37 GMT 36.569668 -81.534622 26,050 51 411 1152
2021-07-19 22:24:26 GMT 36.556587 -81.555252 25,850 51 410 1088
2021-07-19 22:24:20 GMT 36.550095 -81.565361 25,750 51 410 1024
2021-07-19 22:24:17 GMT 36.546116 -81.571678 25,700 51 410 1088
2021-07-19 22:24:12 GMT 36.538570 -81.583481 25,575 51 409 1152
2021-07-19 22:24:06 GMT 36.533615 -81.591225 25,500 51 409 1088
2021-07-19 22:24:01 GMT 36.527023 -81.601524 25,400 51 409 1152
2021-07-19 22:23:57 GMT 36.521114 -81.610710 25,300 51 409 1024
2021-07-19 22:23:46 GMT 36.509243 -81.629059 25,075 51 410 1280
2021-07-19 22:23:38 GMT 36.500519 -81.642723 24,925 51 410 1152
2021-07-19 22:23:35 GMT 36.496719 -81.648621 24,875 51 410 1152
2021-07-19 22:23:26 GMT 36.485176 -81.666695 24,700 51 409 1152
2021-07-19 22:23:15 GMT 36.472641 -81.686211 24,500 51 410 1152
2021-07-19 22:23:08 GMT 36.464367 -81.699127 24,375 51 410 1216
2021-07-19 22:23:05 GMT 36.460598 -81.705032 24,300 51 409 1024
2021-07-19 22:22:55 GMT 36.448013 -81.724487 24,100 51 409 1280
2021-07-19 22:22:47 GMT 36.438629 -81.739258 23,950 51 408 1216
2021-07-19 22:22:43 GMT 36.434875 -81.745087 23,875 51 408 1088
2021-07-19 22:22:36 GMT 36.426708 -81.757919 23,725 51 407 1216
2021-07-19 22:22:33 GMT 36.423203 -81.763397 23,675 51 407 1216
2021-07-19 22:22:24 GMT 36.411716 -81.781349 23,500 51 407 1024
2021-07-19 22:22:13 GMT 36.399765 -81.799965 23,300 51 406 1152
2021-07-19 22:22:02 GMT 36.387543 -81.818787 23,100 51 405 1216
2021-07-19 22:21:51 GMT 36.374245 -81.839493 22,875 51 404 1216
2021-07-19 22:21:46 GMT 36.366795 -81.851067 22,750 51 404 1472
2021-07-19 22:21:42 GMT 36.363537 -81.856148 22,700 51 404 896
2021-07-19 22:21:35 GMT 36.355453 -81.868690 22,575 51 403 1280
2021-07-19 22:21:32 GMT 36.351433 -81.874969 22,500 51 403 1216
2021-07-19 22:21:24 GMT 36.343277 -81.887566 22,375 51 402 960
2021-07-19 22:21:21 GMT 36.339066 -81.894096 22,325 51 402 1216
2021-07-19 22:21:13 GMT 36.330528 -81.907402 22,175 51 399 1088
2021-07-19 22:21:10 GMT 36.327271 -81.912430 22,125 51 401 1024
2021-07-19 22:21:00 GMT 36.314331 -81.932526 21,900 51 399 1088
2021-07-19 22:20:53 GMT 36.306927 -81.943985 21,775 51 399 1280
2021-07-19 22:20:49 GMT 36.303040 -81.950050 21,700 51 399 1088
2021-07-19 22:20:43 GMT 36.294754 -81.962929 21,575 51 398 1152
2021-07-19 22:20:40 GMT 36.291504 -81.967911 21,525 51 397 832
2021-07-19 22:20:34 GMT 36.284180 -81.979347 21,425 51 396 1024
2021-07-19 22:20:30 GMT 36.279648 -81.986443 21,325 51 396 1216
2021-07-19 22:20:18 GMT 36.266373 -82.006989 21,100 51 395 1408
2021-07-19 22:20:09 GMT 36.256348 -82.022491 20,925 51 394 1024
2021-07-19 22:20:02 GMT 36.247238 -82.036575 20,775 51 392 1024
2021-07-19 22:19:58 GMT 36.242920 -82.043213 20,700 51 391 1216
2021-07-19 22:19:51 GMT 36.234970 -82.055450 20,575 51 391 1088
2021-07-19 22:19:47 GMT 36.232224 -82.059631 20,525 51 391 1152
2021-07-19 22:19:37 GMT 36.220715 -82.077393 20,325 51 389 1152
2021-07-19 22:19:31 GMT 36.212448 -82.090240 20,175 51 388 1216
2021-07-19 22:19:28 GMT 36.209290 -82.095108 20,125 51 387 1344
2021-07-19 22:19:21 GMT 36.202374 -82.105797 20,000 51 386 1216
2021-07-19 22:19:17 GMT 36.197437 -82.113396 19,900 51 386 1152
2021-07-19 22:19:09 GMT 36.187363 -82.128868 19,725 51 385 1024
2021-07-19 22:19:06 GMT 36.186035 -82.130928 19,700 51 384 1152
2021-07-19 22:19:01 GMT 36.178436 -82.142548 19,575 51 384 1088
2021-07-19 22:18:56 GMT 36.174625 -82.148338 19,525 51 383 1152
2021-07-19 22:18:49 GMT 36.166855 -82.160225 19,400 51 382 1152
2021-07-19 22:18:46 GMT 36.163082 -82.166046 19,325 51 381 1344
2021-07-19 22:18:40 GMT 36.156235 -82.176590 19,200 51 379 1152
2021-07-19 22:18:35 GMT 36.151585 -82.183693 19,125 51 379 1152
2021-07-19 22:18:29 GMT 36.145020 -82.193802 19,025 51 378 960
2021-07-19 22:18:25 GMT 36.140179 -82.201225 18,925 51 377 1024
2021-07-19 22:18:19 GMT 36.133484 -82.211555 18,825 51 377 1088
2021-07-19 22:18:15 GMT 36.128819 -82.218697 18,750 51 376 1216
2021-07-19 22:18:08 GMT 36.121464 -82.229919 18,600 51 374 1152
2021-07-19 22:18:05 GMT 36.117691 -82.235703 18,525 51 374 1344
2021-07-19 22:17:58 GMT 36.110733 -82.246346 18,400 50 373 1152
2021-07-19 22:17:54 GMT 36.106613 -82.252594 18,325 51 371 1280
2021-07-19 22:17:49 GMT 36.100098 -82.262527 18,225 51 371 1344
2021-07-19 22:17:43 GMT 36.094929 -82.270416 18,100 51 370 1472
2021-07-19 22:17:38 GMT 36.088715 -82.279984 17,975 51 371 1280
2021-07-19 22:17:34 GMT 36.084000 -82.287315 17,875 51 370 1344
2021-07-19 22:17:23 GMT 36.073051 -82.304138 17,650 51 369 1152
2021-07-19 22:17:12 GMT 36.061504 -82.321960 17,450 51 369 1280
2021-07-19 22:17:03 GMT 36.050995 -82.338066 17,225 51 369 1344
2021-07-19 22:16:52 GMT 36.039577 -82.355385 16,975 50 368 1472
2021-07-19 22:16:41 GMT 36.028358 -82.372391 16,750 50 368 1408
2021-07-19 22:16:35 GMT 36.021698 -82.382523 16,600 51 368 1152
2021-07-19 22:16:32 GMT 36.016769 -82.390099 16,500 50 368 1216
2021-07-19 22:16:21 GMT 36.006016 -82.406342 16,300 51 367 1408
2021-07-19 22:16:10 GMT 35.982880 -82.442039 16,025 51 365 1600
2021-07-19 22:16:00 GMT 35.982880 -82.442039 15,800 51 365 1600
2021-07-19 22:15:49 GMT 35.972961 -82.457359 15,575 51 364 1408
2021-07-19 22:15:39 GMT 35.962395 -82.473549 15,350 51 364 1280
2021-07-19 22:15:28 GMT 35.950836 -82.491302 15,100 51 362 1408
2021-07-19 22:15:17 GMT 35.939400 -82.509079 14,875 51 360 1344
2021-07-19 22:15:09 GMT 35.930145 -82.523628 14,675 52 359 1344
2021-07-19 22:14:58 GMT 35.919525 -82.540337 14,425 51 356 1344
2021-07-19 22:14:47 GMT 35.908257 -82.557755 13,550 51 354 1344
2021-07-19 22:14:38 GMT 35.898384 -82.572891 13,975 50 351 1408
2021-07-19 22:14:27 GMT 35.887436 -82.589264 13,725 49 350 1408
2021-07-19 22:14:15 GMT 35.875488 -82.606033 13,475 46 347 1408
2021-07-19 22:14:07 GMT 35.864494 -82.619820 13,250 43 344 1280
2021-07-19 22:13:56 GMT 35.838425 -82.644127 12,900 7 331 1152
2021-07-19 22:13:45 GMT 35.838425 -82.644127 12,775 28 336 1664
2021-07-19 22:13:36 GMT 35.823994 -82.650909 12,450 10 332 1216
2021-07-19 22:13:32 GMT 35.820366 -82.651726 12,475 7 331 1152
2021-07-19 22:13:25 GMT 35.808121 -82.652954 12,300 2 328 1216
2021-07-19 22:13:20 GMT 35.800858 -82.653419 12,200 4 327 1344
2021-07-19 22:13:14 GMT 35.792130 -82.654381 12,075 5 324 1280
2021-07-19 22:13:04 GMT 35.776932 -82.656105 11,850 4 317 1408
2021-07-19 22:12:51 GMT 35.757843 -82.658157 11,550 4 314 1216
2021-07-19 22:12:44 GMT 35.743423 -82.659531 11,325 4 309 1472
2021-07-19 22:12:31 GMT 35.719162 -82.661705 10,925 4 299 1344
2021-07-19 22:12:21 GMT 35.715576 -82.662010 10,850 4 297 1344
2021-07-19 22:12:13 GMT 35.703827 -82.663139 10,675 4 292 1344
2021-07-19 22:12:01 GMT 35.688812 -82.664566 10,400 4 286 1408
2021-07-19 22:11:50 GMT 35.674622 -82.665939 10,075 4 281 2048
2021-07-19 22:11:42 GMT 35.662411 -82.667091 9,725 4 279 2048
2021-07-19 22:11:29 GMT 35.647751 -82.668343 9,350 3 276 2048
2021-07-19 22:11:20 GMT 35.635529 -82.669312 9,025 3 273 2048
2021-07-19 22:11:10 GMT 35.622192 -82.670486 8,625 3 270 2688
2021-07-19 22:10:59 GMT 35.609112 -82.670013 8,125 350 274 2368
2021-07-19 22:10:47 GMT 35.595749 -82.663254 7,675 329 276 2304
2021-07-19 22:10:40 GMT 35.587555 -82.653809 7,375 309 277 2112
2021-07-19 22:10:28 GMT 35.580013 -82.639275 6,925 301 274 2368
2021-07-19 22:10:18 GMT 35.573776 -82.626801 6,575 304 272 2432
2021-07-19 22:10:08 GMT 35.566315 -82.613640 6,125 308 271 2368
2021-07-19 22:09:58 GMT 35.558136 -82.601646 5,775 315 267 2112
2021-07-19 22:09:47 GMT 35.548645 -82.591782 5,450 329 260 1728
2021-07-19 22:09:37 GMT 35.537186 -82.585510 5,100 341 251 1856
2021-07-19 22:09:23 GMT 35.522430 -82.579262 4,700 341 239 1920
2021-07-19 22:09:15 GMT 35.509998 -82.575836 4,400 340 231
2021-07-19 22:08:15 GMT 35.457779 -82.552498 2,900 342 159
We lost coverage of the aircraft here for a total of 47 minutes
2021-07-19 21:21:38 GMT 35.450558 -82.548615 2,200 339 136
2021-07-19 21:20:38 GMT 35.418331 -82.533890 2,400 344 146
2021-07-19 21:20:17 GMT 35.405556 -82.529442 2,600 338 147
We lost coverage of the aircraft here for a total of 5 minutes
2021-07-19 21:14:53 GMT 35.428253 -82.328682 5,850 176 237 -320
2021-07-19 21:14:43 GMT 35.439240 -82.330399 5,875 172 245 -1024
2021-07-19 21:14:35 GMT 35.449760 -82.332069 5,975 172 245 -1024
2021-07-19 21:14:21 GMT 35.463684 -82.334351 6,200 171 250 -1152
2021-07-19 21:14:14 GMT 35.472713 -82.335922 6,350 171 252 -1344
2021-07-19 21:14:04 GMT 35.484768 -82.338142 6,600 171 252 -1408
2021-07-19 21:13:53 GMT 35.496780 -82.340370 6,850 171 250 -1344
2021-07-19 21:13:43 GMT 35.508499 -82.342529 7,075 171 249 -1152
2021-07-19 21:13:37 GMT 35.516281 -82.343964 7,200 171 249 -896
2021-07-19 21:13:33 GMT 35.520660 -82.344749 7,275 171 249 -960
2021-07-19 21:13:22 GMT 35.532532 -82.347031 7,425 171 248 -1088
2021-07-19 21:13:11 GMT 35.544662 -82.349396 7,600 170 251 -896
2021-07-19 21:13:05 GMT 35.552032 -82.350822 7,700 170 253 -896
2021-07-19 21:13:02 GMT 35.556461 -82.351707 7,750 170 254 -768
2021-07-19 21:12:51 GMT 35.568420 -82.354088 7,825 170 259 0
2021-07-19 21:12:40 GMT 35.581039 -82.356613 7,825 170 260 -64
2021-07-19 21:12:33 GMT 35.588928 -82.358269 7,825 170 261 0
2021-07-19 21:12:30 GMT 35.593185 -82.359177 7,825 170 261 -64
2021-07-19 21:12:23 GMT 35.602753 -82.361237 7,850 170 261 0
2021-07-19 21:12:19 GMT 35.605900 -82.361870 7,850 169 263 0
2021-07-19 21:12:10 GMT 35.618328 -82.364563 7,850 170 261 0
2021-07-19 21:11:59 GMT 35.630035 -82.367020 7,825 170 258 64
2021-07-19 21:11:48 GMT 35.642956 -82.369705 7,825 170 254 0
2021-07-19 21:11:39 GMT 35.654591 -82.372101 7,850 170 254 -256
2021-07-19 21:11:28 GMT 35.666183 -82.374550 7,875 169 255 -192
2021-07-19 21:11:17 GMT 35.679062 -82.377663 8,000 168 259 -1152
2021-07-19 21:11:08 GMT 35.691101 -82.379608 8,150 181 267 -896
2021-07-19 21:10:57 GMT 35.703609 -82.376945 8,325 198 270 -960
2021-07-19 21:10:47 GMT 35.716042 -82.371979 8,475 199 272 -1024
2021-07-19 21:10:37 GMT 35.728729 -82.366959 8,650 198 271 -832
2021-07-19 21:10:26 GMT 35.741180 -82.362038 8,800 199 271 -896
2021-07-19 21:10:15 GMT 35.753330 -82.356964 8,850 199 272 256
2021-07-19 21:10:06 GMT 35.765579 -82.351913 8,825 199 274 0
2021-07-19 21:09:54 GMT 35.778187 -82.345741 8,800 209 279 -64
2021-07-19 21:09:47 GMT 35.787094 -82.338638 8,825 217 281 -128
2021-07-19 21:09:44 GMT 35.789200 -82.336746 8,825 217 281 -64
2021-07-19 21:09:34 GMT 35.799866 -82.326340 8,850 227 285 -512
2021-07-19 21:09:24 GMT 35.807796 -82.312958 8,900 246 286 64
2021-07-19 21:09:14 GMT 35.811424 -82.295952 9,025 268 288 -1408
2021-07-19 21:09:03 GMT 35.809982 -82.279533 9,250 283 282 -1280
2021-07-19 21:08:52 GMT 35.806824 -82.263512 9,475 285 274 -1472
2021-07-19 21:08:43 GMT 35.803665 -82.248512 9,700 285 269 -1280
2021-07-19 21:08:32 GMT 35.800369 -82.233238 9,925 285 265 -1216
2021-07-19 21:08:21 GMT 35.797276 -82.217819 10,150 284 262 -1536
2021-07-19 21:08:12 GMT 35.794342 -82.202629 10,400 284 264 -1344
2021-07-19 21:08:01 GMT 35.791672 -82.188148 10,650 283 269 -1344
2021-07-19 21:07:50 GMT 35.788651 -82.171844 10,850 283 275 -768
2021-07-19 21:07:41 GMT 35.785904 -82.156219 10,900 281 287 -128
2021-07-19 21:07:30 GMT 35.784073 -82.138428 11,025 273 298 -1344
2021-07-19 21:07:19 GMT 35.783588 -82.120995 11,325 272 303 -1792
2021-07-19 21:07:10 GMT 35.783028 -82.102989 11,675 274 305 -2176
2021-07-19 21:06:59 GMT 35.782333 -82.085152 12,000 270 310 -1728
2021-07-19 21:06:48 GMT 35.784191 -82.067230 12,350 255 315 -2176
2021-07-19 21:06:38 GMT 35.788803 -82.049347 12,725 252 318 -1984
2021-07-19 21:06:28 GMT 35.793777 -82.031075 13,075 252 320 -1984
2021-07-19 21:06:18 GMT 35.798447 -82.013741 13,450 253 321 -2240
2021-07-19 21:06:07 GMT 35.803185 -81.995171 14,000 251 325 -1920
2021-07-19 21:05:56 GMT 35.809799 -81.977287 14,400 236 330 -2496
2021-07-19 21:05:49 GMT 35.816872 -81.965431 14,525 232 332 -2048
2021-07-19 21:05:45 GMT 35.819778 -81.961037 14,625 232 332 -2240
2021-07-19 21:05:36 GMT 35.830048 -81.945389 15,000 231 334 -2304
2021-07-19 21:05:28 GMT 35.836899 -81.935059 15,275 231 335 -2240
2021-07-19 21:05:24 GMT 35.840290 -81.930077 15,400 231 335 -2368
2021-07-19 21:05:15 GMT 35.850723 -81.914352 15,850 232 337 -2432
2021-07-19 21:05:03 GMT 35.860931 -81.898842 16,300 231 337 -2624
2021-07-19 21:04:53 GMT 35.871758 -81.882385 16,775 232 337 -2432
2021-07-19 21:04:43 GMT 35.881348 -81.867714 17,200 232 337 -2688
2021-07-19 21:04:37 GMT 35.887619 -81.858154 17,475 232 337 -2560
2021-07-19 21:04:32 GMT 35.891357 -81.852409 17,625 232 337 -2560
2021-07-19 21:04:23 GMT 35.901970 -81.836281 18,075 232 337 -2560
2021-07-19 21:04:14 GMT 35.910416 -81.823364 18,425 232 337 -2560
2021-07-19 21:04:11 GMT 35.912167 -81.820679 18,525 232 337 -2560
2021-07-19 21:04:00 GMT 35.924515 -81.801796 19,050 232 337 -2624
2021-07-19 21:03:51 GMT 35.932297 -81.789719 19,375 232 337 -2496
2021-07-19 21:03:41 GMT 35.942413 -81.774040 19,825 232 338 -2560
2021-07-19 21:03:33 GMT 35.949268 -81.763527 20,200 231 338 -2560
2021-07-19 21:03:30 GMT 35.952621 -81.758423 20,250 231 338 -2688
2021-07-19 21:03:23 GMT 35.959557 -81.747978 20,625 231 337 -2560
2021-07-19 21:03:20 GMT 35.963287 -81.742348 20,725 232 337 -2560
2021-07-19 21:03:11 GMT 35.971573 -81.729752 21,075 231 337 -2624
2021-07-19 21:03:08 GMT 35.973755 -81.726479 21,175 232 337 -2560
2021-07-19 21:03:02 GMT 35.980038 -81.716949 21,525 232 337 -2432
2021-07-19 21:02:59 GMT 35.983749 -81.711273 21,625 232 337 -2496
2021-07-19 21:02:51 GMT 35.991577 -81.699257 21,950 232 337 -2432
2021-07-19 21:02:45 GMT 35.997215 -81.690598 22,175 232 336 -2560
2021-07-19 21:02:40 GMT 36.001869 -81.683350 22,400 232 337 -2496
2021-07-19 21:02:37 GMT 36.004395 -81.679459 22,500 232 337 -2560
2021-07-19 21:02:29 GMT 36.012020 -81.667747 22,825 232 337 -2560
2021-07-19 21:02:26 GMT 36.014767 -81.663536 22,950 232 337 -2560
2021-07-19 21:02:20 GMT 36.021797 -81.652786 23,250 232 337 -2624
2021-07-19 21:02:16 GMT 36.024765 -81.648270 23,375 232 337 -2624
2021-07-19 21:02:10 GMT 36.030624 -81.639343 23,625 232 336 -2368
2021-07-19 21:02:07 GMT 36.034927 -81.632767 23,825 232 335 -2496
2021-07-19 21:01:59 GMT 36.041885 -81.621948 24,100 232 335 -2368
2021-07-19 21:01:54 GMT 36.045956 -81.615677 24,250 232 336 -1984
2021-07-19 21:01:49 GMT 36.052414 -81.605759 24,450 232 337 -1856
2021-07-19 21:01:45 GMT 36.056107 -81.600014 24,575 232 338 -1920
2021-07-19 21:01:40 GMT 36.060482 -81.593353 24,725 232 340 -2240
2021-07-19 21:01:35 GMT 36.065414 -81.585793 24,925 232 339 -2624
2021-07-19 21:01:28 GMT 36.072876 -81.574287 25,250 232 339 -2560
2021-07-19 21:01:24 GMT 36.076447 -81.568848 25,400 232 339 -2432
2021-07-19 21:01:17 GMT 36.082764 -81.559128 25,650 232 340 -2432
2021-07-19 21:01:14 GMT 36.086132 -81.553970 26,000 232 333 0
2021-07-19 21:01:09 GMT 36.090786 -81.546661 26,000 232 340 -2560
2021-07-19 21:01:04 GMT 36.103867 -81.526276 26,450 232 333 0
2021-07-19 21:00:56 GMT 36.103867 -81.526276 26,800 232 339 -2496
2021-07-19 21:00:52 GMT 36.111282 -81.514664 26,900 232 333 0
2021-07-19 21:00:49 GMT 36.111282 -81.514664 26,900 232 339 -2624
2021-07-19 21:00:46 GMT 36.113037 -81.511948 27,075 232 338 -2688
2021-07-19 21:00:43 GMT 36.116531 -81.506454 27,125 232 338 -2624
2021-07-19 21:00:36 GMT 36.123188 -81.496170 27,425 232 337 -2624
2021-07-19 21:00:32 GMT 36.127098 -81.490150 27,600 232 337 -2624
2021-07-19 21:00:26 GMT 36.133896 -81.479645 28,375 232 336 -2624
2021-07-19 21:00:22 GMT 36.136826 -81.475136 28,050 232 335 -2496
2021-07-19 21:00:15 GMT 36.143764 -81.464325 28,375 232 335 -2560
2021-07-19 21:00:12 GMT 36.146835 -81.459473 28,475 232 335 -2624
2021-07-19 21:00:07 GMT 36.151489 -81.452286 28,700 232 334 -2560
2021-07-19 21:00:03 GMT 36.155682 -81.445740 28,875 232 333 -2560
2021-07-19 21:00:00 GMT 36.157425 -81.443024 28,950 232 333 -2624
2021-07-19 20:59:55 GMT 36.163734 -81.433174 29,300 232 332 -2688
2021-07-19 20:59:50 GMT 36.166992 -81.428146 29,475 232 331 -2624
2021-07-19 20:59:47 GMT 36.171570 -81.420998 29,600 232 330 -2496
2021-07-19 20:59:44 GMT 36.173080 -81.418648 29,975 232 330 -2304
2021-07-19 20:59:38 GMT 36.179214 -81.409203 29,900 232 331 -1920
2021-07-19 20:59:33 GMT 36.183014 -81.403252 30,250 232 335 -1344
2021-07-19 20:59:30 GMT 36.187057 -81.397064 30,175 232 331 -1792
2021-07-19 20:59:24 GMT 36.192993 -81.387863 30,350 232 333 -1536
2021-07-19 20:59:17 GMT 36.198395 -81.379509 30,475 232 336 -1216
2021-07-19 20:59:13 GMT 36.203064 -81.372246 30,650 232 339 -1216
2021-07-19 20:59:09 GMT 36.207584 -81.365273 30,675 232 340 -1280
2021-07-19 20:59:05 GMT 36.211124 -81.359718 30,750 232 342 -1344
2021-07-19 20:59:01 GMT 36.215286 -81.353302 30,850 232 344 -1600
2021-07-19 20:58:57 GMT 36.218292 -81.348679 30,925 232 344 -1536
2021-07-19 20:58:54 GMT 36.221283 -81.344093 31,000 232 345 -1536
2021-07-19 20:58:51 GMT 36.224121 -81.339745 31,125 232 347 -1536
2021-07-19 20:58:47 GMT 36.228149 -81.333565 31,200 232 348 -1600
2021-07-19 20:58:44 GMT 36.232224 -81.327377 31,300 232 351 -1472
2021-07-19 20:58:41 GMT 36.234238 -81.324234 31,350 232 351 -1536
2021-07-19 20:58:37 GMT 36.239799 -81.315834 31,475 231 352 -1664
2021-07-19 20:58:34 GMT 36.242065 -81.312332 31,550 231 354 -1664
2021-07-19 20:58:30 GMT 36.246597 -81.305405 31,675 232 357 -1600
2021-07-19 20:58:24 GMT 36.252411 -81.296539 31,800 232 358 -1600
2021-07-19 20:58:20 GMT 36.256119 -81.290756 31,900 232 359 -1600
2021-07-19 20:58:17 GMT 36.260098 -81.284630 32,000 232 361 -1536
2021-07-19 20:58:13 GMT 36.263447 -81.279488 32,100 232 363 -1536
2021-07-19 20:58:09 GMT 36.268661 -81.271362 32,225 232 367 -1472
2021-07-19 20:58:05 GMT 36.271828 -81.266457 32,300 232 366 -1664
2021-07-19 20:58:01 GMT 36.277176 -81.258263 32,425 232 369 -1536
2021-07-19 20:57:56 GMT 36.282303 -81.250359 32,550 232 370 -1472
2021-07-19 20:57:52 GMT 36.286194 -81.244408 32,650 232 372 -1536
2021-07-19 20:57:48 GMT 36.290909 -81.237083 32,750 232 374 -1600
2021-07-19 20:57:43 GMT 36.296734 -81.228004 32,900 232 377 -1472
2021-07-19 20:57:37 GMT 36.301903 -81.219818 33,075 232 381 -1472
2021-07-19 20:57:34 GMT 36.305145 -81.214661 33,100 232 381 -1536
2021-07-19 20:57:30 GMT 36.311069 -81.205383 33,225 232 385 -1536
2021-07-19 20:57:26 GMT 36.314850 -81.199554 33,300 232 385 -1408
2021-07-19 20:57:23 GMT 36.318195 -81.194344 33,400 232 390 -1408
2021-07-19 20:57:19 GMT 36.322495 -81.187759 33,475 232 391 -1408
2021-07-19 20:57:15 GMT 36.327271 -81.180435 33,775 232 398 -320
2021-07-19 20:57:12 GMT 36.330688 -81.175179 33,650 232 395 -1344
2021-07-19 20:57:08 GMT 36.334160 -81.169853 33,700 232 396 -1216
2021-07-19 20:57:04 GMT 36.340584 -81.159920 33,825 232 396 -1280
2021-07-19 20:56:59 GMT 36.345840 -81.151772 33,925 232 397 -832
2021-07-19 20:56:55 GMT 36.350372 -81.144623 33,975 232 398 -320
2021-07-19 20:56:51 GMT 36.354691 -81.137833 34,000 232 398 0
2021-07-19 20:56:45 GMT 36.360603 -81.128540 34,000 232 397 0
2021-07-19 20:56:42 GMT 36.364281 -81.122810 34,000 232 397 -128
2021-07-19 20:56:39 GMT 36.367958 -81.117088 34,000 232 397 128
2021-07-19 20:56:35 GMT 36.372055 -81.110657 34,000 232 397 -64
2021-07-19 20:56:30 GMT 36.378250 -81.101021 34,000 232 397 -64
2021-07-19 20:56:27 GMT 36.382111 -81.094940 34,000 232 397 -64
2021-07-19 20:56:23 GMT 36.385529 -81.089577 34,000 232 397 128
2021-07-19 20:56:19 GMT 36.391479 -81.080299 34,000 232 397 0
2021-07-19 20:56:15 GMT 36.395844 -81.073494 34,000 232 398 -64
2021-07-19 20:56:11 GMT 36.400452 -81.066360 34,000 232 398 64
2021-07-19 20:56:08 GMT 36.402733 -81.062798 34,000 232 397 0
2021-07-19 20:56:04 GMT 36.411667 -81.048889 34,000 232 397 -128
2021-07-19 20:55:58 GMT 36.415535 -81.042809 34,000 232 397 64
2021-07-19 20:55:51 GMT 36.423309 -81.030655 34,000 232 397 0
2021-07-19 20:55:48 GMT 36.426178 -81.026176 34,000 232 397 64
2021-07-19 20:55:42 GMT 36.434250 -81.013596 34,000 232 397 64
2021-07-19 20:55:38 GMT 36.438629 -81.006721 34,000 232 398 -64
2021-07-19 20:55:35 GMT 36.442024 -81.001320 34,000 232 398 -64
2021-07-19 20:55:30 GMT 36.450485 -80.988007 34,000 232 398 64
2021-07-19 20:55:27 GMT 36.450485 -80.988007 34,000 232 398 -64
2021-07-19 20:55:23 GMT 36.459389 -80.974030 34,000 232 398 -128
2021-07-19 20:55:20 GMT 36.459389 -80.974030 34,000 232 397 -128
2021-07-19 20:55:16 GMT 36.463062 -80.968300 34,000 232 398 0
2021-07-19 20:55:13 GMT 36.467159 -80.961876 34,000 232 397 0
2021-07-19 20:55:10 GMT 36.469440 -80.958313 34,000 232 397 64
2021-07-19 20:55:05 GMT 36.476074 -80.947891 34,000 232 397 64
2021-07-19 20:55:00 GMT 36.480427 -80.941132 34,000 232 398 192
2021-07-19 20:54:56 GMT 36.486603 -80.931419 34,000 232 398 128
2021-07-19 20:54:50 GMT 36.492348 -80.922485 34,000 232 398 -64
2021-07-19 20:54:47 GMT 36.496216 -80.916367 34,000 232 398 64
2021-07-19 20:54:44 GMT 36.498722 -80.912437 34,000 232 398 -192
2021-07-19 20:54:40 GMT 36.504215 -80.903786 34,000 232 398 -192
2021-07-19 20:54:36 GMT 36.508072 -80.897713 34,000 232 398 -64
2021-07-19 20:54:33 GMT 36.512409 -80.890877 34,000 232 397 0
2021-07-19 20:54:29 GMT 36.516972 -80.883682 34,000 232 398 -64
2021-07-19 20:54:24 GMT 36.522217 -80.875458 34,000 232 397 0
2021-07-19 20:54:20 GMT 36.526337 -80.868988 34,000 232 397 128
2021-07-19 20:54:16 GMT 36.531124 -80.861481 34,000 232 397 64
2021-07-19 20:54:11 GMT 36.537735 -80.851135 34,000 232 397 64
2021-07-19 20:54:06 GMT 36.542530 -80.843597 34,000 232 397 -64
2021-07-19 20:54:02 GMT 36.547047 -80.836411 34,000 232 396 0
2021-07-19 20:53:58 GMT 36.551834 -80.828873 34,000 232 397 -64
2021-07-19 20:53:55 GMT 36.554993 -80.823898 34,000 232 396 0
2021-07-19 20:53:51 GMT 36.559570 -80.816689 34,000 232 397 0
2021-07-19 20:53:48 GMT 36.563431 -80.810638 34,000 232 397 -64
2021-07-19 20:53:45 GMT 36.567261 -80.804558 34,000 232 396 64
2021-07-19 20:53:41 GMT 36.571579 -80.797722 34,000 232 396 -64
2021-07-19 20:53:38 GMT 36.575455 -80.791679 34,000 232 396 64
2021-07-19 20:53:35 GMT 36.578156 -80.787331 34,000 232 396 64
2021-07-19 20:53:32 GMT 36.581539 -80.782005 34,000 232 396 -64
2021-07-19 20:53:29 GMT 36.584930 -80.776634 34,000 232 396 64
2021-07-19 20:53:25 GMT 36.590332 -80.768051 34,000 232 396 256
2021-07-19 20:53:22 GMT 36.593994 -80.762329 34,000 232 395 -128
2021-07-19 20:53:19 GMT 36.597412 -80.756935 34,000 232 395 -192
2021-07-19 20:53:14 GMT 36.601929 -80.749802 34,000 232 396 -64
2021-07-19 20:53:11 GMT 36.606491 -80.742676 34,000 232 396 128
2021-07-19 20:53:05 GMT 36.612167 -80.733772 34,000 232 396 0
2021-07-19 20:53:01 GMT 36.616455 -80.727074 34,000 232 396 -128
2021-07-19 20:52:58 GMT 36.620132 -80.721283 34,000 232 396 0
2021-07-19 20:52:52 GMT 36.626266 -80.711632 34,000 232 396 128
2021-07-19 20:52:49 GMT 36.629677 -80.706268 34,000 232 396 64
2021-07-19 20:52:45 GMT 36.635376 -80.697327 34,000 232 395 0
2021-07-19 20:52:42 GMT 36.638077 -80.693092 34,000 232 395 0
2021-07-19 20:52:38 GMT 36.643314 -80.684822 34,000 232 395 -128
2021-07-19 20:52:34 GMT 36.650112 -80.674065 34,000 232 396 64
2021-07-19 20:52:31 GMT 36.650112 -80.674065 34,000 232 396 64
2021-07-19 20:52:28 GMT 36.653278 -80.669044 34,000 232 396 64
2021-07-19 20:52:25 GMT 36.657791 -80.661911 34,000 232 396 -64
2021-07-19 20:52:21 GMT 36.661194 -80.656525 34,000 232 396 64
2021-07-19 20:52:18 GMT 36.664543 -80.651161 34,000 232 396 64
2021-07-19 20:52:14 GMT 36.669525 -80.643272 34,000 232 396 128
2021-07-19 20:52:09 GMT 36.676739 -80.631821 34,000 232 396 0
2021-07-19 20:52:04 GMT 36.681015 -80.625053 34,000 232 395 -64
2021-07-19 20:52:01 GMT 36.684677 -80.619278 34,000 232 395 -128
2021-07-19 20:51:58 GMT 36.688049 -80.613876 34,000 232 395 -128
2021-07-19 20:51:50 GMT 36.698227 -80.597816 34,000 233 395 64
2021-07-19 20:51:47 GMT 36.700249 -80.594589 34,000 233 395 128
2021-07-19 20:51:40 GMT 36.708023 -80.582085 34,000 233 395 -64
2021-07-19 20:51:37 GMT 36.712818 -80.574432 34,000 233 395 0
2021-07-19 20:51:33 GMT 36.715256 -80.570473 34,000 233 395 0
2021-07-19 20:51:29 GMT 36.720406 -80.562279 34,000 233 395 128
2021-07-19 20:51:25 GMT 36.724228 -80.556107 34,000 232 396 -128
2021-07-19 20:51:20 GMT 36.729855 -80.547142 34,000 232 396 -128
2021-07-19 20:51:16 GMT 36.734573 -80.539574 34,000 232 395 0
2021-07-19 20:51:06 GMT 36.746384 -80.521027 34,000 232 395 64
2021-07-19 20:50:57 GMT 36.755997 -80.506042 34,000 232 395 64
2021-07-19 20:50:54 GMT 36.760529 -80.498886 34,000 232 395 0
2021-07-19 20:50:48 GMT 36.767563 -80.487823 34,000 232 395 0
2021-07-19 20:50:43 GMT 36.771881 -80.480972 34,000 232 396 128
2021-07-19 20:50:34 GMT 36.782684 -80.463753 34,000 233 395 -192
2021-07-19 20:50:30 GMT 36.786301 -80.458031 34,000 233 395 -64
2021-07-19 20:50:25 GMT 36.793945 -80.445847 34,000 233 394 -64
2021-07-19 20:50:14 GMT 36.805317 -80.427574 34,000 233 393 128
2021-07-19 20:50:03 GMT 36.826733 -80.393333 34,000 233 391 192
2021-07-19 20:49:55 GMT 36.826733 -80.393333 34,000 233 392 -64
2021-07-19 20:49:49 GMT 36.834320 -80.381180 34,000 233 392 128
2021-07-19 20:49:42 GMT 36.841232 -80.370087 33,975 233 393 0
2021-07-19 20:49:37 GMT 36.845673 -80.362930 34,000 233 394 128
2021-07-19 20:49:31 GMT 36.853497 -80.350418 34,000 233 394 -128
2021-07-19 20:49:28 GMT 36.857300 -80.344299 34,000 233 393 -64
2021-07-19 20:49:21 GMT 36.864487 -80.332909 33,975 232 395 0
2021-07-19 20:49:16 GMT 36.869652 -80.324631 34,000 233 394 64
2021-07-19 20:49:10 GMT 36.876404 -80.313881 34,000 232 394 64
2021-07-19 20:49:03 GMT 36.885544 -80.299362 33,975 232 395 128
2021-07-19 20:48:55 GMT 36.893372 -80.286980 33,975 232 396 -64
2021-07-19 20:48:49 GMT 36.902023 -80.273361 34,000 232 396 -128
2021-07-19 20:48:45 GMT 36.904984 -80.268684 34,000 233 396 64
2021-07-19 20:48:36 GMT 36.915573 -80.251740 34,000 233 396 64
2021-07-19 20:48:31 GMT 36.923676 -80.238708 34,000 233 395 -256
2021-07-19 20:48:28 GMT 36.923676 -80.238708 34,000 233 395 -320
2021-07-19 20:48:25 GMT 36.927471 -80.232559 34,025 233 394 -256
2021-07-19 20:48:20 GMT 36.932358 -80.224678 34,025 233 393 -128
2021-07-19 20:48:14 GMT 36.939651 -80.212761 34,050 233 393 -128
2021-07-19 20:48:11 GMT 36.942551 -80.208138 34,050 233 393 -384
2021-07-19 20:48:07 GMT 36.950592 -80.194992 34,150 233 390 -1088
2021-07-19 20:48:04 GMT 36.950592 -80.194992 34,150 233 390 -1088
2021-07-19 20:48:01 GMT 36.953339 -80.190552 34,275 233 390 -1024
2021-07-19 20:47:57 GMT 36.957779 -80.183365 34,250 233 390 -1024
2021-07-19 20:47:54 GMT 36.961964 -80.176613 34,325 233 389 -960
2021-07-19 20:47:50 GMT 36.967026 -80.168465 34,400 232 389 -1024
2021-07-19 20:47:47 GMT 36.970184 -80.163498 34,425 232 388 -960
2021-07-19 20:47:44 GMT 36.973709 -80.157883 34,475 232 388 -896
2021-07-19 20:47:41 GMT 36.976070 -80.154160 34,525 232 388 -1024
2021-07-19 20:47:36 GMT 36.981308 -80.145905 34,600 232 387 -1024
2021-07-19 20:47:33 GMT 36.985100 -80.139954 34,650 232 388 -1024
2021-07-19 20:47:29 GMT 36.989059 -80.133621 34,750 233 388 -1088
2021-07-19 20:47:26 GMT 36.993301 -80.126915 34,775 233 388 -1024
2021-07-19 20:47:23 GMT 36.996601 -80.121620 34,825 233 387 -1088
2021-07-19 20:47:20 GMT 36.999023 -80.117737 34,875 233 388 -1024
2021-07-19 20:47:15 GMT 37.004513 -80.108902 34,975 233 388 -1024
2021-07-19 20:47:10 GMT 37.016647 -80.089394 35,125 233 388 -1024
2021-07-19 20:47:05 GMT 37.016647 -80.089394 35,150 233 389 -1024
2021-07-19 20:47:00 GMT 37.022202 -80.080544 35,225 233 389 -960
2021-07-19 20:46:54 GMT 37.027512 -80.071999 35,300 233 390 -1024
2021-07-19 20:46:48 GMT 37.036102 -80.058014 35,525 233 392 -896
2021-07-19 20:46:45 GMT 37.039429 -80.052658 35,500 233 392 -896
2021-07-19 20:46:36 GMT 37.047386 -80.039757 35,600 233 392 -832
2021-07-19 20:46:33 GMT 37.050705 -80.034348 35,650 233 394 -1088
2021-07-19 20:46:29 GMT 37.056744 -80.024651 35,750 233 394 -1024
2021-07-19 20:46:23 GMT 37.063705 -80.013542 35,850 233 394 -896
2021-07-19 20:46:18 GMT 37.068192 -80.006355 35,925 233 394 -896
2021-07-19 20:46:15 GMT 37.071548 -80.000946 35,975 233 394 -640
2021-07-19 20:46:11 GMT 37.075600 -79.994438 36,000 233 395 -448
2021-07-19 20:46:07 GMT 37.080322 -79.986839 36,000 233 395 -64
2021-07-19 20:46:04 GMT 37.083652 -79.981422 36,000 233 395 64
2021-07-19 20:45:56 GMT 37.093987 -79.964828 36,000 233 396 64
2021-07-19 20:45:51 GMT 37.098038 -79.958260 36,000 233 396 64
2021-07-19 20:45:48 GMT 37.101154 -79.953178 36,000 233 396 64
2021-07-19 20:45:44 GMT 37.106510 -79.944466 36,000 233 395 -64
2021-07-19 20:45:41 GMT 37.109436 -79.939735 36,000 233 395 0
2021-07-19 20:45:36 GMT 37.114792 -79.931030 36,000 233 395 128
2021-07-19 20:45:32 GMT 37.120148 -79.922325 36,000 233 395 0
2021-07-19 20:45:27 GMT 37.126156 -79.912521 36,000 233 395 -192
2021-07-19 20:45:23 GMT 37.130402 -79.905609 36,000 233 395 0
2021-07-19 20:45:20 GMT 37.132645 -79.901985 36,000 233 396 0
2021-07-19 20:45:15 GMT 37.138260 -79.892876 36,000 233 396 0
2021-07-19 20:45:11 GMT 37.143612 -79.884216 36,000 233 396 -64
2021-07-19 20:45:04 GMT 37.157318 -79.862129 36,000 233 395 64
2021-07-19 20:44:58 GMT 37.157318 -79.862129 36,000 233 395 -128
2021-07-19 20:44:55 GMT 37.161579 -79.855263 36,000 233 395 -128
2021-07-19 20:44:52 GMT 37.164917 -79.849800 36,000 233 395 64
2021-07-19 20:44:49 GMT 37.167160 -79.846176 36,000 233 395 -64
2021-07-19 20:44:40 GMT 37.179245 -79.826660 36,000 233 395 64
2021-07-19 20:44:34 GMT 37.183971 -79.819077 36,000 233 395 -192
2021-07-19 20:44:31 GMT 37.187347 -79.813629 36,000 233 395 64
2021-07-19 20:44:28 GMT 37.190678 -79.808212 36,000 233 395 -192
2021-07-19 20:44:22 GMT 37.198517 -79.795509 36,000 233 395 0
2021-07-19 20:44:18 GMT 37.203197 -79.787910 36,000 233 395 -64
2021-07-19 20:44:12 GMT 37.209229 -79.778160 36,000 233 394 0
2021-07-19 20:44:07 GMT 37.220444 -79.760040 36,000 233 394 -128
2021-07-19 20:44:03 GMT 37.222889 -79.756088 36,000 233 394 -64
2021-07-19 20:43:52 GMT 37.231567 -79.742043 36,000 233 393 0
2021-07-19 20:43:46 GMT 37.237793 -79.731934 36,000 233 393 0
2021-07-19 20:43:42 GMT 37.242489 -79.724319 36,000 233 393 64
2021-07-19 20:43:39 GMT 37.246029 -79.718590 36,000 233 392 64
2021-07-19 20:43:35 GMT 37.250031 -79.712082 36,000 233 392 -128
2021-07-19 20:43:31 GMT 37.254684 -79.704529 36,000 233 392 -128
2021-07-19 20:43:28 GMT 37.257526 -79.699837 36,000 233 392 -64
2021-07-19 20:43:25 GMT 37.261948 -79.692612 36,000 233 391 -128
2021-07-19 20:43:22 GMT 37.264603 -79.688316 36,000 233 391 -64
2021-07-19 20:43:19 GMT 37.268784 -79.681503 36,025 233 389 -64
2021-07-19 20:43:11 GMT 37.277775 -79.666763 36,000 233 389 128
2021-07-19 20:43:06 GMT 37.282791 -79.658531 36,000 233 388 64
2021-07-19 20:43:01 GMT 37.287186 -79.651405 36,000 233 387 0
2021-07-19 20:42:58 GMT 37.290665 -79.645676 36,000 233 387 64
2021-07-19 20:42:55 GMT 37.295059 -79.638603 36,000 233 386 0
2021-07-19 20:42:48 GMT 37.303391 -79.625107 36,000 233 385 -64
2021-07-19 20:42:44 GMT 37.306870 -79.619438 36,000 233 385 -64
2021-07-19 20:42:38 GMT 37.312737 -79.609856 36,000 233 385 -64
2021-07-19 20:42:33 GMT 37.318417 -79.600601 36,000 233 386 -128
2021-07-19 20:42:27 GMT 37.324467 -79.590691 36,000 233 386 0
2021-07-19 20:42:18 GMT 37.334011 -79.574989 36,000 233 386 0
2021-07-19 20:42:15 GMT 37.337921 -79.568604 36,000 233 388 64
2021-07-19 20:42:09 GMT 37.345322 -79.556480 36,000 233 388 128
2021-07-19 20:42:06 GMT 37.347092 -79.553612 36,000 233 388 64
2021-07-19 20:42:02 GMT 37.351467 -79.546387 35,975 233 390 256
2021-07-19 20:41:58 GMT 37.356262 -79.538506 35,975 233 393 -64
2021-07-19 20:41:54 GMT 37.360886 -79.530846 35,975 233 393 -64
2021-07-19 20:41:47 GMT 37.369530 -79.516594 36,000 233 398 -256
2021-07-19 20:41:38 GMT 37.378887 -79.501068 36,025 233 402 64
2021-07-19 20:41:35 GMT 37.381348 -79.496956 36,025 233 403 64
2021-07-19 20:41:32 GMT 37.386101 -79.489128 36,000 233 404 256
2021-07-19 20:41:25 GMT 37.392899 -79.477905 36,000 233 404 64
2021-07-19 20:41:21 GMT 37.397881 -79.469666 36,000 233 404 -192
2021-07-19 20:41:16 GMT 37.403091 -79.461075 36,000 233 404 -64
2021-07-19 20:41:10 GMT 37.414948 -79.441727 36,000 233 405 64
2021-07-19 20:41:07 GMT 37.414948 -79.441727 36,000 233 405 128
2021-07-19 20:40:59 GMT 37.423485 -79.427986 36,000 233 405 -64
2021-07-19 20:40:56 GMT 37.426025 -79.423851 36,000 233 405 -64
2021-07-19 20:40:51 GMT 37.432892 -79.412689 36,000 233 405 0
2021-07-19 20:40:48 GMT 37.434937 -79.409302 36,000 233 405 -64
2021-07-19 20:40:45 GMT 37.438339 -79.403687 36,000 233 406 -128
2021-07-19 20:40:39 GMT 37.446075 -79.390945 36,000 233 406 64
2021-07-19 20:40:35 GMT 37.451065 -79.382706 36,000 233 406 64
2021-07-19 20:40:27 GMT 37.459259 -79.369270 36,000 233 405 -128
2021-07-19 20:40:24 GMT 37.462681 -79.363625 36,000 233 405 -64
2021-07-19 20:40:21 GMT 37.466312 -79.357651 36,000 233 405 64
2021-07-19 20:40:18 GMT 37.469990 -79.351685 36,000 233 405 -64
2021-07-19 20:40:14 GMT 37.473621 -79.345650 36,000 233 404 0
2021-07-19 20:40:05 GMT 37.485214 -79.326607 36,000 233 404 0
2021-07-19 20:39:56 GMT 37.494736 -79.310890 36,000 233 405 0
2021-07-19 20:39:52 GMT 37.498856 -79.304169 36,000 233 405 128
2021-07-19 20:39:46 GMT 37.506592 -79.291489 36,000 233 404 -192
2021-07-19 20:39:43 GMT 37.508835 -79.287743 36,000 233 403 64
2021-07-19 20:39:33 GMT 37.520142 -79.269104 36,000 233 403 128
2021-07-19 20:39:29 GMT 37.525341 -79.260506 36,000 233 403 64
2021-07-19 20:39:23 GMT 37.531906 -79.249702 36,000 233 402 64
2021-07-19 20:39:15 GMT 37.544334 -79.229279 36,000 233 401 -256
2021-07-19 20:39:12 GMT 37.555847 -79.210434 36,000 233 401 -192
2021-07-19 20:39:03 GMT 37.555847 -79.210434 36,000 233 400 0
2021-07-19 20:38:57 GMT 37.560791 -79.202309 36,000 233 400 192
2021-07-19 20:38:54 GMT 37.565689 -79.194130 36,000 233 399 64
2021-07-19 20:38:47 GMT 37.579712 -79.170761 36,000 233 397 -64
2021-07-19 20:38:41 GMT 37.579712 -79.170761 36,000 234 398 -128
2021-07-19 20:38:34 GMT 37.586323 -79.159660 36,000 234 397 -128
2021-07-19 20:38:31 GMT 37.590328 -79.152969 36,000 234 397 64
2021-07-19 20:38:26 GMT 37.595215 -79.144852 36,000 233 397 -64
2021-07-19 20:38:20 GMT 37.602291 -79.133087 36,000 233 396 128
2021-07-19 20:38:17 GMT 37.607178 -79.125031 36,000 233 395 -64
2021-07-19 20:38:11 GMT 37.613205 -79.115120 36,000 233 395 -128
2021-07-19 20:38:02 GMT 37.623001 -79.099052 36,000 233 394 -64
2021-07-19 20:37:59 GMT 37.625008 -79.095772 36,000 233 394 128
2021-07-19 20:37:50 GMT 37.636459 -79.076782 36,000 233 394 -192
2021-07-19 20:37:44 GMT 37.642868 -79.066147 36,000 233 394 -64
2021-07-19 20:37:39 GMT 37.647720 -79.058144 36,000 233 394 -128
2021-07-19 20:37:28 GMT 37.659409 -79.038750 36,000 233 394 128
2021-07-19 20:37:24 GMT 37.663788 -79.031403 36,000 233 394 0
2021-07-19 20:37:15 GMT 37.680313 -79.003914 36,000 234 395 128
2021-07-19 20:37:07 GMT 37.682510 -79.000229 36,000 234 395 -192
2021-07-19 20:37:03 GMT 37.686691 -78.993256 36,000 234 395 -128
2021-07-19 20:36:58 GMT 37.694183 -78.980713 36,000 233 397 0
2021-07-19 20:36:54 GMT 37.696838 -78.976295 35,975 233 397 192
2021-07-19 20:36:47 GMT 37.705265 -78.962204 35,975 233 398 64
2021-07-19 20:36:37 GMT 37.720394 -78.937004 36,000 233 399 -128
2021-07-19 20:36:26 GMT 37.741390 -78.902077 36,000 233 400 -192
2021-07-19 20:36:15 GMT 37.741390 -78.902077 36,000 233 401 -64
2021-07-19 20:36:06 GMT 37.751495 -78.885284 36,000 233 401 -192
2021-07-19 20:35:55 GMT 37.762989 -78.866310 36,000 233 401 0
2021-07-19 20:35:50 GMT 37.769485 -78.855476 36,000 233 401 0
2021-07-19 20:35:44 GMT 37.775047 -78.846130 36,000 234 400 0
2021-07-19 20:35:39 GMT 37.780399 -78.837173 36,000 233 401 -64
2021-07-19 20:35:36 GMT 37.788452 -78.823738 36,000 234 400 0
2021-07-19 20:35:32 GMT 37.788452 -78.823738 36,000 234 400 -128
2021-07-19 20:35:27 GMT 37.796970 -78.809586 36,000 233 400 128
2021-07-19 20:35:25 GMT 37.796970 -78.809586 36,000 233 400 128
2021-07-19 20:35:22 GMT 37.799881 -78.804756 36,000 233 400 128
2021-07-19 20:35:14 GMT 37.808563 -78.790245 36,000 234 400 -64
2021-07-19 20:35:02 GMT 37.821716 -78.768234 36,000 234 400 64
2021-07-19 20:35:01 GMT 37.822807 -78.766357 36,000 234 400 64
2021-07-19 20:34:54 GMT 37.831924 -78.751053 36,000 234 399 64
2021-07-19 20:34:51 GMT 37.834122 -78.747314 36,000 234 399 0
2021-07-19 20:34:43 GMT 37.843460 -78.731651 36,000 234 400 -64
2021-07-19 20:34:34 GMT 37.855042 -78.712250 36,000 234 399 0
2021-07-19 20:34:26 GMT 37.863464 -78.698105 36,000 234 399 -64
2021-07-19 20:34:23 GMT 37.865707 -78.694427 36,000 234 399 -64
2021-07-19 20:34:20 GMT 37.869034 -78.688858 36,000 234 399 64
2021-07-19 20:34:13 GMT 37.876575 -78.676201 36,000 234 399 64
2021-07-19 20:34:10 GMT 37.889648 -78.654160 36,000 234 399 -128
2021-07-19 20:34:02 GMT 37.889648 -78.654160 36,000 234 398 -128
2021-07-19 20:33:52 GMT 37.900269 -78.636276 36,000 234 399 64
2021-07-19 20:33:42 GMT 37.910748 -78.618759 36,000 234 399 64
2021-07-19 20:33:37 GMT 37.916519 -78.609146 36,000 233 399 64
2021-07-19 20:33:32 GMT 37.923641 -78.597206 36,000 233 399 0
2021-07-19 20:33:27 GMT 37.927414 -78.590874 36,000 234 399 0
2021-07-19 20:33:21 GMT 37.933884 -78.580070 36,000 234 399 -64
2021-07-19 20:33:17 GMT 37.939865 -78.570007 36,000 234 399 -64
2021-07-19 20:33:10 GMT 37.947197 -78.557739 36,000 234 399 -128
2021-07-19 20:33:04 GMT 37.953434 -78.547287 36,000 233 399 -64
2021-07-19 20:33:01 GMT 37.957626 -78.540146 36,000 234 399 128
2021-07-19 20:32:49 GMT 37.969772 -78.519646 36,000 234 399 -128
2021-07-19 20:32:40 GMT 37.980103 -78.502045 36,000 234 398 64
2021-07-19 20:32:36 GMT 37.984497 -78.494568 36,000 234 398 0
2021-07-19 20:32:30 GMT 37.994820 -78.476952 36,000 234 399 0
2021-07-19 20:32:26 GMT 37.994820 -78.476952 36,000 234 399 -64
2021-07-19 20:32:19 GMT 38.003403 -78.462311 36,000 234 399 -64
2021-07-19 20:32:16 GMT 38.006645 -78.456650 36,000 234 398 -64
2021-07-19 20:32:10 GMT 38.013016 -78.445831 36,000 234 398 128
2021-07-19 20:32:07 GMT 38.015671 -78.441330 36,000 234 399 64
2021-07-19 20:31:59 GMT 38.024708 -78.426025 36,000 234 399 64
2021-07-19 20:31:55 GMT 38.029594 -78.417786 36,000 233 399 -192
2021-07-19 20:31:50 GMT 38.034714 -78.409248 36,000 233 399 -64
2021-07-19 20:31:47 GMT 38.039200 -78.401825 36,000 233 399 -64
2021-07-19 20:31:44 GMT 38.042068 -78.397003 36,000 233 398 -64
2021-07-19 20:31:41 GMT 38.044769 -78.392525 36,000 233 398 -64
2021-07-19 20:31:38 GMT 38.049191 -78.385063 36,000 234 398 64
2021-07-19 20:31:35 GMT 38.051426 -78.381363 36,000 233 397 64
2021-07-19 20:31:30 GMT 38.056686 -78.372406 36,000 234 398 64
2021-07-19 20:31:27 GMT 38.060440 -78.366005 36,000 234 398 0
2021-07-19 20:31:23 GMT 38.064377 -78.359283 36,000 234 398 -64
2021-07-19 20:31:21 GMT 38.067902 -78.353264 36,000 234 397 0
2021-07-19 20:31:14 GMT 38.074493 -78.342102 36,000 234 397 -128
2021-07-19 20:31:12 GMT 38.076691 -78.338364 36,000 234 397 64
2021-07-19 20:31:10 GMT 38.078888 -78.334679 36,000 233 397 64
2021-07-19 20:31:03 GMT 38.086395 -78.321999 36,000 234 395 128
2021-07-19 20:30:57 GMT 38.093491 -78.310135 36,000 234 397 -64
2021-07-19 20:30:54 GMT 38.096558 -78.304939 36,000 234 396 -192
2021-07-19 20:30:51 GMT 38.100494 -78.298218 36,000 234 396 -128
2021-07-19 20:30:45 GMT 38.106869 -78.287498 36,000 234 396 0
2021-07-19 20:30:42 GMT 38.111938 -78.278931 36,000 234 394 -128
2021-07-19 20:30:40 GMT 38.111938 -78.278931 36,000 234 395 64
2021-07-19 20:30:35 GMT 38.118530 -78.267830 36,000 234 395 0
2021-07-19 20:30:32 GMT 38.120682 -78.264091 36,000 234 395 0
2021-07-19 20:30:27 GMT 38.127228 -78.252930 36,000 234 394 -64
2021-07-19 20:30:21 GMT 38.133125 -78.242897 36,000 234 394 64
2021-07-19 20:30:16 GMT 38.138580 -78.233643 36,000 234 394 -64
2021-07-19 20:30:11 GMT 38.144020 -78.224327 36,000 234 394 -128
2021-07-19 20:30:07 GMT 38.148769 -78.216148 36,000 234 394 64
2021-07-19 20:30:04 GMT 38.152039 -78.210564 36,000 234 395 -64
2021-07-19 20:30:01 GMT 38.156590 -78.202713 36,000 234 395 0
2021-07-19 20:29:55 GMT 38.161102 -78.194901 36,000 234 395 -64
2021-07-19 20:29:51 GMT 38.165199 -78.187790 36,000 234 394 0
2021-07-19 20:29:48 GMT 38.168427 -78.182159 36,000 235 395 64
2021-07-19 20:29:45 GMT 38.171448 -78.176903 36,000 235 395 0
2021-07-19 20:29:41 GMT 38.175751 -78.169418 36,000 234 395 64
2021-07-19 20:29:35 GMT 38.183308 -78.156319 36,000 234 395 -64
2021-07-19 20:29:30 GMT 38.188568 -78.147423 36,000 234 395 0
2021-07-19 20:29:25 GMT 38.197632 -78.132256 36,000 233 396 0
2021-07-19 20:29:22 GMT 38.197632 -78.132256 36,000 234 395 0
2021-07-19 20:29:19 GMT 38.200485 -78.127419 36,000 234 395 0
2021-07-19 20:29:15 GMT 38.205139 -78.119629 36,000 234 395 64
2021-07-19 20:29:11 GMT 38.210358 -78.110687 36,000 234 396 64
2021-07-19 20:29:08 GMT 38.212967 -78.106247 36,000 234 395 128
2021-07-19 20:29:03 GMT 38.217773 -78.098007 36,000 234 395 0
2021-07-19 20:29:00 GMT 38.221481 -78.091660 36,000 234 396 -128
2021-07-19 20:28:55 GMT 38.226471 -78.083107 36,000 234 395 -64
2021-07-19 20:28:52 GMT 38.228836 -78.078995 36,000 234 395 -64
2021-07-19 20:28:48 GMT 38.237961 -78.063293 36,000 234 399 -64
2021-07-19 20:28:45 GMT 38.237961 -78.063293 36,000 234 395 0
2021-07-19 20:28:41 GMT 38.241211 -78.057686 36,000 234 395 128
2021-07-19 20:28:38 GMT 38.246017 -78.049507 36,000 234 395 64
2021-07-19 20:28:32 GMT 38.251041 -78.040901 36,000 234 395 64
2021-07-19 20:28:28 GMT 38.256042 -78.032326 36,000 234 395 64
2021-07-19 20:28:22 GMT 38.266113 -78.015205 36,000 234 395 128
2021-07-19 20:28:19 GMT 38.266113 -78.015205 36,000 234 395 0
2021-07-19 20:28:13 GMT 38.272877 -78.003647 36,000 234 395 0
2021-07-19 20:28:09 GMT 38.276367 -77.997673 36,000 234 395 128
2021-07-19 20:28:06 GMT 38.279205 -77.992821 36,000 234 395 0
2021-07-19 20:28:00 GMT 38.289448 -77.975288 36,000 234 396 0
2021-07-19 20:27:57 GMT 38.289448 -77.975288 36,000 234 395 128
2021-07-19 20:27:50 GMT 38.297928 -77.960739 36,000 234 395 -64
2021-07-19 20:27:47 GMT 38.300343 -77.956657 36,000 234 396 -64
2021-07-19 20:27:42 GMT 38.306625 -77.945778 36,000 234 395 64
2021-07-19 20:27:39 GMT 38.309692 -77.940575 36,000 234 396 0
2021-07-19 20:27:36 GMT 38.312958 -77.934921 36,000 234 396 0
2021-07-19 20:27:34 GMT 38.314262 -77.932716 36,000 234 396 -64
2021-07-19 20:27:29 GMT 38.320358 -77.922203 36,000 234 396 0
2021-07-19 20:27:26 GMT 38.324020 -77.915855 36,000 234 396 0
2021-07-19 20:27:22 GMT 38.328369 -77.908318 36,000 234 396 64
2021-07-19 20:27:18 GMT 38.332718 -77.900841 36,000 234 397 64
2021-07-19 20:27:15 GMT 38.336002 -77.895218 36,000 234 397 0
2021-07-19 20:27:11 GMT 38.339676 -77.888802 36,000 234 397 0
2021-07-19 20:27:07 GMT 38.343613 -77.882019 36,000 234 398 -64
2021-07-19 20:27:04 GMT 38.346893 -77.876350 36,000 234 398 0
2021-07-19 20:27:00 GMT 38.351688 -77.868111 36,000 234 399 64
2021-07-19 20:26:57 GMT 38.354298 -77.863571 36,000 234 398 -64
2021-07-19 20:26:53 GMT 38.360023 -77.853775 36,000 234 398 -64
2021-07-19 20:26:51 GMT 38.362255 -77.850014 36,000 234 398 64
2021-07-19 20:26:48 GMT 38.365330 -77.844765 36,000 234 399 -64
2021-07-19 20:26:45 GMT 38.368607 -77.839127 36,000 234 398 -128
2021-07-19 20:26:43 GMT 38.369751 -77.837242 36,000 234 399 0
2021-07-19 20:26:41 GMT 38.372822 -77.831985 36,000 234 399 -64
2021-07-19 20:26:37 GMT 38.377197 -77.824402 36,000 234 399 -64
2021-07-19 20:26:34 GMT 38.380051 -77.819496 36,000 234 399 -64
2021-07-19 20:26:32 GMT 38.381622 -77.816879 36,000 234 399 0
2021-07-19 20:26:29 GMT 38.385998 -77.809296 36,000 234 399 64
2021-07-19 20:26:26 GMT 38.390373 -77.801712 36,000 234 399 64
2021-07-19 20:26:23 GMT 38.392609 -77.797951 36,000 234 399 -64
2021-07-19 20:26:20 GMT 38.396301 -77.791557 36,000 234 399 192
2021-07-19 20:26:17 GMT 38.400055 -77.785110 36,000 234 399 64
2021-07-19 20:26:14 GMT 38.404430 -77.777588 36,000 234 398 0
2021-07-19 20:26:09 GMT 38.411224 -77.765907 36,000 234 398 -64
2021-07-19 20:26:06 GMT 38.411224 -77.765907 36,000 234 398 -64
2021-07-19 20:26:02 GMT 38.414906 -77.759460 36,000 234 397 -64
2021-07-19 20:26:00 GMT 38.417725 -77.754601 36,000 234 397 0
2021-07-19 20:25:58 GMT 38.419701 -77.751221 36,000 234 396 64
2021-07-19 20:25:55 GMT 38.422310 -77.746704 36,000 234 395 0
2021-07-19 20:25:52 GMT 38.427055 -77.738403 36,000 234 395 -64
2021-07-19 20:25:49 GMT 38.428780 -77.735413 36,000 234 394 0
2021-07-19 20:25:46 GMT 38.433529 -77.727173 36,000 234 393 -64
2021-07-19 20:25:42 GMT 38.438004 -77.719315 36,000 235 386 -128
2021-07-19 20:25:39 GMT 38.444321 -77.708267 36,000 235 392 -64
2021-07-19 20:25:35 GMT 38.444321 -77.708267 36,000 235 391 0
2021-07-19 20:25:31 GMT 38.448578 -77.700745 36,000 235 391 64
2021-07-19 20:25:29 GMT 38.453293 -77.692390 36,000 235 389 64
2021-07-19 20:25:27 GMT 38.453293 -77.692390 36,000 235 389 64
2021-07-19 20:25:24 GMT 38.455811 -77.687912 36,000 235 389 -64
2021-07-19 20:25:21 GMT 38.459736 -77.680847 36,000 235 388 128
2021-07-19 20:25:18 GMT 38.461830 -77.677063 36,000 235 388 0
2021-07-19 20:25:15 GMT 38.466202 -77.669281 36,000 235 387 64
2021-07-19 20:25:11 GMT 38.470322 -77.661819 36,000 235 386 -128
2021-07-19 20:25:08 GMT 38.473206 -77.656624 36,000 235 386 -64
2021-07-19 20:25:04 GMT 38.476913 -77.649933 36,000 235 384 0
2021-07-19 20:25:00 GMT 38.480576 -77.643250 36,000 235 383 128
2021-07-19 20:24:57 GMT 38.488876 -77.628296 36,000 235 382 -64
2021-07-19 20:24:52 GMT 38.488876 -77.628296 36,000 235 381 -64
2021-07-19 20:24:48 GMT 38.494324 -77.618652 36,000 235 380 0
2021-07-19 20:24:44 GMT 38.497833 -77.612495 36,000 234 379 -64
2021-07-19 20:24:40 GMT 38.504562 -77.601036 36,000 233 378 -64
2021-07-19 20:24:37 GMT 38.504562 -77.601036 36,000 233 378 -64
2021-07-19 20:24:33 GMT 38.508820 -77.594109 36,025 230 377 64
2021-07-19 20:24:29 GMT 38.514435 -77.585510 36,000 230 377 64
2021-07-19 20:24:25 GMT 38.520767 -77.576675 36,025 223 375 -128
2021-07-19 20:24:22 GMT 38.520767 -77.576675 36,000 226 376 0
2021-07-19 20:24:18 GMT 38.525162 -77.571060 36,000 224 376 64
2021-07-19 20:24:16 GMT 38.529007 -77.566467 36,000 223 374 0
2021-07-19 20:24:13 GMT 38.534081 -77.560486 36,025 223 374 0
2021-07-19 20:24:08 GMT 38.539200 -77.554504 36,000 223 372 64
2021-07-19 20:24:05 GMT 38.542740 -77.550354 36,000 223 372 -64
2021-07-19 20:24:02 GMT 38.547043 -77.545326 36,000 223 370 -64
2021-07-19 20:23:56 GMT 38.555099 -77.535889 36,000 223 368 64
2021-07-19 20:23:51 GMT 38.560638 -77.529503 36,000 223 367 -64
2021-07-19 20:23:46 GMT 38.567413 -77.521606 36,000 223 365 0
2021-07-19 20:23:42 GMT 38.572632 -77.515533 36,000 223 363 0
2021-07-19 20:23:38 GMT 38.577374 -77.510071 36,000 223 361 64
2021-07-19 20:23:35 GMT 38.579842 -77.507202 36,000 223 359 64
2021-07-19 20:23:32 GMT 38.585037 -77.501198 36,000 223 359 64
2021-07-19 20:23:29 GMT 38.588013 -77.497795 36,000 223 358 -64
2021-07-19 20:23:26 GMT 38.592957 -77.492126 36,000 222 357 -64
2021-07-19 20:23:22 GMT 38.596134 -77.488464 36,000 223 355 -64
2021-07-19 20:23:19 GMT 38.599823 -77.484245 36,000 223 355 -64
2021-07-19 20:23:16 GMT 38.603443 -77.480042 36,000 223 354 64
2021-07-19 20:23:13 GMT 38.607353 -77.475586 36,025 223 318 0
2021-07-19 20:23:08 GMT 38.613419 -77.468658 36,000 222 351 0
2021-07-19 20:23:04 GMT 38.619457 -77.461731 36,000 222 349 -64
2021-07-19 20:22:59 GMT 38.623581 -77.457077 36,000 222 347 -64
2021-07-19 20:22:56 GMT 38.629257 -77.450630 36,000 222 347 -64
2021-07-19 20:22:53 GMT 38.631775 -77.447762 36,000 222 344 64
2021-07-19 20:22:49 GMT 38.635796 -77.443176 36,000 222 344 0
2021-07-19 20:22:45 GMT 38.641010 -77.437195 36,000 223 343 -64
2021-07-19 20:22:43 GMT 38.644547 -77.433136 36,000 223 341 64
2021-07-19 20:22:40 GMT 38.648087 -77.429077 36,000 223 340 64
2021-07-19 20:22:37 GMT 38.652512 -77.423935 36,000 223 339 0
2021-07-19 20:22:32 GMT 38.656048 -77.419922 36,000 222 337 64
2021-07-19 20:22:29 GMT 38.659973 -77.415398 36,000 222 337 -64
2021-07-19 20:22:25 GMT 38.665100 -77.409607 36,000 222 333 -64
2021-07-19 20:22:21 GMT 38.669769 -77.404350 36,000 222 333 0
2021-07-19 20:22:18 GMT 38.672295 -77.401489 36,000 222 331 -64
2021-07-19 20:22:14 GMT 38.678421 -77.394623 36,000 222 331 0
2021-07-19 20:22:11 GMT 38.681976 -77.390564 36,000 222 329 -64
2021-07-19 20:22:07 GMT 38.685837 -77.386200 36,000 222 327 0
2021-07-19 20:22:04 GMT 38.688126 -77.383575 36,000 222 327 0
2021-07-19 20:22:02 GMT 38.691055 -77.380249 36,000 223 324 -64
2021-07-19 20:21:59 GMT 38.694855 -77.375870 36,025 223 324 0
2021-07-19 20:21:55 GMT 38.698471 -77.371750 36,025 222 322 0
2021-07-19 20:21:52 GMT 38.703114 -77.366394 36,025 222 321 -64
2021-07-19 20:21:47 GMT 38.706894 -77.362083 36,025 223 320 -64
2021-07-19 20:21:43 GMT 38.712982 -77.354973 36,025 223 318 64
2021-07-19 20:21:40 GMT 38.716049 -77.351395 36,000 224 316 192
2021-07-19 20:21:37 GMT 38.718426 -77.348572 36,000 224 315 128
2021-07-19 20:21:34 GMT 38.721588 -77.344765 36,000 224 314 128
2021-07-19 20:21:31 GMT 38.724804 -77.340881 35,975 225 313 64
2021-07-19 20:21:28 GMT 38.728775 -77.335991 35,975 225 312 192
2021-07-19 20:21:25 GMT 38.731461 -77.332581 35,975 225 311 320
2021-07-19 20:21:22 GMT 38.733929 -77.329468 35,950 225 311 320
2021-07-19 20:21:19 GMT 38.738026 -77.324280 35,850 225 311 768
2021-07-19 20:21:16 GMT 38.739853 -77.321953 35,900 225 310 704
2021-07-19 20:21:11 GMT 38.745800 -77.314453 35,750 225 311 768
2021-07-19 20:21:08 GMT 38.749104 -77.310303 35,800 225 311 768
2021-07-19 20:21:05 GMT 38.752167 -77.306435 35,750 225 311 768
2021-07-19 20:21:02 GMT 38.755249 -77.302551 35,675 225 311 768
2021-07-19 20:20:59 GMT 38.757935 -77.299149 35,675 225 311 768
2021-07-19 20:20:56 GMT 38.761185 -77.294968 35,625 225 311 768
2021-07-19 20:20:53 GMT 38.764069 -77.291328 35,575 226 311 832
2021-07-19 20:20:50 GMT 38.766083 -77.288696 35,400 226 311 832
2021-07-19 20:20:47 GMT 38.769745 -77.283981 35,500 226 311 768
2021-07-19 20:20:44 GMT 38.773174 -77.279602 35,475 225 311 832
2021-07-19 20:20:41 GMT 38.776058 -77.275940 35,450 225 311 832
2021-07-19 20:20:38 GMT 38.779736 -77.271240 35,400 225 311 896
2021-07-19 20:20:34 GMT 38.782379 -77.267860 35,300 226 311 896
2021-07-19 20:20:31 GMT 38.786674 -77.262329 35,275 226 311 960
2021-07-19 20:20:28 GMT 38.789749 -77.258369 35,225 226 312 1024
2021-07-19 20:20:25 GMT 38.792400 -77.254944 35,200 226 312 1024
2021-07-19 20:20:21 GMT 38.796661 -77.249413 35,125 226 312 1088
2021-07-19 20:20:18 GMT 38.798676 -77.246727 35,050 226 313 1088
2021-07-19 20:20:15 GMT 38.802338 -77.242004 34,900 226 313 960
2021-07-19 20:20:10 GMT 38.807648 -77.235138 34,950 226 313 960
2021-07-19 20:20:06 GMT 38.814240 -77.226662 34,875 226 313 960
2021-07-19 20:20:03 GMT 38.814240 -77.226662 34,825 226 313 960
2021-07-19 20:20:00 GMT 38.818981 -77.220581 34,725 226 314 1024
2021-07-19 20:19:57 GMT 38.821445 -77.217407 34,700 226 314 1024
2021-07-19 20:19:54 GMT 38.826382 -77.211121 34,600 225 315 1024
2021-07-19 20:19:48 GMT 38.834248 -77.201050 34,525 225 314 960
2021-07-19 20:19:44 GMT 38.834248 -77.201050 34,500 225 315 960
2021-07-19 20:19:40 GMT 38.838440 -77.195740 34,425 225 315 960
2021-07-19 20:19:37 GMT 38.842163 -77.190979 34,050 225 315 960
2021-07-19 20:19:35 GMT 38.843628 -77.189102 34,050 225 315 960
2021-07-19 20:19:32 GMT 38.846924 -77.184868 34,300 225 315 960
2021-07-19 20:19:29 GMT 38.849808 -77.181221 34,200 226 315 1024
2021-07-19 20:19:25 GMT 38.853973 -77.175850 34,175 226 315 1024
2021-07-19 20:19:22 GMT 38.857479 -77.171326 34,150 226 315 1024
2021-07-19 20:19:18 GMT 38.860565 -77.167313 33,975 226 316 1088
2021-07-19 20:19:15 GMT 38.864319 -77.162476 33,975 226 316 1024
2021-07-19 20:19:12 GMT 38.867203 -77.158775 33,950 226 316 1024
2021-07-19 20:19:09 GMT 38.870327 -77.154724 33,875 225 316 1088
2021-07-19 20:19:06 GMT 38.875534 -77.148087 33,825 225 316 1088
2021-07-19 20:19:01 GMT 38.879543 -77.143005 33,750 225 317 1024
2021-07-19 20:18:58 GMT 38.882057 -77.139771 33,725 225 316 1024
2021-07-19 20:18:54 GMT 38.885830 -77.135010 33,650 225 316 960
2021-07-19 20:18:51 GMT 38.889553 -77.130188 33,625 225 316 960
2021-07-19 20:18:48 GMT 38.891647 -77.127563 33,575 225 317 1024
2021-07-19 20:18:45 GMT 38.894806 -77.123543 33,525 225 317 1024
2021-07-19 20:18:43 GMT 38.898354 -77.119019 33,475 225 317 1024
2021-07-19 20:18:40 GMT 38.901657 -77.114746 33,425 225 317 1024
2021-07-19 20:18:37 GMT 38.903751 -77.112122 33,200 225 316 960
2021-07-19 20:18:34 GMT 38.907715 -77.107063 33,325 225 316 1024
2021-07-19 20:18:31 GMT 38.909573 -77.104675 33,300 225 316 960
2021-07-19 20:18:28 GMT 38.913342 -77.099854 33,200 225 316 960
2021-07-19 20:18:25 GMT 38.915634 -77.096916 33,100 225 316 1024
2021-07-19 20:18:22 GMT 38.920212 -77.091064 33,100 225 316 1024
2021-07-19 20:18:19 GMT 38.923306 -77.087036 33,050 225 316 1024
2021-07-19 20:18:16 GMT 38.924980 -77.084900 33,000 225 317 1024
2021-07-19 20:18:14 GMT 38.927494 -77.081726 33,000 225 316 1024
2021-07-19 20:18:11 GMT 38.931263 -77.076965 32,900 225 316 1024
2021-07-19 20:18:08 GMT 38.934357 -77.072975 32,900 225 316 1024
2021-07-19 20:18:05 GMT 38.936920 -77.069748 32,850 225 316 960
2021-07-19 20:18:02 GMT 38.939392 -77.066582 32,800 225 316 960
2021-07-19 20:17:59 GMT 38.943192 -77.061806 32,725 226 316 1024
2021-07-19 20:17:56 GMT 38.948769 -77.054626 32,650 226 315 1024
2021-07-19 20:17:51 GMT 38.951843 -77.050583 32,575 226 316 1024
2021-07-19 20:17:48 GMT 38.957798 -77.042847 32,525 226 315 1088
2021-07-19 20:17:45 GMT 38.957798 -77.042847 32,500 226 315 1088
2021-07-19 20:17:41 GMT 38.961941 -77.037537 32,450 226 315 960
2021-07-19 20:17:38 GMT 38.964203 -77.034637 32,350 226 314 1088
2021-07-19 20:17:35 GMT 38.967297 -77.030640 32,350 226 314 1088
2021-07-19 20:17:32 GMT 38.970795 -77.026100 32,275 226 314 1088
2021-07-19 20:17:30 GMT 38.973022 -77.023193 32,250 226 314 1024
2021-07-19 20:17:26 GMT 38.977341 -77.017563 32,175 226 313 960
2021-07-19 20:17:23 GMT 38.979584 -77.014648 32,125 226 313 960
2021-07-19 20:17:21 GMT 38.981632 -77.012024 32,100 225 313 960
2021-07-19 20:17:18 GMT 38.985779 -77.006714 32,025 225 313 960
2021-07-19 20:17:15 GMT 38.988663 -77.003052 31,900 225 312 960
2021-07-19 20:17:12 GMT 38.992340 -76.998291 31,900 225 312 1024
2021-07-19 20:17:09 GMT 38.994808 -76.995117 31,875 226 311 1024
2021-07-19 20:17:06 GMT 38.996658 -76.992783 31,825 226 311 960
2021-07-19 20:17:03 GMT 38.999741 -76.988831 31,775 226 311 896
2021-07-19 20:17:00 GMT 39.003571 -76.983826 31,750 226 311 832
2021-07-19 20:16:57 GMT 39.007050 -76.979370 31,700 226 310 832
2021-07-19 20:16:53 GMT 39.011101 -76.974121 31,625 226 309 832
2021-07-19 20:16:49 GMT 39.014923 -76.969078 31,575 226 309 768
2021-07-19 20:16:45 GMT 39.019318 -76.963348 31,525 226 308 768
2021-07-19 20:16:42 GMT 39.021332 -76.960724 31,500 226 307 768
2021-07-19 20:16:40 GMT 39.022739 -76.958862 31,500 226 307 704
2021-07-19 20:16:37 GMT 39.027161 -76.953186 31,425 226 306 832
2021-07-19 20:16:34 GMT 39.029163 -76.950562 31,400 226 306 768
2021-07-19 20:16:31 GMT 39.033169 -76.945435 31,325 225 305 768
2021-07-19 20:16:28 GMT 39.036163 -76.941612 31,325 225 304 768
2021-07-19 20:16:24 GMT 39.042938 -76.932899 31,250 225 304 768
2021-07-19 20:16:21 GMT 39.042938 -76.932899 31,225 225 303 768
2021-07-19 20:16:18 GMT 39.046097 -76.928841 31,175 225 302 768
2021-07-19 20:16:15 GMT 39.049088 -76.924988 31,150 226 301 768
2021-07-19 20:16:12 GMT 39.052048 -76.921196 31,100 226 300 832
2021-07-19 20:16:08 GMT 39.055420 -76.916870 31,050 226 300 896
2021-07-19 20:16:05 GMT 39.058319 -76.913071 30,975 226 299 832
2021-07-19 20:16:02 GMT 39.060863 -76.909790 30,950 226 298 832
2021-07-19 20:15:58 GMT 39.065941 -76.903198 30,825 226 298 832
2021-07-19 20:15:54 GMT 39.068687 -76.899719 30,850 226 297 896
2021-07-19 20:15:51 GMT 39.071384 -76.896179 30,775 226 296 896
2021-07-19 20:15:47 GMT 39.075668 -76.890686 30,750 226 296 896
2021-07-19 20:15:44 GMT 39.082031 -76.882500 30,700 225 295 896
2021-07-19 20:15:40 GMT 39.082031 -76.882500 30,650 225 295 960
2021-07-19 20:15:36 GMT 39.087479 -76.875580 30,575 225 294 960
2021-07-19 20:15:32 GMT 39.093658 -76.867638 30,500 225 294 1024
2021-07-19 20:15:29 GMT 39.093658 -76.867638 30,475 225 294 1088
2021-07-19 20:15:26 GMT 39.096153 -76.864441 30,425 225 294 1152
2021-07-19 20:15:23 GMT 39.099644 -76.860046 30,325 225 294 1344
2021-07-19 20:15:20 GMT 39.101551 -76.857605 30,250 225 294 1344
2021-07-19 20:15:17 GMT 39.108162 -76.849243 30,250 225 294 1472
2021-07-19 20:15:14 GMT 39.108162 -76.849243 30,150 225 294 1536
2021-07-19 20:15:09 GMT 39.112198 -76.844048 30,025 225 294 1536
2021-07-19 20:15:07 GMT 39.117188 -76.837723 29,975 225 294 1536
2021-07-19 20:15:04 GMT 39.117188 -76.837723 29,900 225 296 1600
2021-07-19 20:15:01 GMT 39.120392 -76.833664 29,775 225 296 1536
2021-07-19 20:14:58 GMT 39.123871 -76.829185 29,725 225 296 1600
2021-07-19 20:14:54 GMT 39.126781 -76.825439 29,625 225 297 1536
2021-07-19 20:14:52 GMT 39.129532 -76.821899 29,550 225 297 1600
2021-07-19 20:14:49 GMT 39.131485 -76.819397 29,500 225 298 1600
2021-07-19 20:14:47 GMT 39.133987 -76.816170 29,450 225 299 1600
2021-07-19 20:14:44 GMT 39.136189 -76.813416 29,350 225 299 1600
2021-07-19 20:14:41 GMT 39.139481 -76.809120 29,275 225 299 1600
2021-07-19 20:14:38 GMT 39.142426 -76.805359 29,175 226 300 1600
2021-07-19 20:14:34 GMT 39.147354 -76.799034 29,075 226 301 1600
2021-07-19 20:14:31 GMT 39.150101 -76.795448 29,000 226 301 1536
2021-07-19 20:14:28 GMT 39.152069 -76.792938 28,950 226 302 1600
2021-07-19 20:14:26 GMT 39.154083 -76.790375 28,725 226 303 1600
2021-07-19 20:14:23 GMT 39.159210 -76.783684 28,800 226 302 1600
2021-07-19 20:14:21 GMT 39.159210 -76.783684 28,725 226 303 1664
2021-07-19 20:14:18 GMT 39.163746 -76.777771 28,650 226 304 1600
2021-07-19 20:14:13 GMT 39.167332 -76.773132 28,550 226 304 1600
2021-07-19 20:14:10 GMT 39.170288 -76.769295 28,450 226 309 1600
2021-07-19 20:14:06 GMT 39.174873 -76.763306 28,350 226 306 1600
2021-07-19 20:14:02 GMT 39.178829 -76.758118 28,200 226 307 1600
2021-07-19 20:13:59 GMT 39.182461 -76.753418 28,150 226 307 1600
2021-07-19 20:13:56 GMT 39.184044 -76.751343 28,125 226 307 1600
2021-07-19 20:13:53 GMT 39.187256 -76.747131 27,975 226 309 1600
2021-07-19 20:13:50 GMT 39.191071 -76.742126 27,900 226 309 1600
2021-07-19 20:13:47 GMT 39.193085 -76.739502 27,750 226 310 1600
2021-07-19 20:13:45 GMT 39.195683 -76.736084 27,800 226 310 1600
2021-07-19 20:13:41 GMT 39.200104 -76.730225 27,650 226 311 1536
2021-07-19 20:13:38 GMT 39.202106 -76.727600 27,525 227 312 1664
2021-07-19 20:13:35 GMT 39.205124 -76.723618 27,500 227 312 1664
2021-07-19 20:13:32 GMT 39.209152 -76.718246 27,400 227 313 1664
2021-07-19 20:13:27 GMT 39.212952 -76.713135 27,350 227 313 1664
2021-07-19 20:13:24 GMT 39.217163 -76.707497 27,200 226 314 1664
2021-07-19 20:13:21 GMT 39.220215 -76.703430 27,025 226 315 1728
2021-07-19 20:13:18 GMT 39.222061 -76.701050 27,050 226 315 1664
2021-07-19 20:13:15 GMT 39.226311 -76.695374 27,000 226 316 1728
2021-07-19 20:13:11 GMT 39.229618 -76.691040 26,825 226 317 1728
2021-07-19 20:13:08 GMT 39.233341 -76.686218 26,750 226 318 1664
2021-07-19 20:13:05 GMT 39.235390 -76.683533 26,725 226 318 1664
2021-07-19 20:13:03 GMT 39.237259 -76.681107 26,675 226 318 1728
2021-07-19 20:13:00 GMT 39.241257 -76.676025 26,550 226 319 1664
2021-07-19 20:12:57 GMT 39.243942 -76.672508 26,475 226 320 1664
2021-07-19 20:12:54 GMT 39.246872 -76.668686 26,400 226 321 1664
2021-07-19 20:12:52 GMT 39.249962 -76.664612 26,275 226 325 1664
2021-07-19 20:12:49 GMT 39.252056 -76.661865 26,250 226 321 1728
2021-07-19 20:12:47 GMT 39.255203 -76.657700 26,175 226 322 1664
2021-07-19 20:12:44 GMT 39.258713 -76.653015 26,100 226 323 1664
2021-07-19 20:12:39 GMT 39.262436 -76.648071 25,950 227 323 1664
2021-07-19 20:12:37 GMT 39.265594 -76.643906 25,900 227 323 1728
2021-07-19 20:12:34 GMT 39.268723 -76.639709 25,800 226 325 1664
2021-07-19 20:12:31 GMT 39.271454 -76.636086 25,750 226 325 1728
2021-07-19 20:12:28 GMT 39.274586 -76.631897 25,675 227 326 1792
2021-07-19 20:12:26 GMT 39.276264 -76.629639 25,600 226 326 1664
2021-07-19 20:12:23 GMT 39.281708 -76.622375 25,500 227 327 1728
2021-07-19 20:12:21 GMT 39.281708 -76.622375 25,425 226 328 1728
2021-07-19 20:12:18 GMT 39.284454 -76.618713 25,400 226 328 1792
2021-07-19 20:12:15 GMT 39.288040 -76.613953 25,150 226 329 1664
2021-07-19 20:12:12 GMT 39.292053 -76.608559 25,175 226 329 1600
2021-07-19 20:12:09 GMT 39.294205 -76.605759 25,125 226 330 1728
2021-07-19 20:12:06 GMT 39.298237 -76.600403 25,000 226 331 1728
2021-07-19 20:12:03 GMT 39.301437 -76.596146 24,925 226 331 1728
2021-07-19 20:12:00 GMT 39.304611 -76.591858 24,850 226 331 1728
2021-07-19 20:11:56 GMT 39.308895 -76.586182 24,700 226 333 1664
2021-07-19 20:11:53 GMT 39.315369 -76.577637 24,625 226 333 1728
2021-07-19 20:11:50 GMT 39.315369 -76.577637 24,550 226 333 1728
2021-07-19 20:11:47 GMT 39.317928 -76.574280 24,500 226 333 1728
2021-07-19 20:11:43 GMT 39.322723 -76.567993 24,375 226 335 1792
2021-07-19 20:11:40 GMT 39.325562 -76.564316 24,250 226 335 1664
2021-07-19 20:11:37 GMT 39.329041 -76.559776 24,200 225 336 1728
2021-07-19 20:11:34 GMT 39.332359 -76.555481 24,125 225 337 1664
2021-07-19 20:11:31 GMT 39.334763 -76.552376 23,750 225 337 1728
2021-07-19 20:11:27 GMT 39.339901 -76.545898 22,175 225 338 1728
2021-07-19 20:11:24 GMT 39.343277 -76.541626 23,800 225 339 1728
2021-07-19 20:11:21 GMT 39.346184 -76.537964 23,775 225 339 1728
2021-07-19 20:11:17 GMT 39.351631 -76.531189 23,525 225 340 1664
2021-07-19 20:11:14 GMT 39.354584 -76.527534 23,525 224 341 1664
2021-07-19 20:11:11 GMT 39.357494 -76.523865 23,475 224 341 1664
2021-07-19 20:11:08 GMT 39.361176 -76.519348 23,400 225 342 1664
2021-07-19 20:11:04 GMT 39.368900 -76.509705 23,225 225 342 1664
2021-07-19 20:11:01 GMT 39.368900 -76.509705 23,150 225 342 1664
2021-07-19 20:10:59 GMT 39.371887 -76.505981 23,125 225 343 1600
2021-07-19 20:10:56 GMT 39.375092 -76.501984 23,025 225 345 1728
2021-07-19 20:10:53 GMT 39.377838 -76.498520 22,975 225 344 1600
2021-07-19 20:10:50 GMT 39.382168 -76.493103 22,900 225 344 1664
2021-07-19 20:10:47 GMT 39.385799 -76.488525 22,800 225 345 1792
2021-07-19 20:10:44 GMT 39.389011 -76.484497 22,675 225 346 1728
2021-07-19 20:10:41 GMT 39.392487 -76.480186 22,675 225 346 1728
2021-07-19 20:10:38 GMT 39.395737 -76.476128 22,475 225 347 1792
2021-07-19 20:10:35 GMT 39.398697 -76.472412 22,400 225 347 1728
2021-07-19 20:10:32 GMT 39.402649 -76.467468 21,575 225 348 1664
2021-07-19 20:10:29 GMT 39.405167 -76.464294 22,250 225 347 1728
2021-07-19 20:10:26 GMT 39.409561 -76.458817 22,200 225 348 1664
2021-07-19 20:10:23 GMT 39.413498 -76.453857 22,025 225 349 1600
2021-07-19 20:10:20 GMT 39.420387 -76.445068 21,975 225 349 1600
2021-07-19 20:10:17 GMT 39.420387 -76.445068 21,950 225 349 1600
2021-07-19 20:10:13 GMT 39.423649 -76.440979 21,900 225 349 1600
2021-07-19 20:10:10 GMT 39.428421 -76.434807 21,725 226 350 1536
2021-07-19 20:10:07 GMT 39.430710 -76.431885 21,550 226 349 1472
2021-07-19 20:10:04 GMT 39.435287 -76.425911 21,625 226 349 1472
2021-07-19 20:10:01 GMT 39.437531 -76.422928 21,575 226 349 1536
2021-07-19 20:09:58 GMT 39.440918 -76.418457 21,500 226 349 1536
2021-07-19 20:09:54 GMT 39.445633 -76.412178 21,400 227 349 1536
2021-07-19 20:09:51 GMT 39.449436 -76.406982 21,300 228 349 1536
2021-07-19 20:09:47 GMT 39.453766 -76.400818 21,100 229 349 1600
2021-07-19 20:09:45 GMT 39.456528 -76.396713 21,100 231 349 1536
2021-07-19 20:09:42 GMT 39.458588 -76.393555 21,075 232 349 1600
2021-07-19 20:09:40 GMT 39.460423 -76.390625 20,925 235 348 1408
2021-07-19 20:09:37 GMT 39.464539 -76.383636 20,925 236 347 0
2021-07-19 20:09:34 GMT 39.466370 -76.380234 20,875 237 348 1344
2021-07-19 20:09:31 GMT 39.469360 -76.374329 20,750 240 347 1408
2021-07-19 20:09:28 GMT 39.471863 -76.369011 20,725 240 347 1472
2021-07-19 20:09:26 GMT 39.473190 -76.366142 20,675 240 347 1408
2021-07-19 20:09:23 GMT 39.475647 -76.360779 20,575 240 347 1536
2021-07-19 20:09:20 GMT 39.481606 -76.347961 20,375 240 347 1600
2021-07-19 20:09:17 GMT 39.481606 -76.347961 20,350 240 347 1536
2021-07-19 20:09:14 GMT 39.483765 -76.343338 20,225 240 347 1536
2021-07-19 20:09:11 GMT 39.486099 -76.338379 20,275 240 347 1600
2021-07-19 20:09:09 GMT 39.488068 -76.334084 20,225 240 348 1536
2021-07-19 20:09:06 GMT 39.489716 -76.330498 20,175 240 347 1536
2021-07-19 20:09:04 GMT 39.491364 -76.326981 20,125 240 348 1536
2021-07-19 20:09:00 GMT 39.495346 -76.318382 20,000 240 347 1472
2021-07-19 20:08:56 GMT 39.498962 -76.310555 19,875 240 347 1408
2021-07-19 20:08:52 GMT 39.501110 -76.305908 19,800 240 347 1344
2021-07-19 20:08:49 GMT 39.503952 -76.299812 19,700 240 347 1280
2021-07-19 20:08:46 GMT 39.506416 -76.294495 19,675 240 347 1344
2021-07-19 20:08:42 GMT 39.510700 -76.285217 19,550 240 347 1408
2021-07-19 20:08:39 GMT 39.513474 -76.279152 19,450 240 344 1344
2021-07-19 20:08:35 GMT 39.515961 -76.273804 19,400 240 347 1408
2021-07-19 20:08:29 GMT 39.520065 -76.264938 19,100 240 344 1344
2021-07-19 20:08:27 GMT 39.522675 -76.259209 19,175 240 345 1344
2021-07-19 20:08:24 GMT 39.524155 -76.256042 19,175 240 345 1408
2021-07-19 20:08:22 GMT 39.526806 -76.250366 18,850 240 345 1344
2021-07-19 20:08:19 GMT 39.529087 -76.245361 19,025 240 345 1408
2021-07-19 20:08:16 GMT 39.531696 -76.239685 18,925 240 344 1344
2021-07-19 20:08:13 GMT 39.536629 -76.229065 18,850 240 344 1408
2021-07-19 20:08:10 GMT 39.536629 -76.229065 18,825 240 344 1280
2021-07-19 20:08:07 GMT 39.538910 -76.224121 18,800 240 344 1344
2021-07-19 20:08:04 GMT 39.541031 -76.219505 18,650 240 344 1344
2021-07-19 20:08:00 GMT 39.544823 -76.211365 18,600 240 344 1408
2021-07-19 20:07:57 GMT 39.546616 -76.207504 18,475 240 343 1408
2021-07-19 20:07:54 GMT 39.549061 -76.202148 18,425 240 343 1408
2021-07-19 20:07:51 GMT 39.552155 -76.195442 18,375 240 343 1344
2021-07-19 20:07:46 GMT 39.556229 -76.186646 18,275 240 343 1280
2021-07-19 20:07:41 GMT 39.559811 -76.178894 18,175 240 343 1280
2021-07-19 20:07:37 GMT 39.566116 -76.165108 18,025 240 343 1344
2021-07-19 20:07:34 GMT 39.566116 -76.165108 17,875 240 343 1344
2021-07-19 20:07:30 GMT 39.571655 -76.153107 17,875 240 342 1344
2021-07-19 20:07:27 GMT 39.571655 -76.153107 17,825 240 342 1280
2021-07-19 20:07:24 GMT 39.573078 -76.149963 17,800 240 341 1280
2021-07-19 20:07:21 GMT 39.576012 -76.143677 17,700 240 339 1344
2021-07-19 20:07:17 GMT 39.579552 -76.135925 17,650 240 340 1280
2021-07-19 20:07:14 GMT 39.581181 -76.132446 17,525 240 339 1280
2021-07-19 20:07:08 GMT 39.586952 -76.119812 17,400 240 337 1344
2021-07-19 20:07:05 GMT 39.588535 -76.116333 17,375 240 339 1280
2021-07-19 20:07:02 GMT 39.594452 -76.103432 17,275 240 338 1408
2021-07-19 20:06:58 GMT 39.594452 -76.103432 17,225 240 338 1344
2021-07-19 20:06:54 GMT 39.597336 -76.097160 17,025 240 338 1344
2021-07-19 20:06:48 GMT 39.603378 -76.083908 16,975 240 338 1408
2021-07-19 20:06:44 GMT 39.606411 -76.077332 16,900 240 338 1344
2021-07-19 20:06:37 GMT 39.611530 -76.066162 16,725 240 337 1344
2021-07-19 20:06:33 GMT 39.614697 -76.059265 16,650 240 334 1600
2021-07-19 20:06:29 GMT 39.618393 -76.051308 16,550 240 336 1408
2021-07-19 20:06:26 GMT 39.619675 -76.048500 16,475 240 336 1408
2021-07-19 20:06:23 GMT 39.622192 -76.043007 16,450 240 336 1472
2021-07-19 20:06:18 GMT 39.626522 -76.033630 16,250 240 336 1408
2021-07-19 20:06:15 GMT 39.628429 -76.029480 16,200 240 336 1408
2021-07-19 20:06:12 GMT 39.630524 -76.024971 15,775 240 334 1600
2021-07-19 20:06:09 GMT 39.633728 -76.018105 16,100 240 335 1472
2021-07-19 20:06:05 GMT 39.637043 -76.010803 16,000 240 334 1536
2021-07-19 20:06:02 GMT 39.639130 -76.006348 15,925 240 334 1600
2021-07-19 20:05:57 GMT 39.645885 -75.991516 15,750 240 334 1472
2021-07-19 20:05:54 GMT 39.645885 -75.991516 15,700 240 334 1600
2021-07-19 20:05:51 GMT 39.648399 -75.985962 15,625 240 334 1536
2021-07-19 20:05:48 GMT 39.650311 -75.981873 15,575 240 334 1536
2021-07-19 20:05:45 GMT 39.653275 -75.975296 15,450 240 333 1536
2021-07-19 20:05:40 GMT 39.656433 -75.968430 15,350 240 333 1536
2021-07-19 20:05:34 GMT 39.662430 -75.955353 14,975 240 332 1600
2021-07-19 20:05:30 GMT 39.663666 -75.952606 15,125 240 332 1600
2021-07-19 20:05:28 GMT 39.666325 -75.946777 15,025 240 332 1600
2021-07-19 20:05:24 GMT 39.668701 -75.941681 14,850 240 332 1600
2021-07-19 20:05:21 GMT 39.671814 -75.934814 14,850 240 331 1536
2021-07-19 20:05:17 GMT 39.674473 -75.929016 14,325 240 329 1536
2021-07-19 20:05:14 GMT 39.676983 -75.923523 14,425 240 329 1472
2021-07-19 20:05:10 GMT 39.680237 -75.916367 14,575 240 329 1536
2021-07-19 20:05:07 GMT 39.682243 -75.911865 14,500 240 330 1472
2021-07-19 20:05:04 GMT 39.684433 -75.907104 14,375 240 329 1472
2021-07-19 20:05:00 GMT 39.687057 -75.901314 14,325 240 329 1536
2021-07-19 20:04:57 GMT 39.690624 -75.893494 14,225 240 328 1472
2021-07-19 20:04:53 GMT 39.693745 -75.886719 13,600 240 326 1536
2021-07-19 20:04:50 GMT 39.694794 -75.884361 14,075 239 317 1664
2021-07-19 20:04:46 GMT 39.698227 -75.876900 13,950 240 327 1472
2021-07-19 20:04:43 GMT 39.701660 -75.869492 13,875 240 326 1536
2021-07-19 20:04:39 GMT 39.704453 -75.863403 13,775 240 326 1536
2021-07-19 20:04:35 GMT 39.706451 -75.859070 13,725 240 325 1536
2021-07-19 20:04:32 GMT 39.709850 -75.851685 13,550 240 324 1600
2021-07-19 20:04:29 GMT 39.711548 -75.848000 13,550 240 324 1536
2021-07-19 20:04:26 GMT 39.714458 -75.841614 13,425 239 318 1536
2021-07-19 20:04:23 GMT 39.716766 -75.836594 13,300 240 322 1600
2021-07-19 20:04:20 GMT 39.719067 -75.831604 13,200 239 321 1664
2021-07-19 20:04:17 GMT 39.720749 -75.827995 13,250 239 322 1600
2021-07-19 20:04:14 GMT 39.723816 -75.821365 13,150 239 321 1664
2021-07-19 20:04:11 GMT 39.725372 -75.818085 13,075 240 320 1664
2021-07-19 20:04:08 GMT 39.728287 -75.811768 13,025 239 319 1536
2021-07-19 20:04:05 GMT 39.730270 -75.807518 12,925 239 318 1664
2021-07-19 20:04:01 GMT 39.732845 -75.801941 12,700 239 318 1536
2021-07-19 20:03:58 GMT 39.735764 -75.795753 12,725 239 317 1600
2021-07-19 20:03:53 GMT 39.739700 -75.787277 12,600 239 316 1600
2021-07-19 20:03:50 GMT 39.741211 -75.783989 12,525 239 315 1536
2021-07-19 20:03:47 GMT 39.743183 -75.779785 12,425 239 315 1536
2021-07-19 20:03:44 GMT 39.745743 -75.774315 12,325 239 314 1472
2021-07-19 20:03:41 GMT 39.748764 -75.767868 12,300 239 313 1664
2021-07-19 20:03:36 GMT 39.751511 -75.762077 12,125 239 312 1600
2021-07-19 20:03:33 GMT 39.754211 -75.756348 12,075 239 311 1536
2021-07-19 20:03:30 GMT 39.758591 -75.747070 11,550 239 304 1600
2021-07-19 20:03:27 GMT 39.759018 -75.746132 11,925 239 309 1536
2021-07-19 20:03:22 GMT 39.762634 -75.738548 11,800 239 308 1600
2021-07-19 20:03:19 GMT 39.765156 -75.733154 11,475 239 304 1600
2021-07-19 20:03:15 GMT 39.766972 -75.729431 11,650 239 305 1600
2021-07-19 20:03:11 GMT 39.771767 -75.719421 11,475 239 304 1600
2021-07-19 20:03:07 GMT 39.777954 -75.706482 11,275 239 300 1536
2021-07-19 20:03:01 GMT 39.777954 -75.706482 11,275 239 301 1536
2021-07-19 20:02:58 GMT 39.780441 -75.701233 11,150 239 299 1600
2021-07-19 20:02:55 GMT 39.782055 -75.697876 11,125 239 298 1600
2021-07-19 20:02:53 GMT 39.784241 -75.693291 11,050 239 298 1536
2021-07-19 20:02:49 GMT 39.787544 -75.686279 10,925 239 296 1536
2021-07-19 20:02:45 GMT 39.789547 -75.682068 10,725 239 294 1536
2021-07-19 20:02:41 GMT 39.792107 -75.676575 10,775 240 293 1600
2021-07-19 20:02:38 GMT 39.795086 -75.669922 10,650 241 290 1600
2021-07-19 20:02:34 GMT 39.800537 -75.656815 10,600 242 289 1536
2021-07-19 20:02:30 GMT 39.800537 -75.656815 10,425 244 284 1408
2021-07-19 20:02:27 GMT 39.801910 -75.653107 10,375 246 282 1600
2021-07-19 20:02:24 GMT 39.803009 -75.650002 10,325 247 282 1664
2021-07-19 20:02:20 GMT 39.805206 -75.643196 10,175 250 278 1792
2021-07-19 20:02:16 GMT 39.806820 -75.637207 10,025 255 274 2112
2021-07-19 20:02:13 GMT 39.807861 -75.632446 9,975 256 274 2304
2021-07-19 20:02:10 GMT 39.809052 -75.624687 9,775 265 271 2752
2021-07-19 20:02:07 GMT 39.809280 -75.621468 9,475 276 267 2368
2021-07-19 20:02:04 GMT 39.809380 -75.617249 9,575 273 269 2240
2021-07-19 20:02:01 GMT 39.809193 -75.612732 9,450 278 267 2368
2021-07-19 20:01:57 GMT 39.808228 -75.604866 9,250 281 266 2752
2021-07-19 20:01:53 GMT 39.807404 -75.599190 9,025 282 268 2624
2021-07-19 20:01:50 GMT 39.806679 -75.594421 8,950 282 268 2688
2021-07-19 20:01:43 GMT 39.805187 -75.584961 8,675 282 269 2304
2021-07-19 20:01:40 GMT 39.804489 -75.580505 8,500 282 269 2368
2021-07-19 20:01:36 GMT 39.803375 -75.573669 8,425 283 267 1920
2021-07-19 20:01:33 GMT 39.801910 -75.564980 8,300 283 269 1920
2021-07-19 20:01:30 GMT 39.801910 -75.564980 8,125 283 267 1920
2021-07-19 20:01:27 GMT 39.801094 -75.560303 8,150 283 267 1920
2021-07-19 20:01:24 GMT 39.799931 -75.553406 7,975 283 265 1792
2021-07-19 20:01:21 GMT 39.799461 -75.550903 7,925 283 264 1856
2021-07-19 20:01:18 GMT 39.798485 -75.545410 7,700 284 262 2496
2021-07-19 20:01:14 GMT 39.797276 -75.538574 7,575 284 263 2560
2021-07-19 20:01:12 GMT 39.796719 -75.535522 7,575 284 262 2752
2021-07-19 20:01:07 GMT 39.795319 -75.527840 7,350 284 263 2496
2021-07-19 20:01:04 GMT 39.793736 -75.519531 7,200 284 263 1856
2021-07-19 20:01:01 GMT 39.793736 -75.519531 7,100 284 262 2112
2021-07-19 20:00:58 GMT 39.792892 -75.514885 7,000 284 262 2496
2021-07-19 20:00:55 GMT 39.791969 -75.509705 6,925 284 261 2560
2021-07-19 20:00:51 GMT 39.790943 -75.504211 6,475 284 256 2368
2021-07-19 20:00:48 GMT 39.791882 -75.499100 5,500 284 261 2176
2021-07-19 20:00:47 GMT 39.791550 -75.497581 5,500 284 261 2176
2021-07-19 20:00:45 GMT 39.790909 -75.494560 5,500 284 261 2176
2021-07-19 20:00:43 GMT 39.790272 -75.491539 5,500 284 261 2176
2021-07-19 20:00:41 GMT 39.789631 -75.488518 5,500 284 261 2176
2021-07-19 20:00:39 GMT 39.788658 -75.483994 5,500 284 261 2176
2021-07-19 20:00:37 GMT 39.788342 -75.482483 5,500 284 261 2176
2021-07-19 20:00:36 GMT 39.788021 -75.480957 5,500 284 261 2176
2021-07-19 20:00:34 GMT 39.787369 -75.477943 5,500 284 261 992
2021-07-19 20:00:33 GMT 39.787048 -75.476433 5,500 284 261 992
2021-07-19 20:00:32 GMT 39.786732 -75.474922 5,500 284 261 992
2021-07-19 20:00:30 GMT 39.786091 -75.471901 5,500 284 261 992
2021-07-19 20:00:29 GMT 39.785759 -75.470390 5,500 284 261 992
2021-07-19 20:00:28 GMT 39.785439 -75.468880 5,500 284 261 992
2021-07-19 20:00:27 GMT 39.785118 -75.467369 5,500 284 261 992
2021-07-19 20:00:25 GMT 39.784481 -75.464348 5,500 284 261 992
2021-07-19 20:00:24 GMT 39.784149 -75.462837 5,500 284 261 992
2021-07-19 20:00:23 GMT 39.783508 -75.459808 5,500 284 261 992
2021-07-19 20:00:21 GMT 39.783192 -75.458298 5,500 284 261 992
2021-07-19 20:00:20 GMT 39.782871 -75.456787 5,500 284 261 992
2021-07-19 20:00:19 GMT 39.782219 -75.453773 5,500 284 261 992
2021-07-19 20:00:17 GMT 39.782150 -75.452431 5,400 281 262 992
2021-07-19 20:00:16 GMT 39.781849 -75.450897 5,400 281 262 992
2021-07-19 20:00:14 GMT 39.780891 -75.446648 5,100 276 263 992
2021-07-19 20:00:12 GMT 39.780689 -75.445099 5,100 276 263 992
2021-07-19 20:00:10 GMT 39.780270 -75.441994 5,100 276 263 992
2021-07-19 20:00:09 GMT 39.780071 -75.440430 5,100 276 263 992
2021-07-19 20:00:07 GMT 39.779350 -75.437241 4,900 269 256 992
2021-07-19 20:00:06 GMT 39.779282 -75.435707 4,900 269 256 992
2021-07-19 20:00:05 GMT 39.779202 -75.434181 4,900 269 256 992
2021-07-19 20:00:04 GMT 39.778118 -75.430992 4,700 259 253 992
2021-07-19 20:00:02 GMT 39.778252 -75.429466 4,700 259 253 992
2021-07-19 20:00:01 GMT 39.778381 -75.427963 4,700 259 253 992
2021-07-19 20:00:00 GMT 39.778500 -75.426453 4,700 259 253 992
2021-07-19 19:59:58 GMT 39.777420 -75.422852 4,600 248 251 992
2021-07-19 19:59:57 GMT 39.777779 -75.421410 4,600 248 251 992
2021-07-19 19:59:56 GMT 39.778511 -75.418549 4,600 248 251 992
2021-07-19 19:59:54 GMT 39.777679 -75.416420 4,300 239 253 992
2021-07-19 19:59:53 GMT 39.778770 -75.413742 4,300 239 253 992
2021-07-19 19:59:51 GMT 39.779320 -75.412399 4,300 239 253 992
2021-07-19 19:59:50 GMT 39.778488 -75.409920 4,300 232 255 992
2021-07-19 19:59:48 GMT 39.779942 -75.407494 4,300 232 255 992
2021-07-19 19:59:47 GMT 39.780659 -75.406281 4,300 232 255 992
2021-07-19 19:59:46 GMT 39.781380 -75.405060 4,300 232 255 992
2021-07-19 19:59:44 GMT 39.782532 -75.402267 4,200 231 255 992
2021-07-19 19:59:43 GMT 39.783272 -75.401077 4,200 231 255 992
2021-07-19 19:59:41 GMT 39.784740 -75.398697 4,225 236 258 1664
2021-07-19 19:59:40 GMT 39.785519 -75.397209 4,100 230 251 992
2021-07-19 19:59:39 GMT 39.786251 -75.396042 4,100 230 251 992
2021-07-19 19:59:38 GMT 39.787720 -75.393707 4,100 230 251 992
2021-07-19 19:59:35 GMT 39.789829 -75.390343 3,900 230 256 1664
2021-07-19 19:59:33 GMT 39.790588 -75.389160 3,900 230 256 1664
2021-07-19 19:59:32 GMT 39.791351 -75.387978 3,900 230 256 1664
2021-07-19 19:59:31 GMT 39.792130 -75.386719 3,700 231 251 1664
2021-07-19 19:59:29 GMT 39.793610 -75.384392 3,700 231 251 1664
2021-07-19 19:59:28 GMT 39.794350 -75.383232 3,700 231 251 1664
2021-07-19 19:59:26 GMT 39.796009 -75.381180 3,700 232 250 1664
2021-07-19 19:59:25 GMT 39.796719 -75.379997 3,700 232 250 1664
2021-07-19 19:59:24 GMT 39.797428 -75.378807 3,700 232 250 1664
2021-07-19 19:59:22 GMT 39.799122 -75.376442 3,600 233 240 1664
2021-07-19 19:59:21 GMT 39.799789 -75.375282 3,600 233 240 1664
2021-07-19 19:59:19 GMT 39.801121 -75.372963 3,600 233 240 1664
2021-07-19 19:59:18 GMT 39.801781 -75.371803 3,600 233 240 1664
2021-07-19 19:59:16 GMT 39.803471 -75.369278 3,300 233 226 1664
2021-07-19 19:59:15 GMT 39.804081 -75.368179 3,300 233 226 1664
2021-07-19 19:59:13 GMT 39.805168 -75.365463 3,300 230 220 1664
2021-07-19 19:59:12 GMT 39.805809 -75.364441 3,300 230 220 1664
2021-07-19 19:59:11 GMT 39.806461 -75.363411 3,300 230 220 1664
2021-07-19 19:59:10 GMT 39.807098 -75.362381 3,300 230 220 1664
2021-07-19 19:59:09 GMT 39.808189 -75.360313 3,200 229 223 1664
2021-07-19 19:59:07 GMT 39.808861 -75.359291 3,200 229 223 1664
2021-07-19 19:59:06 GMT 39.809528 -75.358261 3,200 229 223 1664
2021-07-19 19:59:04 GMT 39.810871 -75.356209 3,200 229 223 1664
2021-07-19 19:59:03 GMT 39.812092 -75.354240 3,000 229 230 1664
2021-07-19 19:59:01 GMT 39.812790 -75.353203 3,000 229 230 1664
2021-07-19 19:59:00 GMT 39.813480 -75.352150 3,000 229 230 1664
2021-07-19 19:58:59 GMT 39.814190 -75.351089 2,800 229 229 1664
2021-07-19 19:58:58 GMT 39.814899 -75.350060 2,800 229 228 1664
2021-07-19 19:58:56 GMT 39.816269 -75.347977 2,800 230 227 1664
2021-07-19 19:58:55 GMT 39.816971 -75.346962 2,800 230 227 1664
2021-07-19 19:58:54 GMT 39.817619 -75.345909 2,500 230 228 1664
2021-07-19 19:58:52 GMT 39.818989 -75.343773 2,500 229 227 1664
2021-07-19 19:58:51 GMT 39.819618 -75.342773 2,500 229 230 1664
2021-07-19 19:58:50 GMT 39.820999 -75.340660 2,500 230 228 1664
2021-07-19 19:58:48 GMT 39.821709 -75.339592 2,500 230 225 1664
2021-07-19 19:58:47 GMT 39.822460 -75.338470 2,500 230 217 1664
2021-07-19 19:58:46 GMT 39.823669 -75.336517 2,200 230 225 1664
2021-07-19 19:58:44 GMT 39.824322 -75.335449 2,200 230 224 1664
2021-07-19 19:58:43 GMT 39.824989 -75.334419 2,200 230 224 1664
2021-07-19 19:58:41 GMT 39.826340 -75.332314 2,200 230 219 1664
2021-07-19 19:58:40 GMT 39.826981 -75.331291 2,200 230 219 1664
2021-07-19 19:58:38 GMT 39.828232 -75.329308 2,200 230 225 1664
2021-07-19 19:58:37 GMT 39.828911 -75.328239 2,200 230 220 1664
2021-07-19 19:58:35 GMT 39.830200 -75.326187 2,100 230 218 1664
2021-07-19 19:58:34 GMT 39.830872 -75.325142 2,100 230 215 2304
2021-07-19 19:58:32 GMT 39.832150 -75.323151 2,100 230 213 2304
2021-07-19 19:58:31 GMT 39.832771 -75.322144 2,000 230 212 2304
2021-07-19 19:58:30 GMT 39.833408 -75.321136 2,000 230 211 2304
2021-07-19 19:58:29 GMT 39.834709 -75.319099 2,000 231 203 2304
2021-07-19 19:58:27 GMT 39.835312 -75.318130 1,900 230 202 2304
2021-07-19 19:58:26 GMT 39.835892 -75.317253 1,900 231 206 2304
2021-07-19 19:58:24 GMT 39.837051 -75.315407 1,900 231 211 2304
2021-07-19 19:58:23 GMT 39.837631 -75.314438 1,900 230 212 2304
2021-07-19 19:58:22 GMT 39.838848 -75.312469 1,700 230 209 2304
2021-07-19 19:58:20 GMT 39.839531 -75.311378 1,700 229 200 2304
2021-07-19 19:58:19 GMT 39.840118 -75.310463 1,700 230 200 2304
2021-07-19 19:58:17 GMT 39.841290 -75.308594 1,700 229 196 2304
2021-07-19 19:58:16 GMT 39.841888 -75.307678 1,700 229 194 2304
2021-07-19 19:58:15 GMT 39.843071 -75.305962 1,700 229 195 2304
2021-07-19 19:58:13 GMT 39.843658 -75.305000 1,600 229 193 2304
2021-07-19 19:58:11 GMT 39.844799 -75.303299 1,600 229 195 2304
2021-07-19 19:58:10 GMT 39.845402 -75.302429 1,600 230 194 2304
2021-07-19 19:58:08 GMT 39.847130 -75.299751 1,550 230 189 2304
2021-07-19 19:58:06 GMT 39.847710 -75.298859 1,550 230 186 2304
2021-07-19 19:58:04 GMT 39.848831 -75.297157 1,500 231 182 2304
2021-07-19 19:58:03 GMT 39.849339 -75.296303 1,400 230 181 2304
2021-07-19 19:58:02 GMT 39.849861 -75.295464 1,400 230 182 2304
2021-07-19 19:58:00 GMT 39.850979 -75.293709 1,400 230 173 2304
2021-07-19 19:57:59 GMT 39.851479 -75.292892 1,375 229 170 2304
2021-07-19 19:57:58 GMT 39.852428 -75.291367 1,275 227 179 2304
2021-07-19 19:57:56 GMT 39.852970 -75.290520 1,275 227 177 2304
2021-07-19 19:57:54 GMT 39.854050 -75.288841 1,175 226 171 2304
2021-07-19 19:57:53 GMT 39.854549 -75.288094 1,175 226 173 2304
2021-07-19 19:57:52 GMT 39.855598 -75.286598 1,100 228 176 2304
2021-07-19 19:57:50 GMT 39.856049 -75.285820 1,050 228 179 2304
2021-07-19 19:57:49 GMT 39.856579 -75.285019 1,050 230 177 2304
2021-07-19 19:57:47 GMT 39.857750 -75.283401 875 237 167 2304
2021-07-19 19:57:46 GMT 39.858150 -75.282707 875 239 172 2304
2021-07-19 19:57:45 GMT 39.858551 -75.281799 875 241 169 2304
2021-07-19 19:57:43 GMT 39.859402 -75.279999 875 247 162 2304
2021-07-19 19:57:42 GMT 39.859730 -75.279121 825 249 161 2304
2021-07-19 19:57:40 GMT 39.860310 -75.277321 775 254 160 2304
2021-07-19 19:57:39 GMT 39.860489 -75.276421 750 253 162 2304
2021-07-19 19:57:38 GMT 39.860710 -75.275497 675 253 162 2304
2021-07-19 19:57:37 GMT 39.861172 -75.273682 550 256 164 2304
2021-07-19 19:57:35 GMT 39.861359 -75.272667 550 256 156 2304
2021-07-19 19:57:34 GMT 39.861710 -75.270859 525 256 159 224
2021-07-19 19:57:32 GMT 39.861881 -75.269890 500 255 153 224
2021-07-19 19:57:31 GMT 39.862030 -75.269012 475 254 159 224
2021-07-19 19:57:30 GMT 39.862419 -75.267197 400 255 160 224
2021-07-19 19:57:28 GMT 39.862579 -75.266289 375 254 163 224
2021-07-19 19:57:27 GMT 39.862782 -75.265327 325 255 157 224
2021-07-19 19:57:25 GMT 39.863140 -75.263519 275 255 158 224
2021-07-19 19:57:24 GMT 39.863331 -75.262604 250 255 156 224
2021-07-19 19:57:22 GMT 39.863689 -75.260780 175 256 151 224
2021-07-19 19:57:21 GMT 39.863869 -75.259933 175 256 156 224
2021-07-19 19:57:20 GMT 39.864182 -75.258133 75 255 155 224
2021-07-19 19:57:18 GMT 39.864361 -75.257210 75 255 150 224
2021-07-19 19:57:17 GMT 39.864529 -75.256371 25 254 154 224
2021-07-19 19:57:16 GMT 39.864700 -75.255501 25 254 154 224
2021-07-19 19:57:14 GMT 39.865082 -75.253731 0 255 150 224
2021-07-19 19:57:13 GMT 39.865261 -75.252838 -25 255 147 -32
2021-07-19 19:57:12 GMT 39.865601 -75.251160 0 255 144 -32
2021-07-19 19:57:10 GMT 39.865768 -75.250320 0 255 142 -32
2021-07-19 19:57:08 GMT 39.866100 -75.248672 25 255 135 -32
2021-07-19 19:57:07 GMT 39.866268 -75.247864 25 255 130 -32
2021-07-19 19:57:06 GMT 39.866421 -75.247124 25 255 130 -32
2021-07-19 19:57:04 GMT 39.866711 -75.245621 25 255 122
2021-07-19 19:57:03 GMT 39.866840 -75.244904 25 254 118
2021-07-19 19:57:02 GMT 39.867119 -75.243584 0 255 112
2021-07-19 19:57:00 GMT 39.867260 -75.242897 0 255 107
2021-07-19 19:56:59 GMT 39.867390 -75.242287 0 255 104
2021-07-19 19:56:57 GMT 39.867619 -75.241089 0 255 96
2021-07-19 19:56:56 GMT 39.867729 -75.240532 0 255 92
2021-07-19 19:56:55 GMT 39.867840 -75.239983 0 255 88
2021-07-19 19:56:53 GMT 39.868050 -75.238968 0 255 80
2021-07-19 19:56:52 GMT 39.868149 -75.238510 0 256 77
2021-07-19 19:56:51 GMT 39.868221 -75.238052 0 254 72
2021-07-19 19:56:49 GMT 39.868389 -75.237221 0 254 63
2021-07-19 19:56:48 GMT 39.868530 -75.236488 0 253 52
2021-07-19 19:56:46 GMT 39.868610 -75.236198 0 254 49
2021-07-19 19:56:45 GMT 39.868671 -75.235901 0 254 43
2021-07-19 19:56:44 GMT 39.868759 -75.235390 0 252 33
2021-07-19 19:56:42 GMT 39.868809 -75.235161 0 252 26
2021-07-19 19:56:41 GMT 39.868870 -75.234947 0 255 19
2021-07-19 19:56:40 GMT 39.868919 -75.234703 0 260 11
2021-07-19 19:56:38 GMT 39.868950 -75.234589 0 260 8
2021-07-19 19:56:37 GMT 39.868950 -75.234512 0 254 5
2021-07-19 19:56:35 GMT 39.868950 -75.234444 0 255 4
2021-07-19 19:56:34 GMT 39.868969 -75.234413 0 255 2
2021-07-19 19:56:31 GMT 39.868969 -75.234383 0 255 1
2021-07-19 19:56:29 GMT 39.868938 -75.234352 0 255 1
2021-07-19 19:56:28 GMT 39.868950 -75.234337 0 255 0
2021-07-19 19:56:26 GMT 39.868961 -75.234329 0 255 1
2021-07-19 19:56:24 GMT 39.868980 -75.234329 0 255 1
2021-07-19 19:56:23 GMT 39.868980 -75.234352 0 255 3
2021-07-19 19:56:21 GMT 39.868961 -75.234306 0 253 1
2021-07-19 19:56:20 GMT 39.868950 -75.234329 0 251 3
2021-07-19 19:56:18 GMT 39.868961 -75.234283 0 254 3
2021-07-19 19:56:17 GMT 39.868980 -75.234268 0 253 3
2021-07-19 19:56:16 GMT 39.868969 -75.234253 0 251 3
2021-07-19 19:56:14 GMT 39.868961 -75.234222 0 234 4
2021-07-19 19:56:13 GMT 39.868969 -75.234192 0 226 3
2021-07-19 19:56:12 GMT 39.869011 -75.234177 0 215 5
2021-07-19 19:56:10 GMT 39.868999 -75.234131 0 214 5
2021-07-19 19:56:08 GMT 39.869041 -75.234100 0 212 4
2021-07-19 19:56:07 GMT 39.869041 -75.234077 0 200 7
2021-07-19 19:56:05 GMT 39.869099 -75.234016 0 182 5
2021-07-19 19:56:04 GMT 39.869110 -75.234016 0 185 6
2021-07-19 19:56:03 GMT 39.869160 -75.234009 0 182 7
2021-07-19 19:56:01 GMT 39.869202 -75.234016 0 182 7
2021-07-19 19:56:00 GMT 39.869240 -75.234009 0 174 5
2021-07-19 19:55:59 GMT 39.869301 -75.234001 0 162 6
2021-07-19 19:55:57 GMT 39.869308 -75.234009 0 168 10
2021-07-19 19:55:56 GMT 39.869381 -75.234039 0 170 5
2021-07-19 19:55:55 GMT 39.869400 -75.234062 0 173 5
2021-07-19 19:55:53 GMT 39.869438 -75.234032 0 160 9
2021-07-19 19:55:52 GMT 39.869469 -75.234039 0 164 11
2021-07-19 19:55:51 GMT 39.869518 -75.234100 0 177 10
2021-07-19 19:55:50 GMT 39.869610 -75.234093 0 170 9
2021-07-19 19:55:48 GMT 39.869659 -75.234108 0 177 8
2021-07-19 19:55:47 GMT 39.869701 -75.234123 0 181 8
2021-07-19 19:55:46 GMT 39.869770 -75.234123 0 182 9
2021-07-19 19:55:44 GMT 39.869808 -75.234123 0 190 9
2021-07-19 19:55:43 GMT 39.869869 -75.234131 0 203 7
2021-07-19 19:55:41 GMT 39.869942 -75.234123 0 213 7
2021-07-19 19:55:40 GMT 39.869980 -75.234093 0 216 6
2021-07-19 19:55:39 GMT 39.870029 -75.234070 0 226 7
2021-07-19 19:55:37 GMT 39.870049 -75.234039 0 226 7
2021-07-19 19:55:36 GMT 39.870071 -75.234009 0 227 8
2021-07-19 19:55:35 GMT 39.870121 -75.233940 0 227 6
2021-07-19 19:55:33 GMT 39.870129 -75.233917 0 227 7
2021-07-19 19:55:32 GMT 39.870159 -75.233887 0 237 7
2021-07-19 19:55:30 GMT 39.870209 -75.233833 0 258 4
2021-07-19 19:55:29 GMT 39.870232 -75.233818 0 248 6
2021-07-19 19:55:27 GMT 39.870209 -75.233688 0 176 3
2021-07-19 19:55:26 GMT 39.870220 -75.233658 0 175 1
2021-07-19 19:55:25 GMT 39.870209 -75.233643 0 173 1
2021-07-19 19:55:23 GMT 39.870232 -75.233627 0 172 1
2021-07-19 19:55:22 GMT 39.870220 -75.233643 0 171 3
2021-07-19 19:55:20 GMT 39.870239 -75.233627 0 171 2
2021-07-19 19:55:18 GMT 39.870258 -75.233597 0 171 0
2021-07-19 19:55:17 GMT 39.870251 -75.233589 0 169 1
2021-07-19 19:55:15 GMT 39.870270 -75.233566 0 169 0
2021-07-19 19:55:13 GMT 39.870281 -75.233589 0 169 1
2021-07-19 19:55:12 GMT 39.870281 -75.233597 0 167 3
2021-07-19 19:55:11 GMT 39.870270 -75.233559 0 165 1
2021-07-19 19:55:10 GMT 39.870270 -75.233551 0 165 1
2021-07-19 19:55:06 GMT 39.870258 -75.233528 0 163 1
2021-07-19 19:55:04 GMT 39.870270 -75.233521 0 163 0
2021-07-19 19:55:03 GMT 39.870258 -75.233521 0 163 0
2021-07-19 19:54:59 GMT 39.870258 -75.233528 0 163 1
2021-07-19 19:54:57 GMT 39.870258 -75.233513 0 164 2
2021-07-19 19:54:56 GMT 39.870251 -75.233490 0 167 4
2021-07-19 19:54:55 GMT 39.870239 -75.233498 0 195 7
2021-07-19 19:54:53 GMT 39.870300 -75.233551 0 267 4
2021-07-19 19:54:52 GMT 39.870319 -75.233650 0 267 2
2021-07-19 19:54:51 GMT 39.870319 -75.233757 0 261 8
2021-07-19 19:54:50 GMT 39.870300 -75.233566 0 228 1
2021-07-19 19:54:48 GMT 39.870300 -75.233559 0 226 2
2021-07-19 19:54:47 GMT 39.870270 -75.233559 0 220 0
2021-07-19 19:54:41 GMT 39.870258 -75.233551 0 220 0
2021-07-19 19:54:40 GMT 39.870251 -75.233543 0 220 1
2021-07-19 19:54:36 GMT 39.870251 -75.233551 0 221 0
2021-07-19 19:54:35 GMT 39.870258 -75.233543 0 221 1
2021-07-19 19:54:33 GMT 39.870270 -75.233543 0 221 0
2021-07-19 19:54:31 GMT 39.870258 -75.233543 0 220 0
2021-07-19 19:54:28 GMT 39.870258 -75.233528 0 220 0
2021-07-19 19:54:24 GMT 39.870270 -75.233543 0 220 0
2021-07-19 19:54:23 GMT 39.870270 -75.233551 0 222 0
2021-07-19 19:54:22 GMT 39.870281 -75.233551 0 222 0
2021-07-19 19:54:20 GMT 39.870258 -75.233551 0 222 2
2021-07-19 19:54:18 GMT 39.870281 -75.233551 0 222 0
2021-07-19 19:54:16 GMT 39.870289 -75.233551 0 230 0
2021-07-19 19:54:15 GMT 39.870289 -75.233566 0 230 1
2021-07-19 19:54:14 GMT 39.870289 -75.233582 0 230 0
2021-07-19 19:54:12 GMT 39.870300 -75.233582 0 226 3
2021-07-19 19:54:11 GMT 39.870270 -75.233589 0 226 0
2021-07-19 19:54:10 GMT 39.870258 -75.233566 0 231 2
2021-07-19 19:54:08 GMT 39.870251 -75.233566 0 242 4
2021-07-19 19:54:07 GMT 39.870312 -75.233597 0 295 1
2021-07-19 19:54:05 GMT 39.870312 -75.233627 0 294 2
2021-07-19 19:54:04 GMT 39.870331 -75.233627 0 284 5
2021-07-19 19:54:02 GMT 39.870281 -75.233612 0 257 3
2021-07-19 19:54:01 GMT 39.870281 -75.233566 0 254 1
2021-07-19 19:54:00 GMT 39.870258 -75.233582 0 253 2
2021-07-19 19:53:58 GMT 39.870251 -75.233566 0 260 4
2021-07-19 19:53:57 GMT 39.870270 -75.233521 0 260 0
2021-07-19 19:53:55 GMT 39.870270 -75.233498 0 260 0
2021-07-19 19:53:54 GMT 39.870281 -75.233513 0 260 0
2021-07-19 19:53:53 GMT 39.870281 -75.233498 0 260 0
2021-07-19 19:53:51 GMT 39.870289 -75.233513 0 260 2
2021-07-19 19:53:50 GMT 39.870281 -75.233490 0 260 1
2021-07-19 19:53:49 GMT 39.870270 -75.233482 0 260 0
2021-07-19 19:53:48 GMT 39.870281 -75.233498 0 258 3
2021-07-19 19:53:46 GMT 39.870281 -75.233498 0 257 4
2021-07-19 19:53:45 GMT 39.870281 -75.233437 0 256 0
2021-07-19 19:53:43 GMT 39.870281 -75.233437 0 255 0
2021-07-19 19:53:41 GMT 39.870281 -75.233452 0 255 2
2021-07-19 19:53:40 GMT 39.870281 -75.233421 0 255 1
2021-07-19 19:53:39 GMT 39.870289 -75.233429 0 254 3
2021-07-19 19:53:38 GMT 39.870270 -75.233398 0 254 2
2021-07-19 19:53:36 GMT 39.870281 -75.233398 0 257 3
2021-07-19 19:53:35 GMT 39.870300 -75.233383 0 261 2
2021-07-19 19:53:34 GMT 39.870300 -75.233353 0 263 3
2021-07-19 19:53:32 GMT 39.870312 -75.233360 0 255 5
2021-07-19 19:53:31 GMT 39.870289 -75.233330 0 243 7
2021-07-19 19:53:30 GMT 39.870300 -75.233276 0 236 5
2021-07-19 19:53:28 GMT 39.870331 -75.233223 0 241 6
2021-07-19 19:53:26 GMT 39.870350 -75.233177 0 242 6
2021-07-19 19:53:25 GMT 39.870369 -75.233131 0 246 5
2021-07-19 19:53:23 GMT 39.870399 -75.233109 0 257 8
2021-07-19 19:53:22 GMT 39.870419 -75.233063 0 257 8
2021-07-19 19:53:21 GMT 39.870411 -75.232964 0 240 6
2021-07-19 19:53:19 GMT 39.870411 -75.232933 0 237 10
2021-07-19 19:53:18 GMT 39.870430 -75.232887 0 242 9
2021-07-19 19:53:16 GMT 39.870491 -75.232803 0 246 7
2021-07-19 19:53:15 GMT 39.870522 -75.232742 0 241 3
2021-07-19 19:53:13 GMT 39.870522 -75.232712 0 254 6
2021-07-19 19:53:12 GMT 39.870529 -75.232620 0 279 5
2021-07-19 19:53:10 GMT 39.870541 -75.232597 0 290 5
2021-07-19 19:53:09 GMT 39.870560 -75.232536 0 323 4
2021-07-19 19:53:07 GMT 39.870590 -75.232513 0 331 3
2021-07-19 19:53:06 GMT 39.870602 -75.232498 0 332 3
2021-07-19 19:53:05 GMT 39.870621 -75.232452 0 334 0
2021-07-19 19:53:03 GMT 39.870621 -75.232460 0 334 0
2021-07-19 19:53:02 GMT 39.870651 -75.232407 0 333 1
2021-07-19 19:53:00 GMT 39.870640 -75.232452 0 331 0
2021-07-19 19:52:59 GMT 39.870628 -75.232452 0 330 0
2021-07-19 19:52:58 GMT 39.870628 -75.232460 0 329 1
2021-07-19 19:52:56 GMT 39.870621 -75.232498 0 330 3
2021-07-19 19:52:55 GMT 39.870602 -75.232513 0 332 4
2021-07-19 19:52:53 GMT 39.870609 -75.232430 0 332 1
2021-07-19 19:52:52 GMT 39.870651 -75.232368 0 327 2
2021-07-19 19:52:51 GMT 39.870628 -75.232407 0 325 2
2021-07-19 19:52:49 GMT 39.870628 -75.232430 0 324 2
2021-07-19 19:52:48 GMT 39.870628 -75.232437 0 324 2
2021-07-19 19:52:47 GMT 39.870659 -75.232437 0 324 1
2021-07-19 19:52:45 GMT 39.870659 -75.232452 0 324 1
2021-07-19 19:52:43 GMT 39.870651 -75.232452 0 324 1
2021-07-19 19:52:42 GMT 39.870651 -75.232391 0 322 2
2021-07-19 19:52:41 GMT 39.870640 -75.232391 0 322 2
2021-07-19 19:52:39 GMT 39.870621 -75.232422 0 322 0
2021-07-19 19:52:38 GMT 39.870609 -75.232430 0 322 0
2021-07-19 19:52:36 GMT 39.870621 -75.232437 0 320 0
2021-07-19 19:52:33 GMT 39.870621 -75.232452 0 320 0
2021-07-19 19:52:32 GMT 39.870640 -75.232430 0 320 0
2021-07-19 19:52:30 GMT 39.870628 -75.232437 0 320 0
2021-07-19 19:52:26 GMT 39.870628 -75.232437 0 320 0
2021-07-19 19:52:25 GMT 39.870628 -75.232430 0 320 1
2021-07-19 19:52:24 GMT 39.870640 -75.232460 0 318 0
2021-07-19 19:52:23 GMT 39.870628 -75.232468 0 318 0
2021-07-19 19:52:21 GMT 39.870628 -75.232468 0 318 0
2021-07-19 19:52:19 GMT 39.870628 -75.232407 0 318 0
2021-07-19 19:52:18 GMT 39.870621 -75.232407 0 318 0
2021-07-19 19:52:17 GMT 39.870628 -75.232407 0 317 0
2021-07-19 19:52:15 GMT 39.870621 -75.232437 0 317 0
2021-07-19 19:52:13 GMT 39.870628 -75.232437 0 317 1
2021-07-19 19:52:11 GMT 39.870590 -75.232430 0 317 2
2021-07-19 19:52:10 GMT 39.870609 -75.232391 0 315 2
2021-07-19 19:52:09 GMT 39.870609 -75.232399 0 313 2
2021-07-19 19:52:07 GMT 39.870651 -75.232437 0 312 1
2021-07-19 19:52:06 GMT 39.870659 -75.232483 0 311 3
2021-07-19 19:52:04 GMT 39.870621 -75.232437 0 311 0
2021-07-19 19:52:02 GMT 39.870609 -75.232430 0 311 0
2021-07-19 19:51:59 GMT 39.870628 -75.232452 0 310 0
2021-07-19 19:51:57 GMT 39.870621 -75.232452 0 310 0
2021-07-19 19:51:56 GMT 39.870621 -75.232460 0 310 1
2021-07-19 19:51:55 GMT 39.870621 -75.232452 0 310 1
2021-07-19 19:51:52 GMT 39.870609 -75.232460 0 310 0
2021-07-19 19:51:49 GMT 39.870621 -75.232430 0 310 0
2021-07-19 19:51:48 GMT 39.870609 -75.232452 0 310 1
2021-07-19 19:51:47 GMT 39.870609 -75.232422 0 310 0
2021-07-19 19:51:46 GMT 39.870602 -75.232407 0 311 1
2021-07-19 19:51:43 GMT 39.870602 -75.232407 0 316 2
2021-07-19 19:51:41 GMT 39.870609 -75.232391 0 316 4
2021-07-19 19:51:40 GMT 39.870670 -75.232391 0 288 5
2021-07-19 19:51:39 GMT 39.870659 -75.232422 0 253 5
2021-07-19 19:51:37 GMT 39.870640 -75.232513 0 249 0
2021-07-19 19:51:36 GMT 39.870640 -75.232582 0 245 5
2021-07-19 19:51:35 GMT 39.870628 -75.232521 0 237 3
2021-07-19 19:51:33 GMT 39.870640 -75.232483 0 234 2
2021-07-19 19:51:32 GMT 39.870621 -75.232407 0 234 0
2021-07-19 19:51:30 GMT 39.870609 -75.232407 0 234 1
2021-07-19 19:51:29 GMT 39.870628 -75.232399 0 234 1
2021-07-19 19:51:28 GMT 39.870628 -75.232422 0 241 1
2021-07-19 19:51:26 GMT 39.870628 -75.232422 0 242 0
2021-07-19 19:51:24 GMT 39.870640 -75.232422 0 249 1
2021-07-19 19:51:22 GMT 39.870621 -75.232498 0 252 1
2021-07-19 19:51:21 GMT 39.870621 -75.232521 0 252 2
2021-07-19 19:51:20 GMT 39.870621 -75.232498 0 252 2
2021-07-19 19:51:18 GMT 39.870651 -75.232483 0 253 2
2021-07-19 19:51:17 GMT 39.870628 -75.232521 0 251 4
2021-07-19 19:51:16 GMT 39.870628 -75.232498 0 249 3
2021-07-19 19:51:14 GMT 39.870609 -75.232430 0 245 2
2021-07-19 19:51:13 GMT 39.870602 -75.232368 0 245 0
2021-07-19 19:51:12 GMT 39.870602 -75.232384 0 245 1
2021-07-19 19:51:10 GMT 39.870602 -75.232384 0 245 2
2021-07-19 19:51:09 GMT 39.870579 -75.232307 0 246 3
2021-07-19 19:51:08 GMT 39.870602 -75.232368 0 254 2
2021-07-19 19:51:05 GMT 39.870609 -75.232422 0 254 0
2021-07-19 19:51:02 GMT 39.870609 -75.232422 0 254 0
2021-07-19 19:51:00 GMT 39.870621 -75.232430 0 254 0
2021-07-19 19:50:59 GMT 39.870621 -75.232437 0 254 0
2021-07-19 19:50:58 GMT 39.870621 -75.232430 0 254 0
2021-07-19 19:50:56 GMT 39.870640 -75.232422 0 254 0
2021-07-19 19:50:54 GMT 39.870640 -75.232430 0 254 1
2021-07-19 19:50:52 GMT 39.870609 -75.232452 0 251 0
2021-07-19 19:50:51 GMT 39.870609 -75.232460 0 251 0
2021-07-19 19:50:50 GMT 39.870628 -75.232437 0 251 0
2021-07-19 19:50:48 GMT 39.870628 -75.232407 0 251 0
2021-07-19 19:50:45 GMT 39.870628 -75.232422 0 251 0
2021-07-19 19:50:44 GMT 39.870628 -75.232407 0 250 1
2021-07-19 19:50:42 GMT 39.870621 -75.232407 0 250 2
2021-07-19 19:50:41 GMT 39.870621 -75.232422 0 250 2
2021-07-19 19:50:39 GMT 39.870621 -75.232483 0 250 1
2021-07-19 19:50:36 GMT 39.870621 -75.232422 0 250 0
2021-07-19 19:50:34 GMT 39.870628 -75.232430 0 250 0
2021-07-19 19:50:33 GMT 39.870621 -75.232498 0 249 2
2021-07-19 19:50:29 GMT 39.870628 -75.232430 0 249 0
2021-07-19 19:50:27 GMT 39.870628 -75.232437 0 249 0
2021-07-19 19:50:24 GMT 39.870628 -75.232430 0 249 0
2021-07-19 19:50:23 GMT 39.870621 -75.232437 0 249 0
2021-07-19 19:50:22 GMT 39.870628 -75.232437 0 249 1
2021-07-19 19:50:21 GMT 39.870621 -75.232460 0 249 0
2021-07-19 19:50:19 GMT 39.870621 -75.232452 0 249 1
2021-07-19 19:50:17 GMT 39.870628 -75.232452 0 249 0
2021-07-19 19:50:16 GMT 39.870640 -75.232468 0 248 2
2021-07-19 19:50:14 GMT 39.870628 -75.232422 0 248 0
2021-07-19 19:50:13 GMT 39.870609 -75.232430 0 248 1
2021-07-19 19:50:11 GMT 39.870590 -75.232437 0 249 3
2021-07-19 19:50:10 GMT 39.870609 -75.232430 0 249 1
2021-07-19 19:50:06 GMT 39.870621 -75.232430 0 249 0
2021-07-19 19:50:04 GMT 39.870628 -75.232430 0 249 0
2021-07-19 19:50:03 GMT 39.870621 -75.232422 0 249 0
2021-07-19 19:50:01 GMT 39.870640 -75.232399 0 249 1
2021-07-19 19:50:00 GMT 39.870628 -75.232422 0 247 0
2021-07-19 19:49:59 GMT 39.870640 -75.232391 0 245 1
2021-07-19 19:49:57 GMT 39.870640 -75.232391 0 240 2
2021-07-19 19:49:56 GMT 39.870628 -75.232422 0 240 0
2021-07-19 19:49:55 GMT 39.870628 -75.232422 0 240 2
2021-07-19 19:49:53 GMT 39.870609 -75.232430 0 242 0
2021-07-19 19:49:52 GMT 39.870609 -75.232437 0 242 0
2021-07-19 19:49:51 GMT 39.870621 -75.232460 0 242 1
2021-07-19 19:49:47 GMT 39.870621 -75.232430 0 242 0
2021-07-19 19:49:46 GMT 39.870628 -75.232430 0 242 0
2021-07-19 19:49:44 GMT 39.870621 -75.232430 0 242 0
2021-07-19 19:49:43 GMT 39.870571 -75.232452 0 243 3
2021-07-19 19:49:41 GMT 39.870579 -75.232437 0 243 3
2021-07-19 19:49:40 GMT 39.870628 -75.232430 0 243 0
2021-07-19 19:49:39 GMT 39.870628 -75.232430 0 245 1
2021-07-19 19:49:37 GMT 39.870628 -75.232430 0 248 1
2021-07-19 19:49:36 GMT 39.870651 -75.232407 0 247 2
2021-07-19 19:49:34 GMT 39.870651 -75.232422 0 245 2
2021-07-19 19:49:33 GMT 39.870640 -75.232422 0 245 2
2021-07-19 19:49:31 GMT 39.870621 -75.232498 0 245 2
2021-07-19 19:49:30 GMT 39.870621 -75.232491 0 245 2
2021-07-19 19:49:28 GMT 39.870628 -75.232460 0 244 1
2021-07-19 19:49:27 GMT 39.870609 -75.232498 0 244 2
2021-07-19 19:49:26 GMT 39.870621 -75.232513 0 244 2
2021-07-19 19:49:24 GMT 39.870628 -75.232460 0 244 0
2021-07-19 19:49:23 GMT 39.870628 -75.232452 0 244 0
2021-07-19 19:49:22 GMT 39.870621 -75.232430 0 244 0
2021-07-19 19:49:19 GMT 39.870628 -75.232430 0 244 0
2021-07-19 19:49:15 GMT 39.870621 -75.232437 0 243 0
2021-07-19 19:49:14 GMT 39.870621 -75.232437 0 243 0
2021-07-19 19:49:07 GMT 39.870609 -75.232430 0 244 0
2021-07-19 19:49:05 GMT 39.870602 -75.232407 0 244 2
2021-07-19 19:49:04 GMT 39.870628 -75.232422 0 244 0
2021-07-19 19:49:03 GMT 39.870628 -75.232407 0 244 0
2021-07-19 19:49:00 GMT 39.870628 -75.232407 0 245 0
2021-07-19 19:48:58 GMT 39.870628 -75.232407 0 245 0
2021-07-19 19:48:57 GMT 39.870640 -75.232399 0 245 0
2021-07-19 19:48:53 GMT 39.870628 -75.232399 0 245 1
2021-07-19 19:48:52 GMT 39.870640 -75.232384 0 247 0
2021-07-19 19:48:51 GMT 39.870651 -75.232384 0 247 0
2021-07-19 19:48:50 GMT 39.870651 -75.232391 0 247 0
2021-07-19 19:48:46 GMT 39.870651 -75.232391 0 247 2
2021-07-19 19:48:45 GMT 39.870670 -75.232384 0 256 1
2021-07-19 19:48:44 GMT 39.870682 -75.232384 0 257 2
2021-07-19 19:48:43 GMT 39.870689 -75.232368 0 257 3
2021-07-19 19:48:41 GMT 39.870682 -75.232338 0 241 4
2021-07-19 19:48:40 GMT 39.870670 -75.232323 0 239 4
2021-07-19 19:48:39 GMT 39.870701 -75.232269 0 233 3
2021-07-19 19:48:37 GMT 39.870708 -75.232239 0 233 1
2021-07-19 19:48:36 GMT 39.870708 -75.232239 0 240 3
2021-07-19 19:48:34 GMT 39.870739 -75.232239 0 238 3
2021-07-19 19:48:32 GMT 39.870739 -75.232208 0 231 3
2021-07-19 19:48:31 GMT 39.870731 -75.232193 0 226 4
2021-07-19 19:48:30 GMT 39.870750 -75.232147 0 232 5
2021-07-19 19:48:28 GMT 39.870781 -75.232132 0 234 4
2021-07-19 19:48:27 GMT 39.870811 -75.232109 0 241 5
2021-07-19 19:48:25 GMT 39.870811 -75.232071 0 230 4
2021-07-19 19:48:24 GMT 39.870831 -75.232048 0 226 4
2021-07-19 19:48:23 GMT 39.870819 -75.232040 0 215 6
2021-07-19 19:48:21 GMT 39.870869 -75.231956 0 205 4
2021-07-19 19:48:20 GMT 39.870869 -75.231972 0 211 6
2021-07-19 19:48:18 GMT 39.870918 -75.231934 0 217 5
2021-07-19 19:48:16 GMT 39.870979 -75.231911 0 234 5
2021-07-19 19:48:14 GMT 39.870998 -75.231880 0 240 4
2021-07-19 19:48:13 GMT 39.870998 -75.231842 0 215 3
2021-07-19 19:48:12 GMT 39.870998 -75.231819 0 216 7
2021-07-19 19:48:10 GMT 39.871052 -75.231812 0 224 5
2021-07-19 19:48:08 GMT 39.871071 -75.231750 0 209 5
2021-07-19 19:48:07 GMT 39.871101 -75.231728 0 214 3
2021-07-19 19:48:06 GMT 39.871109 -75.231728 0 221 4
2021-07-19 19:48:04 GMT 39.871151 -75.231712 0 233 7
2021-07-19 19:48:03 GMT 39.871181 -75.231659 0 240 7
2021-07-19 19:48:01 GMT 39.871208 -75.231621 0 241 5
2021-07-19 19:48:00 GMT 39.871220 -75.231613 0 242 6
2021-07-19 19:47:58 GMT 39.871231 -75.231537 0 237 9
2021-07-19 19:47:57 GMT 39.871269 -75.231491 0 243 6
2021-07-19 19:47:56 GMT 39.871269 -75.231461 0 245 6
2021-07-19 19:47:54 GMT 39.871319 -75.231392 0 255 6
2021-07-19 19:47:53 GMT 39.871311 -75.231361 0 246 7
2021-07-19 19:47:51 GMT 39.871330 -75.231277 0 245 7
2021-07-19 19:47:50 GMT 39.871361 -75.231239 0 254 7
2021-07-19 19:47:49 GMT 39.871368 -75.231201 0 260 6
2021-07-19 19:47:47 GMT 39.871391 -75.231148 0 259 10
2021-07-19 19:47:45 GMT 39.871399 -75.231071 0 258 12
2021-07-19 19:47:44 GMT 39.871410 -75.230957 0 253 8
2021-07-19 19:47:43 GMT 39.871399 -75.230904 0 249 8
2021-07-19 19:47:41 GMT 39.871441 -75.230827 0 259 11
2021-07-19 19:47:40 GMT 39.871460 -75.230782 0 261 11
2021-07-19 19:47:38 GMT 39.871471 -75.230629 0 255 11
2021-07-19 19:47:37 GMT 39.871471 -75.230560 0 247 10
2021-07-19 19:47:36 GMT 39.871479 -75.230492 0 253 9
2021-07-19 19:47:34 GMT 39.871529 -75.230400 0 246 9
2021-07-19 19:47:33 GMT 39.871529 -75.230339 0 238 9
2021-07-19 19:47:32 GMT 39.871521 -75.230278 0 228 10
2021-07-19 19:47:30 GMT 39.871590 -75.230186 0 227 11
2021-07-19 19:47:29 GMT 39.871620 -75.230110 0 221 9
2021-07-19 19:47:28 GMT 39.871651 -75.230087 0 217 10
2021-07-19 19:47:26 GMT 39.871700 -75.229988 0 197 11
2021-07-19 19:47:25 GMT 39.871761 -75.229950 0 188 9
2021-07-19 19:47:24 GMT 39.871830 -75.229919 0 178 10
2021-07-19 19:47:22 GMT 39.871868 -75.229897 0 170 10
2021-07-19 19:47:21 GMT 39.871910 -75.229889 0 167 10
2021-07-19 19:47:20 GMT 39.872002 -75.229919 0 168 10
2021-07-19 19:47:18 GMT 39.872051 -75.229919 0 167 9
2021-07-19 19:47:17 GMT 39.872108 -75.229942 0 163 13
2021-07-19 19:47:15 GMT 39.872181 -75.229927 0 154 12
2021-07-19 19:47:13 GMT 39.872269 -75.229988 0 154 13
2021-07-19 19:47:12 GMT 39.872311 -75.230026 0 161 14
2021-07-19 19:47:11 GMT 39.872452 -75.230087 0 160 12
2021-07-19 19:47:09 GMT 39.872478 -75.230110 0 162 14
2021-07-19 19:47:08 GMT 39.872520 -75.230133 0 162 17
2021-07-19 19:47:06 GMT 39.872669 -75.230186 0 157 17
2021-07-19 19:47:05 GMT 39.872742 -75.230240 0 161 17
2021-07-19 19:47:04 GMT 39.872910 -75.230309 0 157 16
2021-07-19 19:47:02 GMT 39.872978 -75.230339 0 156 15
2021-07-19 19:47:01 GMT 39.873039 -75.230362 0 153 16
2021-07-19 19:47:00 GMT 39.873112 -75.230438 0 163 15
2021-07-19 19:46:58 GMT 39.873260 -75.230499 0 166 14
2021-07-19 19:46:57 GMT 39.873379 -75.230507 0 160 13
2021-07-19 19:46:55 GMT 39.873428 -75.230553 0 162 15
2021-07-19 19:46:54 GMT 39.873520 -75.230568 0 156 9
2021-07-19 19:46:52 GMT 39.873589 -75.230621 0 158 13
2021-07-19 19:46:51 GMT 39.873631 -75.230637 0 160 15
2021-07-19 19:46:50 GMT 39.873779 -75.230713 0 155 12
2021-07-19 19:46:48 GMT 39.873840 -75.230743 0 154 10
2021-07-19 19:46:47 GMT 39.873871 -75.230766 0 156 12
2021-07-19 19:46:45 GMT 39.873970 -75.230827 0 157 11
2021-07-19 19:46:44 GMT 39.874008 -75.230858 0 160 12
2021-07-19 19:46:43 GMT 39.874111 -75.230919 0 167 11
2021-07-19 19:46:41 GMT 39.874161 -75.230927 0 163 12
2021-07-19 19:46:40 GMT 39.874222 -75.230949 0 157 11
2021-07-19 19:46:38 GMT 39.874352 -75.230972 0 150 7
2021-07-19 19:46:37 GMT 39.874371 -75.231033 0 164 5
2021-07-19 19:46:36 GMT 39.874390 -75.231041 0 165 6
2021-07-19 19:46:35 GMT 39.874451 -75.231041 0 159 7
2021-07-19 19:46:33 GMT 39.874489 -75.231087 0 169 6
2021-07-19 19:46:31 GMT 39.874580 -75.231133 0 170 2
2021-07-19 19:46:30 GMT 39.874599 -75.231133 0 170 2
2021-07-19 19:46:29 GMT 39.874599 -75.231117 0 170 2
2021-07-19 19:46:27 GMT 39.874630 -75.231140 0 171 1
2021-07-19 19:46:24 GMT 39.874649 -75.231163 0 170 0
2021-07-19 19:46:23 GMT 39.874660 -75.231148 0 170 0
2021-07-19 19:46:20 GMT 39.874660 -75.231163 0 170 0
2021-07-19 19:46:17 GMT 39.874660 -75.231148 0 170 0
2021-07-19 19:46:10 GMT 39.874660 -75.231163 0 170 0
2021-07-19 19:46:09 GMT 39.874649 -75.231163 0 170 0
2021-07-19 19:46:07 GMT 39.874660 -75.231171 0 170 0
2021-07-19 19:46:04 GMT 39.874668 -75.231178 0 171 0
2021-07-19 19:45:59 GMT 39.874660 -75.231148 0 171 0
2021-07-19 19:45:58 GMT 39.874668 -75.231148 0 171 0
2021-07-19 19:45:57 GMT 39.874668 -75.231171 0 171 0
2021-07-19 19:45:49 GMT 39.874668 -75.231163 0 171 0
2021-07-19 19:45:48 GMT 39.874660 -75.231163 0 171 0
2021-07-19 19:45:46 GMT 39.874668 -75.231171 0 173 0
2021-07-19 19:45:43 GMT 39.874668 -75.231163 0 173 0
2021-07-19 19:45:42 GMT 39.874668 -75.231171 0 173 0
2021-07-19 19:45:41 GMT 39.874668 -75.231163 0 173 0
2021-07-19 19:45:40 GMT 39.874660 -75.231163 0 173 0
2021-07-19 19:45:38 GMT 39.874680 -75.231178 0 173 0
2021-07-19 19:45:37 GMT 39.874680 -75.231194 0 173 1
2021-07-19 19:45:35 GMT 39.874649 -75.231171 0 178 2
2021-07-19 19:45:34 GMT 39.874680 -75.231194 0 179 0
2021-07-19 19:45:33 GMT 39.874668 -75.231194 0 179 1
2021-07-19 19:45:31 GMT 39.874649 -75.231194 0 179 1
2021-07-19 19:45:30 GMT 39.874668 -75.231194 0 178 1
2021-07-19 19:45:28 GMT 39.874691 -75.231201 0 178 0
2021-07-19 19:45:27 GMT 39.874699 -75.231209 0 174 2
2021-07-19 19:45:25 GMT 39.874699 -75.231201 0 168 3
2021-07-19 19:45:24 GMT 39.874668 -75.231194 0 168 0
2021-07-19 19:45:23 GMT 39.874660 -75.231194 0 168 1
2021-07-19 19:45:22 GMT 39.874649 -75.231194 0 168 1
2021-07-19 19:45:20 GMT 39.874630 -75.231194 0 166 3
2021-07-19 19:45:18 GMT 39.874680 -75.231178 0 160 0
2021-07-19 19:45:17 GMT 39.874668 -75.231178 0 160 0
2021-07-19 19:45:16 GMT 39.874680 -75.231194 0 160 0
2021-07-19 19:45:15 GMT 39.874680 -75.231178 0 159 0
2021-07-19 19:45:13 GMT 39.874691 -75.231178 0 159 0
2021-07-19 19:45:12 GMT 39.874680 -75.231194 0 159 1
2021-07-19 19:45:11 GMT 39.874660 -75.231148 0 158 4
2021-07-19 19:45:08 GMT 39.874699 -75.231178 0 157 2
2021-07-19 19:45:06 GMT 39.874710 -75.231171 0 156 2
2021-07-19 19:45:05 GMT 39.874722 -75.231178 0 155 2
2021-07-19 19:45:04 GMT 39.874722 -75.231171 0 162 5
2021-07-19 19:45:02 GMT 39.874729 -75.231201 0 173 6
2021-07-19 19:45:01 GMT 39.874771 -75.231209 0 179 4
2021-07-19 19:44:59 GMT 39.874821 -75.231232 0 182 0
2021-07-19 19:44:58 GMT 39.874828 -75.231209 0 182 3
2021-07-19 19:44:56 GMT 39.874840 -75.231270 0 182 2
2021-07-19 19:44:55 GMT 39.874828 -75.231239 0 165 6
2021-07-19 19:44:54 GMT 39.874851 -75.231201 0 156 8
2021-07-19 19:44:53 GMT 39.874882 -75.231239 0 157 7
2021-07-19 19:44:51 GMT 39.874920 -75.231232 0 153 12
2021-07-19 19:44:50 GMT 39.874981 -75.231277 0 151 10
2021-07-19 19:44:49 GMT 39.875038 -75.231308 0 153 9
2021-07-19 19:44:48 GMT 39.875092 -75.231361 0 150 13
2021-07-19 19:44:46 GMT 39.875149 -75.231377 0 148 13
2021-07-19 19:44:45 GMT 39.875198 -75.231422 0 153 14
2021-07-19 19:44:43 GMT 39.875301 -75.231522 0 158 11
2021-07-19 19:44:42 GMT 39.875351 -75.231522 0 152 12
2021-07-19 19:44:40 GMT 39.875462 -75.231590 0 157 11
2021-07-19 19:44:39 GMT 39.875481 -75.231644 0 167 13
2021-07-19 19:44:37 GMT 39.875599 -75.231682 0 166 14
2021-07-19 19:44:36 GMT 39.875671 -75.231689 0 161 13
2021-07-19 19:44:35 GMT 39.875721 -75.231720 0 163 14
2021-07-19 19:44:33 GMT 39.875839 -75.231758 0 158 17
2021-07-19 19:44:32 GMT 39.875889 -75.231819 0 164 18
2021-07-19 19:44:31 GMT 39.876080 -75.231873 0 157 15
2021-07-19 19:44:29 GMT 39.876141 -75.231903 0 154 16
2021-07-19 19:44:28 GMT 39.876240 -75.231949 0 154 13
2021-07-19 19:44:27 GMT 39.876339 -75.232033 0 158 13
2021-07-19 19:44:25 GMT 39.876400 -75.232063 0 157 13
2021-07-19 19:44:24 GMT 39.876438 -75.232071 0 157 16
2021-07-19 19:44:23 GMT 39.876579 -75.232147 0 162 15
2021-07-19 19:44:21 GMT 39.876629 -75.232170 0 162 17
2021-07-19 19:44:19 GMT 39.876789 -75.232208 0 151 16
2021-07-19 19:44:18 GMT 39.876850 -75.232246 0 148 18
2021-07-19 19:44:16 GMT 39.876980 -75.232399 0 165 15
2021-07-19 19:44:15 GMT 39.877071 -75.232407 0 158 14
2021-07-19 19:44:13 GMT 39.877178 -75.232491 0 167 13
2021-07-19 19:44:12 GMT 39.877239 -75.232468 0 157 15
2021-07-19 19:44:11 GMT 39.877300 -75.232521 0 160 14
2021-07-19 19:44:09 GMT 39.877430 -75.232567 0 155 14
2021-07-19 19:44:08 GMT 39.877480 -75.232597 0 152 14
2021-07-19 19:44:07 GMT 39.877602 -75.232674 0 157 11
2021-07-19 19:44:05 GMT 39.877659 -75.232727 0 164 9
2021-07-19 19:44:04 GMT 39.877682 -75.232727 0 164 12
2021-07-19 19:44:03 GMT 39.877781 -75.232780 0 170 13
2021-07-19 19:44:01 GMT 39.877850 -75.232788 0 164 13
2021-07-19 19:44:00 GMT 39.877972 -75.232841 0 163 10
2021-07-19 19:43:58 GMT 39.878029 -75.232849 0 165 8
2021-07-19 19:43:57 GMT 39.878078 -75.232857 0 159 12
2021-07-19 19:43:55 GMT 39.878132 -75.232872 0 156 12
2021-07-19 19:43:54 GMT 39.878170 -75.232910 0 160 14
2021-07-19 19:43:53 GMT 39.878300 -75.232971 0 160 12
2021-07-19 19:43:51 GMT 39.878361 -75.233009 0 163 11
2021-07-19 19:43:50 GMT 39.878410 -75.233017 0 160 11
2021-07-19 19:43:48 GMT 39.878502 -75.233063 0 161 12
2021-07-19 19:43:47 GMT 39.878551 -75.233078 0 160 11
2021-07-19 19:43:46 GMT 39.878609 -75.233101 0 157 11
2021-07-19 19:43:45 GMT 39.878658 -75.233109 0 157 10
2021-07-19 19:43:43 GMT 39.878738 -75.233170 0 155 11
2021-07-19 19:43:42 GMT 39.878849 -75.233223 0 156 11
2021-07-19 19:43:40 GMT 39.878899 -75.233253 0 159 10
2021-07-19 19:43:39 GMT 39.878929 -75.233292 0 167 11
2021-07-19 19:43:37 GMT 39.879028 -75.233322 0 160 11
2021-07-19 19:43:36 GMT 39.879082 -75.233299 0 152 11
2021-07-19 19:43:35 GMT 39.879181 -75.233383 0 156 10
2021-07-19 19:43:33 GMT 39.879211 -75.233398 0 158 12
2021-07-19 19:43:32 GMT 39.879261 -75.233452 0 163 11
2021-07-19 19:43:31 GMT 39.879391 -75.233467 0 151 10
2021-07-19 19:43:29 GMT 39.879421 -75.233498 0 154 10
2021-07-19 19:43:28 GMT 39.879490 -75.233566 0 161 11
2021-07-19 19:43:26 GMT 39.879520 -75.233566 0 157 13
2021-07-19 19:43:25 GMT 39.879608 -75.233597 0 156 9
2021-07-19 19:43:23 GMT 39.879669 -75.233650 0 157 12
2021-07-19 19:43:22 GMT 39.879719 -75.233673 0 158 11
2021-07-19 19:43:21 GMT 39.879768 -75.233704 0 157 11
2021-07-19 19:43:19 GMT 39.879879 -75.233742 0 153 9
2021-07-19 19:43:18 GMT 39.879921 -75.233780 0 159 9
2021-07-19 19:43:17 GMT 39.879990 -75.233833 0 163 9
2021-07-19 19:43:15 GMT 39.880020 -75.233818 0 161 10
2021-07-19 19:43:14 GMT 39.880051 -75.233849 0 162 10
2021-07-19 19:43:12 GMT 39.880150 -75.233871 0 159 11
2021-07-19 19:43:10 GMT 39.880249 -75.233940 0 158 10
2021-07-19 19:43:09 GMT 39.880299 -75.233940 0 146 9
2021-07-19 19:43:08 GMT 39.880360 -75.233940 0 144 7
2021-07-19 19:43:06 GMT 39.880421 -75.234032 0 148 5
2021-07-19 19:43:05 GMT 39.880440 -75.234039 0 145 6
2021-07-19 19:43:04 GMT 39.880489 -75.234062 0 141 7
2021-07-19 19:43:02 GMT 39.880520 -75.234100 0 140 6
2021-07-19 19:43:00 GMT 39.880539 -75.234131 0 139 9
2021-07-19 19:42:59 GMT 39.880589 -75.234161 0 131 8
2021-07-19 19:42:58 GMT 39.880619 -75.234177 0 130 10
2021-07-19 19:42:57 GMT 39.880638 -75.234238 0 131 9
2021-07-19 19:42:55 GMT 39.880711 -75.234299 0 114 8
2021-07-19 19:42:54 GMT 39.880730 -75.234329 0 110 9
2021-07-19 19:42:53 GMT 39.880772 -75.234428 0 105 8
2021-07-19 19:42:51 GMT 39.880791 -75.234497 0 102 6
2021-07-19 19:42:50 GMT 39.880798 -75.234558 0 106 7
2021-07-19 19:42:48 GMT 39.880798 -75.234612 0 109 6
2021-07-19 19:42:47 GMT 39.880810 -75.234627 0 108 7
2021-07-19 19:42:46 GMT 39.880821 -75.234688 0 111 7
2021-07-19 19:42:44 GMT 39.880840 -75.234749 0 113 7
2021-07-19 19:42:43 GMT 39.880852 -75.234802 0 111 5
2021-07-19 19:42:42 GMT 39.880878 -75.234871 0 97 5
2021-07-19 19:42:40 GMT 39.880901 -75.234894 0 91 6
2021-07-19 19:42:39 GMT 39.880890 -75.234917 0 100 6
2021-07-19 19:42:37 GMT 39.880890 -75.235001 0 104 5
2021-07-19 19:42:36 GMT 39.880909 -75.235023 0 100 6
2021-07-19 19:42:34 GMT 39.880890 -75.235107 0 105 4
2021-07-19 19:42:33 GMT 39.880909 -75.235138 0 94 3
2021-07-19 19:42:32 GMT 39.880920 -75.235153 0 91 3
2021-07-19 19:42:30 GMT 39.880932 -75.235184 0 61 5
2021-07-19 19:42:29 GMT 39.880951 -75.235207 0 22 4
2021-07-19 19:42:28 GMT 39.880970 -75.235207 0 22 4
2021-07-19 19:42:26 GMT 39.881069 -75.235252 0 22 16

Making use of Plane Finder data

You are free to use the raw flight data, aircraft information and images provided in this report for your own purposes provided the data is correctly attributed to Plane Finder. We ask that you please credit Plane Finder and link to planefinder.net in close proximity to the content.

Optionally one of the following logos (no smaller then 150x24px) can be used and must link to planefinder.net

Embedding the Plane Finder map

You are welcome to embed the Plane Finder playback map on your website to offer visitors a more interactive experience. We suggest using the following HTML code:

<iframe src="//planefinder.net/data/report/AA6033-N672AE-7700-squawk-2021-07-19/map" width="800" height="600" seamless="seamless"></iframe>

Where our data comes from

Plane Finder has a global network of data feeds and antenna radars that receive data broadcast directly from aircraft. The primary technologies used are ADS-B and MLAT. We also show feeds from the FAA and a FLARM glider feed.

Click here to find out more about the Plane Finder network.

How we collect our data